Time,TemperatureF,DewpointF,PressureIn,WindDirection,WindDirectionDegrees,WindSpeedMPH,WindSpeedGustMPH,Humidity,HourlyPrecipIn,Conditions,Clouds,dailyrainin,SoftwareType,DateUTC
2013-07-09 00:00:00,70.5,69.0,30.18,WSW,248,1.1,1.1,95,0.00,,FEW002,0.00,VWS V14.01,2013-07-09 04:00:00,
2013-07-09 00:01:00,70.5,69.0,30.18,SW,225,0.0,0.0,95,0.00,,CLR,0.04,VWS V14.01,2013-07-09 04:01:00,
2013-07-09 00:02:00,70.5,69.0,30.18,WSW,248,1.1,1.1,95,0.00,,CLR,0.00,VWS V14.01,2013-07-09 04:02:00,
2013-07-09 00:03:00,70.5,69.0,30.18,WSW,248,1.6,1.6,95,0.00,,CLR,0.00,VWS V14.01,2013-07-09 04:03:00,
2013-07-09 00:04:00,70.5,69.3,30.18,SW,225,0.0,0.0,96,0.00,,FEW002,0.00,VWS V14.01,2013-07-09 04:04:00,
2013-07-09 00:05:00,70.3,68.8,30.18,SSW,202,0.0,0.0,95,0.00,,FEW002,0.00,VWS V14.01,2013-07-09 04:05:00,
2013-07-09 00:06:00,70.3,68.8,30.18,SSW,202,0.0,0.0,95,0.00,,FEW002,0.00,VWS V14.01,2013-07-09 04:06:00,
2013-07-09 00:07:00,70.3,68.8,30.18,SSW,202,0.0,0.0,95,0.00,,FEW002,0.00,VWS V14.01,2013-07-09 04:07:00,
2013-07-09 00:08:00,70.3,68.8,30.18,SSW,202,0.0,0.0,95,0.00,,CLR,0.00,VWS V14.01,2013-07-09 04:08:00,
2013-07-09 00:09:00,70.5,69.0,30.18,SSE,158,1.1,1.1,95,0.00,,FEW002,0.00,VWS V14.01,2013-07-09 04:09:00,
2013-07-09 00:10:00,70.5,69.3,30.18,SE,135,1.3,1.3,96,0.00,,FEW002,0.00,VWS V14.01,2013-07-09 04:10:00,
2013-07-09 00:11:00,70.5,69.3,30.18,SE,135,2.0,2.0,96,0.00,,FEW002,0.00,VWS V14.01,2013-07-09 04:11:00,
2013-07-09 00:12:00,70.3,69.1,30.18,SE,135,2.0,2.0,96,0.00,,FEW002,0.00,VWS V14.01,2013-07-09 04:12:00,
2013-07-09 00:13:00,70.3,69.1,30.18,SE,135,2.2,2.2,96,0.00,,CLR,0.00,VWS V14.01,2013-07-09 04:13:00,
2013-07-09 00:14:00,70.1,68.9,30.18,SE,135,1.1,1.1,96,0.00,,FEW002,0.00,VWS V14.01,2013-07-09 04:14:00,
2013-07-09 00:15:00,70.1,68.9,30.18,SE,135,1.6,1.6,96,0.00,,FEW002,0.00,VWS V14.01,2013-07-09 04:15:00,
2013-07-09 00:16:00,70.1,68.9,30.18,SE,135,2.0,2.0,96,0.00,,FEW002,0.00,VWS V14.01,2013-07-09 04:16:00,
2013-07-09 00:17:00,70.1,68.9,30.18,SE,135,0.0,0.0,96,0.00,,FEW002,0.00,VWS V14.01,2013-07-09 04:17:00,
2013-07-09 00:18:00,70.1,68.9,30.18,SE,135,1.3,1.3,96,0.00,,CLR,0.00,VWS V14.01,2013-07-09 04:18:00,
2013-07-09 00:19:00,69.9,68.8,30.18,SSW,202,0.0,0.0,96,0.00,,FEW002,0.00,VWS V14.01,2013-07-09 04:19:00,
2013-07-09 00:20:00,69.9,68.8,30.18,SSW,202,0.0,0.0,96,0.00,,FEW002,0.00,VWS V14.01,2013-07-09 04:20:00,
2013-07-09 00:21:00,69.9,68.8,30.18,WSW,248,1.3,1.3,96,0.00,,FEW002,0.00,VWS V14.01,2013-07-09 04:21:00,
2013-07-09 00:22:00,69.9,68.8,30.18,SSW,202,1.3,1.3,96,0.00,,FEW002,0.00,VWS V14.01,2013-07-09 04:22:00,
2013-07-09 00:23:00,69.9,68.8,30.18,SW,225,2.0,2.0,96,0.00,,CLR,0.00,VWS V14.01,2013-07-09 04:23:00,
2013-07-09 00:24:00,70.1,68.9,30.18,SSW,202,1.3,1.3,96,0.00,,FEW002,0.00,VWS V14.01,2013-07-09 04:24:00,
2013-07-09 00:25:00,70.1,68.9,30.18,SW,225,1.1,1.1,96,0.00,,FEW002,0.00,VWS V14.01,2013-07-09 04:25:00,
2013-07-09 00:26:00,70.1,68.9,30.18,SW,225,0.0,0.0,96,0.00,,FEW002,0.00,VWS V14.01,2013-07-09 04:26:00,
2013-07-09 00:27:00,70.1,68.9,30.18,SW,225,0.0,0.0,96,0.00,,FEW002,0.00,VWS V14.01,2013-07-09 04:27:00,
2013-07-09 00:28:00,70.1,68.9,30.18,SW,225,0.0,0.0,96,0.00,,CLR,0.00,VWS V14.01,2013-07-09 04:28:00,
2013-07-09 00:29:00,70.1,68.9,30.18,SW,225,0.0,0.0,96,0.00,,FEW002,0.00,VWS V14.01,2013-07-09 04:29:00,
2013-07-09 00:30:00,69.9,68.8,30.18,SW,225,0.0,0.0,96,0.00,,FEW002,0.00,VWS V14.01,2013-07-09 04:30:00,
2013-07-09 00:31:00,69.9,68.8,30.18,SSW,202,1.1,1.1,96,0.00,,FEW002,0.00,VWS V14.01,2013-07-09 04:31:00,
2013-07-09 00:32:00,70.1,68.9,30.18,SW,225,2.0,2.0,96,0.00,,FEW002,0.00,VWS V14.01,2013-07-09 04:32:00,
2013-07-09 00:33:00,69.9,68.8,30.18,SW,225,1.6,1.6,96,0.00,,CLR,0.00,VWS V14.01,2013-07-09 04:33:00,
2013-07-09 00:34:00,70.3,69.1,30.18,WSW,248,2.0,2.0,96,0.00,,FEW002,0.00,VWS V14.01,2013-07-09 04:34:00,
2013-07-09 00:35:00,70.3,69.1,30.18,WSW,248,2.0,2.0,96,0.00,,FEW002,0.00,VWS V14.01,2013-07-09 04:35:00,
2013-07-09 00:36:00,70.5,69.6,30.18,WSW,248,2.5,2.5,97,0.00,,FEW002,0.00,VWS V14.01,2013-07-09 04:36:00,
2013-07-09 00:37:00,70.5,69.6,30.18,WSW,248,2.9,2.9,97,0.00,,FEW002,0.00,VWS V14.01,2013-07-09 04:37:00,
2013-07-09 00:38:00,70.5,69.6,30.18,WSW,248,2.2,2.2,97,0.00,,CLR,0.00,VWS V14.01,2013-07-09 04:38:00,
2013-07-09 00:39:00,70.5,69.6,30.18,WSW,248,2.7,2.7,97,0.00,,FEW002,0.00,VWS V14.01,2013-07-09 04:39:00,
2013-07-09 00:40:00,70.5,69.6,30.15,WSW,248,1.3,1.3,97,0.00,,FEW002,0.00,VWS V14.01,2013-07-09 04:40:00,
2013-07-09 00:41:00,70.3,69.4,30.15,SW,225,1.1,1.1,97,0.00,,FEW002,0.00,VWS V14.01,2013-07-09 04:41:00,
2013-07-09 00:42:00,70.3,69.4,30.15,WSW,248,1.3,1.3,97,0.00,,FEW002,0.00,VWS V14.01,2013-07-09 04:42:00,
2013-07-09 00:43:00,70.3,69.4,30.15,WSW,248,2.0,2.0,97,0.00,,CLR,0.00,VWS V14.01,2013-07-09 04:43:00,
2013-07-09 00:44:00,70.3,69.4,30.15,SSW,202,2.5,2.5,97,0.00,,FEW002,0.00,VWS V14.01,2013-07-09 04:44:00,
2013-07-09 00:45:00,70.3,69.4,30.15,SSW,202,0.0,0.0,97,0.00,,FEW002,0.00,VWS V14.01,2013-07-09 04:45:00,
2013-07-09 00:46:00,70.3,69.4,30.15,SSW,202,2.2,2.2,97,0.00,,FEW002,0.00,VWS V14.01,2013-07-09 04:46:00,
2013-07-09 00:47:00,70.1,69.2,30.15,SSW,202,1.3,1.3,97,0.00,,FEW002,0.00,VWS V14.01,2013-07-09 04:47:00,
2013-07-09 00:48:00,70.1,69.2,30.15,SSW,202,1.3,1.3,97,0.00,,CLR,0.00,VWS V14.01,2013-07-09 04:48:00,
2013-07-09 00:49:00,70.1,69.2,30.15,SSW,202,2.7,2.7,97,0.00,,FEW002,0.00,VWS V14.01,2013-07-09 04:49:00,
2013-07-09 00:50:00,70.1,69.2,30.15,South,180,2.0,2.0,97,0.00,,FEW002,0.00,VWS V14.01,2013-07-09 04:50:00,
2013-07-09 00:51:00,70.3,69.4,30.15,SW,225,0.9,0.9,97,0.00,,FEW002,0.00,VWS V14.01,2013-07-09 04:51:00,
2013-07-09 00:52:00,70.3,69.4,30.15,SSW,202,2.0,2.0,97,0.00,,FEW002,0.00,VWS V14.01,2013-07-09 04:52:00,
2013-07-09 00:53:00,70.3,69.4,30.15,SW,225,1.6,1.6,97,0.00,,CLR,0.00,VWS V14.01,2013-07-09 04:53:00,
2013-07-09 00:54:00,70.3,69.4,30.15,SSW,202,2.0,2.0,97,0.00,,FEW002,0.00,VWS V14.01,2013-07-09 04:54:00,
2013-07-09 00:55:00,70.1,69.2,30.15,SSW,202,1.3,1.3,97,0.00,,FEW002,0.00,VWS V14.01,2013-07-09 04:55:00,
2013-07-09 00:56:00,70.1,69.2,30.15,SSW,202,1.6,1.6,97,0.00,,FEW002,0.00,VWS V14.01,2013-07-09 04:56:00,
2013-07-09 00:57:00,70.1,69.2,30.15,SSW,202,1.3,1.3,97,0.00,,FEW002,0.00,VWS V14.01,2013-07-09 04:57:00,
2013-07-09 00:58:00,70.1,69.2,30.15,SSW,202,1.1,1.1,97,0.00,,FEW002,0.00,VWS V14.01,2013-07-09 04:58:00,
2013-07-09 00:59:00,70.1,69.2,30.15,SSW,202,0.9,0.9,97,0.00,,CLR,0.00,VWS V14.01,2013-07-09 04:59:00,
2013-07-09 01:00:00,70.1,69.2,30.15,SW,225,1.6,1.6,97,0.00,,FEW002,0.00,VWS V14.01,2013-07-09 05:00:00,
2013-07-09 01:01:00,70.1,69.2,30.15,SW,225,2.5,2.5,97,0.00,,FEW002,0.00,VWS V14.01,2013-07-09 05:01:00,
2013-07-09 01:02:00,70.1,69.2,30.15,SSW,202,1.6,1.6,97,0.00,,FEW002,0.00,VWS V14.01,2013-07-09 05:02:00,
2013-07-09 01:03:00,70.1,69.2,30.15,SSW,202,2.2,2.2,97,0.00,,FEW002,0.00,VWS V14.01,2013-07-09 05:03:00,
2013-07-09 01:04:00,70.1,69.2,30.15,SW,225,1.3,1.3,97,0.00,,CLR,0.00,VWS V14.01,2013-07-09 05:04:00,
2013-07-09 01:05:00,70.1,69.2,30.15,WSW,248,0.0,0.0,97,0.00,,FEW002,0.00,VWS V14.01,2013-07-09 05:05:00,
2013-07-09 01:06:00,70.1,69.2,30.15,WSW,248,0.0,0.0,97,0.00,,FEW002,0.00,VWS V14.01,2013-07-09 05:06:00,
2013-07-09 01:07:00,70.1,69.2,30.15,WSW,248,0.0,0.0,97,0.00,,FEW002,0.00,VWS V14.01,2013-07-09 05:07:00,
2013-07-09 01:08:00,70.1,69.2,30.15,WSW,248,0.0,0.0,97,0.00,,FEW002,0.00,VWS V14.01,2013-07-09 05:08:00,
2013-07-09 01:09:00,70.1,69.2,30.15,SW,225,0.0,0.0,97,0.00,,CLR,0.00,VWS V14.01,2013-07-09 05:09:00,
2013-07-09 01:10:00,70.1,69.2,30.15,West,270,1.3,1.3,97,0.00,,FEW002,0.00,VWS V14.01,2013-07-09 05:10:00,
2013-07-09 01:11:00,70.1,69.2,30.15,West,270,0.0,0.0,97,0.00,,FEW002,0.00,VWS V14.01,2013-07-09 05:11:00,
2013-07-09 01:12:00,70.1,69.2,30.15,West,270,0.0,0.0,97,0.00,,FEW002,0.00,VWS V14.01,2013-07-09 05:12:00,
2013-07-09 01:13:00,70.1,69.2,30.15,West,270,0.0,0.0,97,0.00,,FEW002,0.00,VWS V14.01,2013-07-09 05:13:00,
2013-07-09 01:14:00,70.1,69.2,30.15,West,270,0.0,0.0,97,0.00,,CLR,0.00,VWS V14.01,2013-07-09 05:14:00,
2013-07-09 01:15:00,70.1,69.2,30.15,West,270,0.0,0.0,97,0.00,,FEW002,0.00,VWS V14.01,2013-07-09 05:15:00,
2013-07-09 01:16:00,70.1,69.2,30.15,West,270,0.0,0.0,97,0.00,,FEW002,0.00,VWS V14.01,2013-07-09 05:16:00,
2013-07-09 01:17:00,70.1,69.2,30.15,West,270,0.0,0.0,97,0.00,,FEW002,0.00,VWS V14.01,2013-07-09 05:17:00,
2013-07-09 01:18:00,69.9,69.1,30.15,WSW,248,0.0,0.0,97,0.00,,FEW002,0.00,VWS V14.01,2013-07-09 05:18:00,
2013-07-09 01:19:00,70.1,69.2,30.15,West,270,0.0,0.0,97,0.00,,CLR,0.00,VWS V14.01,2013-07-09 05:19:00,
2013-07-09 01:20:00,69.9,68.8,30.15,WSW,248,0.0,0.0,96,0.00,,FEW002,0.00,VWS V14.01,2013-07-09 05:20:00,
2013-07-09 01:21:00,69.9,68.8,30.15,WSW,248,0.0,0.0,96,0.00,,FEW002,0.00,VWS V14.01,2013-07-09 05:21:00,
2013-07-09 01:22:00,69.9,68.8,30.15,WSW,248,0.0,0.0,96,0.00,,FEW002,0.00,VWS V14.01,2013-07-09 05:22:00,
2013-07-09 01:23:00,69.9,68.8,30.15,WSW,248,0.0,0.0,96,0.00,,FEW002,0.00,VWS V14.01,2013-07-09 05:23:00,
2013-07-09 01:24:00,69.9,68.8,30.15,WSW,248,0.0,0.0,96,0.00,,CLR,0.00,VWS V14.01,2013-07-09 05:24:00,
2013-07-09 01:25:00,69.9,68.8,30.18,WSW,248,0.0,0.0,96,0.00,,FEW002,0.00,VWS V14.01,2013-07-09 05:25:00,
2013-07-09 01:26:00,69.9,68.8,30.18,West,270,0.0,0.0,96,0.00,,FEW002,0.00,VWS V14.01,2013-07-09 05:26:00,
2013-07-09 01:27:00,69.9,68.8,30.18,West,270,0.0,0.0,96,0.00,,FEW002,0.00,VWS V14.01,2013-07-09 05:27:00,
2013-07-09 01:28:00,69.8,68.6,30.18,West,270,0.0,0.0,96,0.00,,FEW002,0.00,VWS V14.01,2013-07-09 05:28:00,
2013-07-09 01:29:00,69.9,68.8,30.18,West,270,0.0,0.0,96,0.00,,CLR,0.00,VWS V14.01,2013-07-09 05:29:00,
2013-07-09 01:30:00,69.9,68.8,30.18,West,270,2.0,2.0,96,0.00,,FEW002,0.00,VWS V14.01,2013-07-09 05:30:00,
2013-07-09 01:31:00,69.9,68.8,30.18,West,270,2.2,2.2,96,0.00,,FEW002,0.00,VWS V14.01,2013-07-09 05:31:00,
2013-07-09 01:32:00,70.1,69.2,30.18,West,270,2.5,2.5,97,0.00,,FEW002,0.00,VWS V14.01,2013-07-09 05:32:00,
2013-07-09 01:33:00,70.1,69.2,30.18,WNW,292,1.6,1.6,97,0.00,,FEW002,0.00,VWS V14.01,2013-07-09 05:33:00,
2013-07-09 01:34:00,70.1,69.2,30.18,West,270,2.5,2.5,97,0.00,,CLR,0.00,VWS V14.01,2013-07-09 05:34:00,
2013-07-09 01:35:00,70.1,69.2,30.18,West,270,2.2,2.2,97,0.00,,FEW002,0.00,VWS V14.01,2013-07-09 05:35:00,
2013-07-09 01:36:00,70.1,69.2,30.18,West,270,2.5,2.5,97,0.00,,FEW002,0.00,VWS V14.01,2013-07-09 05:36:00,
2013-07-09 01:37:00,70.3,69.4,30.18,WNW,292,2.7,2.7,97,0.00,,FEW002,0.00,VWS V14.01,2013-07-09 05:37:00,
2013-07-09 01:38:00,70.3,69.4,30.18,West,270,2.0,2.0,97,0.00,,FEW002,0.00,VWS V14.01,2013-07-09 05:38:00,
2013-07-09 01:39:00,70.3,69.4,30.18,WNW,292,2.7,2.7,97,0.00,,CLR,0.00,VWS V14.01,2013-07-09 05:39:00,
2013-07-09 01:40:00,70.5,69.6,30.15,WNW,292,3.4,3.4,97,0.00,,FEW002,0.00,VWS V14.01,2013-07-09 05:40:00,
2013-07-09 01:41:00,70.5,69.6,30.15,West,270,2.5,2.5,97,0.00,,FEW002,0.00,VWS V14.01,2013-07-09 05:41:00,
2013-07-09 01:42:00,70.5,69.6,30.15,West,270,2.9,2.9,97,0.00,,FEW002,0.00,VWS V14.01,2013-07-09 05:42:00,
2013-07-09 01:43:00,70.7,69.8,30.15,West,270,2.7,2.7,97,0.00,,FEW002,0.00,VWS V14.01,2013-07-09 05:43:00,
2013-07-09 01:44:00,70.5,69.6,30.15,West,270,2.9,2.9,97,0.00,,CLR,0.00,VWS V14.01,2013-07-09 05:44:00,
2013-07-09 01:45:00,70.7,70.1,30.15,West,270,2.5,2.5,98,0.00,,FEW002,0.00,VWS V14.01,2013-07-09 05:45:00,
2013-07-09 01:46:00,70.7,70.1,30.15,West,270,2.2,2.2,98,0.00,,FEW002,0.00,VWS V14.01,2013-07-09 05:46:00,
2013-07-09 01:47:00,70.7,70.1,30.15,West,270,2.7,2.7,98,0.00,,FEW002,0.00,VWS V14.01,2013-07-09 05:47:00,
2013-07-09 01:48:00,70.7,70.1,30.15,WNW,292,1.6,1.6,98,0.00,,FEW002,0.00,VWS V14.01,2013-07-09 05:48:00,
2013-07-09 01:49:00,70.7,70.1,30.15,West,270,2.7,2.7,98,0.00,,CLR,0.00,VWS V14.01,2013-07-09 05:49:00,
2013-07-09 01:50:00,70.8,70.2,30.15,West,270,2.0,2.0,98,0.00,,FEW002,0.00,VWS V14.01,2013-07-09 05:50:00,
2013-07-09 01:51:00,70.8,70.2,30.15,West,270,2.9,2.9,98,0.00,,FEW002,0.00,VWS V14.01,2013-07-09 05:51:00,
2013-07-09 01:52:00,70.8,70.2,30.15,West,270,2.5,2.5,98,0.00,,FEW002,0.00,VWS V14.01,2013-07-09 05:52:00,
2013-07-09 01:53:00,70.8,70.2,30.15,West,270,2.5,2.5,98,0.00,,FEW002,0.00,VWS V14.01,2013-07-09 05:53:00,
2013-07-09 01:54:00,70.8,70.2,30.15,West,270,2.5,2.5,98,0.00,,CLR,0.00,VWS V14.01,2013-07-09 05:54:00,
2013-07-09 01:55:00,70.8,70.2,30.15,West,270,1.1,1.1,98,0.00,,FEW002,0.00,VWS V14.01,2013-07-09 05:55:00,
2013-07-09 01:56:00,70.8,70.2,30.15,West,270,1.3,1.3,98,0.00,,FEW002,0.00,VWS V14.01,2013-07-09 05:56:00,
2013-07-09 01:57:00,70.8,70.2,30.15,WSW,248,0.0,0.0,98,0.00,,FEW002,0.00,VWS V14.01,2013-07-09 05:57:00,
2013-07-09 01:58:00,70.8,70.2,30.15,WSW,248,1.1,1.1,98,0.00,,FEW002,0.00,VWS V14.01,2013-07-09 05:58:00,
2013-07-09 01:59:00,70.8,70.2,30.15,WSW,248,0.0,0.0,98,0.00,,CLR,0.00,VWS V14.01,2013-07-09 05:59:00,
2013-07-09 02:00:00,70.8,70.2,30.15,West,270,0.0,0.0,98,0.00,,FEW002,0.00,VWS V14.01,2013-07-09 06:00:00,
2013-07-09 02:01:00,70.8,70.2,30.15,WSW,248,1.3,1.3,98,0.00,,FEW002,0.00,VWS V14.01,2013-07-09 06:01:00,
2013-07-09 02:02:00,70.8,70.2,30.15,WSW,248,1.3,1.3,98,0.00,,FEW002,0.00,VWS V14.01,2013-07-09 06:02:00,
2013-07-09 02:03:00,70.8,70.2,30.15,WSW,248,1.1,1.1,98,0.00,,FEW002,0.00,VWS V14.01,2013-07-09 06:03:00,
2013-07-09 02:04:00,70.8,70.2,30.15,WSW,248,1.3,1.3,98,0.00,,CLR,0.00,VWS V14.01,2013-07-09 06:04:00,
2013-07-09 02:05:00,70.8,70.2,30.15,WSW,248,0.0,0.0,98,0.00,,FEW002,0.00,VWS V14.01,2013-07-09 06:05:00,
2013-07-09 02:06:00,70.8,70.2,30.15,WSW,248,0.0,0.0,98,0.00,,FEW002,0.00,VWS V14.01,2013-07-09 06:06:00,
2013-07-09 02:07:00,70.8,70.2,30.15,West,270,1.6,1.6,98,0.00,,FEW002,0.00,VWS V14.01,2013-07-09 06:07:00,
2013-07-09 02:08:00,70.8,70.2,30.15,West,270,1.1,1.1,98,0.00,,FEW002,0.00,VWS V14.01,2013-07-09 06:08:00,
2013-07-09 02:09:00,70.8,70.2,30.15,West,270,1.6,1.6,98,0.00,,CLR,0.00,VWS V14.01,2013-07-09 06:09:00,
2013-07-09 02:10:00,70.8,70.2,30.15,West,270,0.0,0.0,98,0.00,,FEW002,0.00,VWS V14.01,2013-07-09 06:10:00,
2013-07-09 02:11:00,70.8,70.2,30.15,West,270,0.0,0.0,98,0.00,,FEW002,0.00,VWS V14.01,2013-07-09 06:11:00,
2013-07-09 02:12:00,70.7,70.1,30.15,SW,225,0.0,0.0,98,0.00,,FEW002,0.00,VWS V14.01,2013-07-09 06:12:00,
2013-07-09 02:13:00,70.7,69.8,30.15,SW,225,0.0,0.0,97,0.00,,FEW002,0.00,VWS V14.01,2013-07-09 06:13:00,
2013-07-09 02:14:00,70.7,70.1,30.15,SW,225,0.0,0.0,98,0.00,,CLR,0.00,VWS V14.01,2013-07-09 06:14:00,
2013-07-09 02:15:00,70.7,69.8,30.15,SW,225,0.0,0.0,97,0.00,,FEW002,0.00,VWS V14.01,2013-07-09 06:15:00,
2013-07-09 02:16:00,70.7,69.8,30.15,SW,225,0.0,0.0,97,0.00,,FEW002,0.00,VWS V14.01,2013-07-09 06:16:00,
2013-07-09 02:17:00,70.7,69.8,30.15,SW,225,1.6,1.6,97,0.00,,FEW002,0.00,VWS V14.01,2013-07-09 06:17:00,
2013-07-09 02:18:00,70.7,69.8,30.15,SW,225,1.3,1.3,97,0.00,,FEW002,0.00,VWS V14.01,2013-07-09 06:18:00,
2013-07-09 02:19:00,70.7,69.8,30.15,SW,225,1.6,1.6,97,0.00,,CLR,0.00,VWS V14.01,2013-07-09 06:19:00,
2013-07-09 02:20:00,70.7,69.8,30.15,SSW,202,1.1,1.1,97,0.00,,FEW002,0.00,VWS V14.01,2013-07-09 06:20:00,
2013-07-09 02:21:00,70.7,69.8,30.15,SSW,202,0.0,0.0,97,0.00,,FEW002,0.00,VWS V14.01,2013-07-09 06:21:00,
2013-07-09 02:22:00,70.7,69.8,30.15,SSW,202,0.0,0.0,97,0.00,,FEW002,0.00,VWS V14.01,2013-07-09 06:22:00,
2013-07-09 02:23:00,70.5,69.6,30.15,SSW,202,0.0,0.0,97,0.00,,FEW002,0.00,VWS V14.01,2013-07-09 06:23:00,
2013-07-09 02:24:00,70.7,69.8,30.15,SSW,202,0.0,0.0,97,0.00,,CLR,0.00,VWS V14.01,2013-07-09 06:24:00,
2013-07-09 02:25:00,70.5,69.6,30.12,SSW,202,0.0,0.0,97,0.00,,FEW002,0.00,VWS V14.01,2013-07-09 06:25:00,
2013-07-09 02:26:00,70.5,69.6,30.12,SSW,202,0.0,0.0,97,0.00,,FEW002,0.00,VWS V14.01,2013-07-09 06:26:00,
2013-07-09 02:27:00,70.5,69.6,30.12,SSW,202,0.0,0.0,97,0.00,,FEW002,0.00,VWS V14.01,2013-07-09 06:27:00,
2013-07-09 02:28:00,70.5,69.6,30.12,SSW,202,0.0,0.0,97,0.00,,FEW002,0.00,VWS V14.01,2013-07-09 06:28:00,
2013-07-09 02:29:00,70.5,69.6,30.12,SSW,202,0.0,0.0,97,0.00,,CLR,0.00,VWS V14.01,2013-07-09 06:29:00,
2013-07-09 02:30:00,70.5,69.6,30.12,SSW,202,0.0,0.0,97,0.00,,FEW002,0.00,VWS V14.01,2013-07-09 06:30:00,
2013-07-09 02:31:00,70.5,69.6,30.12,SSW,202,0.0,0.0,97,0.00,,FEW002,0.00,VWS V14.01,2013-07-09 06:31:00,
2013-07-09 02:32:00,70.5,69.6,30.12,SW,225,1.3,1.3,97,0.00,,FEW002,0.00,VWS V14.01,2013-07-09 06:32:00,
2013-07-09 02:33:00,70.5,69.6,30.12,SW,225,0.9,0.9,97,0.00,,FEW002,0.00,VWS V14.01,2013-07-09 06:33:00,
2013-07-09 02:34:00,70.5,69.6,30.12,SW,225,1.3,1.3,97,0.00,,CLR,0.00,VWS V14.01,2013-07-09 06:34:00,
2013-07-09 02:35:00,70.5,69.6,30.12,SW,225,0.0,0.0,97,0.00,,FEW002,0.00,VWS V14.01,2013-07-09 06:35:00,
2013-07-09 02:36:00,70.5,69.6,30.12,SW,225,0.0,0.0,97,0.00,,FEW002,0.00,VWS V14.01,2013-07-09 06:36:00,
2013-07-09 02:37:00,70.3,69.4,30.12,SW,225,0.0,0.0,97,0.00,,FEW002,0.00,VWS V14.01,2013-07-09 06:37:00,
2013-07-09 02:38:00,70.3,69.4,30.12,SSW,202,0.0,0.0,97,0.00,,FEW002,0.00,VWS V14.01,2013-07-09 06:38:00,
2013-07-09 02:39:00,70.3,69.4,30.12,SW,225,0.0,0.0,97,0.00,,CLR,0.00,VWS V14.01,2013-07-09 06:39:00,
2013-07-09 02:40:00,70.3,69.4,30.15,SSW,202,0.0,0.0,97,0.00,,FEW002,0.00,VWS V14.01,2013-07-09 06:40:00,
2013-07-09 02:41:00,70.3,69.4,30.15,SSW,202,0.0,0.0,97,0.00,,FEW002,0.00,VWS V14.01,2013-07-09 06:41:00,
2013-07-09 02:42:00,70.3,69.4,30.15,SSW,202,0.0,0.0,97,0.00,,FEW002,0.00,VWS V14.01,2013-07-09 06:42:00,
2013-07-09 02:43:00,70.3,69.4,30.15,SSW,202,0.0,0.0,97,0.00,,FEW002,0.00,VWS V14.01,2013-07-09 06:43:00,
2013-07-09 02:44:00,70.3,69.4,30.15,SSW,202,0.0,0.0,97,0.00,,CLR,0.00,VWS V14.01,2013-07-09 06:44:00,
2013-07-09 02:45:00,70.3,69.4,30.15,SSW,202,0.0,0.0,97,0.00,,FEW002,0.00,VWS V14.01,2013-07-09 06:45:00,
2013-07-09 02:46:00,70.3,69.4,30.15,SSW,202,0.0,0.0,97,0.00,,FEW002,0.00,VWS V14.01,2013-07-09 06:46:00,
2013-07-09 02:47:00,70.3,69.4,30.15,SSW,202,0.0,0.0,97,0.00,,FEW002,0.00,VWS V14.01,2013-07-09 06:47:00,
2013-07-09 02:48:00,70.1,69.2,30.15,South,180,0.9,0.9,97,0.00,,FEW002,0.00,VWS V14.01,2013-07-09 06:48:00,
2013-07-09 02:49:00,70.3,69.4,30.15,SSW,202,0.0,0.0,97,0.00,,CLR,0.00,VWS V14.01,2013-07-09 06:49:00,
2013-07-09 02:50:00,70.1,69.2,30.15,South,180,0.0,0.0,97,0.00,,FEW002,0.00,VWS V14.01,2013-07-09 06:50:00,
2013-07-09 02:51:00,70.1,69.2,30.15,South,180,0.0,0.0,97,0.00,,FEW002,0.00,VWS V14.01,2013-07-09 06:51:00,
2013-07-09 02:52:00,70.1,69.2,30.15,South,180,0.0,0.0,97,0.00,,FEW002,0.00,VWS V14.01,2013-07-09 06:52:00,
2013-07-09 02:53:00,70.1,69.2,30.15,SSW,202,0.0,0.0,97,0.00,,FEW002,0.00,VWS V14.01,2013-07-09 06:53:00,
2013-07-09 02:54:00,70.1,69.2,30.15,South,180,0.0,0.0,97,0.00,,CLR,0.00,VWS V14.01,2013-07-09 06:54:00,
2013-07-09 02:55:00,70.1,69.2,30.15,West,270,0.0,0.0,97,0.00,,FEW002,0.00,VWS V14.01,2013-07-09 06:55:00,
2013-07-09 02:56:00,70.1,69.2,30.15,West,270,0.9,0.9,97,0.00,,FEW002,0.00,VWS V14.01,2013-07-09 06:56:00,
2013-07-09 02:57:00,70.1,69.2,30.15,West,270,1.3,1.3,97,0.00,,FEW002,0.00,VWS V14.01,2013-07-09 06:57:00,
2013-07-09 02:58:00,70.1,69.2,30.15,West,270,0.9,0.9,97,0.00,,FEW002,0.00,VWS V14.01,2013-07-09 06:58:00,
2013-07-09 02:59:00,70.1,69.2,30.15,West,270,1.3,1.3,97,0.00,,CLR,0.00,VWS V14.01,2013-07-09 06:59:00,
2013-07-09 03:00:00,70.1,69.2,30.15,West,270,2.0,2.0,97,0.00,,FEW002,0.00,VWS V14.01,2013-07-09 07:00:00,
2013-07-09 03:01:00,70.1,69.2,30.15,West,270,1.1,1.1,97,0.00,,FEW002,0.00,VWS V14.01,2013-07-09 07:01:00,
2013-07-09 03:02:00,70.1,69.2,30.15,West,270,0.0,0.0,97,0.00,,FEW002,0.00,VWS V14.01,2013-07-09 07:02:00,
2013-07-09 03:03:00,69.9,69.1,30.15,West,270,0.0,0.0,97,0.00,,FEW002,0.00,VWS V14.01,2013-07-09 07:03:00,
2013-07-09 03:04:00,70.1,69.2,30.15,West,270,0.0,0.0,97,0.00,,CLR,0.00,VWS V14.01,2013-07-09 07:04:00,
2013-07-09 03:05:00,69.9,69.1,30.15,West,270,0.0,0.0,97,0.00,,FEW002,0.00,VWS V14.01,2013-07-09 07:05:00,
2013-07-09 03:06:00,69.9,69.1,30.15,West,270,0.0,0.0,97,0.00,,FEW002,0.00,VWS V14.01,2013-07-09 07:06:00,
2013-07-09 03:07:00,69.9,69.1,30.15,West,270,0.0,0.0,97,0.00,,FEW002,0.00,VWS V14.01,2013-07-09 07:07:00,
2013-07-09 03:08:00,69.9,69.1,30.15,West,270,0.0,0.0,97,0.00,,FEW002,0.00,VWS V14.01,2013-07-09 07:08:00,
2013-07-09 03:09:00,69.9,69.1,30.15,West,270,0.0,0.0,97,0.00,,CLR,0.00,VWS V14.01,2013-07-09 07:09:00,
2013-07-09 03:10:00,69.9,69.1,30.15,West,270,0.0,0.0,97,0.00,,FEW002,0.00,VWS V14.01,2013-07-09 07:10:00,
2013-07-09 03:11:00,69.9,69.1,30.15,West,270,0.0,0.0,97,0.00,,FEW002,0.00,VWS V14.01,2013-07-09 07:11:00,
2013-07-09 03:12:00,69.9,69.1,30.15,West,270,0.0,0.0,97,0.00,,FEW002,0.00,VWS V14.01,2013-07-09 07:12:00,
2013-07-09 03:13:00,69.9,69.1,30.15,West,270,0.0,0.0,97,0.00,,FEW002,0.00,VWS V14.01,2013-07-09 07:13:00,
2013-07-09 03:14:00,69.9,69.1,30.15,West,270,0.0,0.0,97,0.00,,CLR,0.00,VWS V14.01,2013-07-09 07:14:00,
2013-07-09 03:15:00,69.8,68.9,30.15,West,270,0.0,0.0,97,0.00,,FEW002,0.00,VWS V14.01,2013-07-09 07:15:00,
2013-07-09 03:16:00,69.8,68.9,30.15,West,270,0.0,0.0,97,0.00,,FEW002,0.00,VWS V14.01,2013-07-09 07:16:00,
2013-07-09 03:17:00,69.8,68.9,30.15,West,270,0.0,0.0,97,0.00,,FEW002,0.00,VWS V14.01,2013-07-09 07:17:00,
2013-07-09 03:18:00,69.8,68.9,30.15,West,270,0.0,0.0,97,0.00,,FEW002,0.00,VWS V14.01,2013-07-09 07:18:00,
2013-07-09 03:19:00,69.8,68.9,30.15,West,270,0.0,0.0,97,0.00,,CLR,0.00,VWS V14.01,2013-07-09 07:19:00,
2013-07-09 03:20:00,69.8,68.9,30.15,SSW,202,0.0,0.0,97,0.00,,FEW002,0.00,VWS V14.01,2013-07-09 07:20:00,
2013-07-09 03:21:00,69.8,68.9,30.15,SSW,202,0.0,0.0,97,0.00,,FEW002,0.00,VWS V14.01,2013-07-09 07:21:00,
2013-07-09 03:22:00,69.6,68.7,30.15,SSW,202,1.3,1.3,97,0.00,,FEW002,0.00,VWS V14.01,2013-07-09 07:22:00,
2013-07-09 03:23:00,69.6,68.7,30.15,SSW,202,1.3,1.3,97,0.00,,FEW002,0.00,VWS V14.01,2013-07-09 07:23:00,
2013-07-09 03:24:00,69.6,68.7,30.15,SSW,202,1.3,1.3,97,0.00,,CLR,0.00,VWS V14.01,2013-07-09 07:24:00,
2013-07-09 03:25:00,69.6,68.7,30.18,SW,225,0.0,0.0,97,0.00,,FEW002,0.00,VWS V14.01,2013-07-09 07:25:00,
2013-07-09 03:26:00,69.6,68.7,30.18,SW,225,0.0,0.0,97,0.00,,FEW002,0.00,VWS V14.01,2013-07-09 07:26:00,
2013-07-09 03:27:00,69.6,68.7,30.18,SW,225,0.0,0.0,97,0.00,,FEW002,0.00,VWS V14.01,2013-07-09 07:27:00,
2013-07-09 03:28:00,69.6,68.7,30.18,WSW,248,0.0,0.0,97,0.00,,FEW002,0.00,VWS V14.01,2013-07-09 07:28:00,
2013-07-09 03:29:00,69.6,68.7,30.18,SW,225,0.0,0.0,97,0.00,,CLR,0.00,VWS V14.01,2013-07-09 07:29:00,
2013-07-09 03:30:00,69.8,68.9,30.18,SW,225,2.0,2.0,97,0.00,,FEW002,0.00,VWS V14.01,2013-07-09 07:30:00,
2013-07-09 03:31:00,69.8,68.9,30.18,SW,225,1.6,1.6,97,0.00,,FEW002,0.00,VWS V14.01,2013-07-09 07:31:00,
2013-07-09 03:32:00,69.8,68.9,30.18,SW,225,1.6,1.6,97,0.00,,FEW002,0.00,VWS V14.01,2013-07-09 07:32:00,
2013-07-09 03:33:00,69.8,68.9,30.18,SW,225,1.6,1.6,97,0.00,,FEW002,0.00,VWS V14.01,2013-07-09 07:33:00,
2013-07-09 03:34:00,69.8,68.9,30.18,SW,225,1.6,1.6,97,0.00,,,0.00,VWS V14.01,2013-07-09 07:34:00,
2013-07-09 03:35:00,69.6,68.7,30.18,SW,225,2.0,2.0,97,0.00,,FEW002,0.00,VWS V14.01,2013-07-09 07:35:00,
2013-07-09 03:36:00,69.6,68.7,30.18,SW,225,2.0,2.0,97,0.00,,FEW002,0.00,VWS V14.01,2013-07-09 07:36:00,
2013-07-09 03:37:00,69.6,68.7,30.18,SW,225,2.0,2.0,97,0.00,,FEW002,0.00,VWS V14.01,2013-07-09 07:37:00,
2013-07-09 03:38:00,69.6,68.7,30.18,SW,225,1.6,1.6,97,0.00,,FEW002,0.00,VWS V14.01,2013-07-09 07:38:00,
2013-07-09 03:39:00,69.6,68.7,30.18,SW,225,2.0,2.0,97,0.00,,,0.00,VWS V14.01,2013-07-09 07:39:00,
2013-07-09 03:40:00,69.6,68.7,30.15,WSW,248,0.9,0.9,97,0.00,,FEW002,0.00,VWS V14.01,2013-07-09 07:40:00,
2013-07-09 03:41:00,69.6,68.7,30.15,WSW,248,0.0,0.0,97,0.00,,FEW002,0.00,VWS V14.01,2013-07-09 07:41:00,
2013-07-09 03:42:00,69.6,68.7,30.15,WSW,248,0.0,0.0,97,0.00,,FEW002,0.00,VWS V14.01,2013-07-09 07:42:00,
2013-07-09 03:43:00,69.6,68.7,30.15,WSW,248,0.0,0.0,97,0.00,,FEW002,0.00,VWS V14.01,2013-07-09 07:43:00,
2013-07-09 03:44:00,69.6,68.7,30.15,WSW,248,0.0,0.0,97,0.00,,,0.00,VWS V14.01,2013-07-09 07:44:00,
2013-07-09 03:45:00,69.6,68.7,30.15,WSW,248,1.1,1.1,97,0.00,,FEW002,0.00,VWS V14.01,2013-07-09 07:45:00,
2013-07-09 03:46:00,69.8,68.9,30.15,SW,225,2.0,2.0,97,0.00,,FEW002,0.00,VWS V14.01,2013-07-09 07:46:00,
2013-07-09 03:47:00,69.8,68.9,30.15,WSW,248,1.6,1.6,97,0.00,,FEW002,0.00,VWS V14.01,2013-07-09 07:47:00,
2013-07-09 03:48:00,69.8,68.9,30.15,WSW,248,0.9,0.9,97,0.00,,FEW002,0.00,VWS V14.01,2013-07-09 07:48:00,
2013-07-09 03:49:00,69.8,68.9,30.15,WSW,248,0.9,0.9,97,0.00,,FEW002,0.00,VWS V14.01,2013-07-09 07:49:00,
2013-07-09 03:50:00,69.8,68.9,30.15,WSW,248,0.0,0.0,97,0.00,,FEW002,0.00,VWS V14.01,2013-07-09 07:50:00,
2013-07-09 03:51:00,69.8,68.9,30.15,SW,225,1.1,1.1,97,0.00,,FEW002,0.00,VWS V14.01,2013-07-09 07:51:00,
2013-07-09 03:52:00,69.8,68.9,30.15,SW,225,0.0,0.0,97,0.00,,,0.00,VWS V14.01,2013-07-09 07:52:00,
2013-07-09 03:53:00,69.8,68.9,30.15,SW,225,0.9,0.9,97,0.00,,FEW002,0.00,VWS V14.01,2013-07-09 07:53:00,
2013-07-09 03:54:00,69.8,68.9,30.15,SSW,202,1.3,1.3,97,0.00,,FEW002,0.00,VWS V14.01,2013-07-09 07:54:00,
2013-07-09 03:55:00,69.8,68.9,30.15,SW,225,1.1,1.1,97,0.00,,FEW002,0.00,VWS V14.01,2013-07-09 07:55:00,
2013-07-09 03:56:00,69.8,68.9,30.15,SSW,202,0.9,0.9,97,0.00,,FEW002,0.00,VWS V14.01,2013-07-09 07:56:00,
2013-07-09 03:57:00,69.8,68.9,30.15,SSW,202,1.3,1.3,97,0.00,,,0.00,VWS V14.01,2013-07-09 07:57:00,
2013-07-09 03:58:00,69.8,68.9,30.15,SSW,202,1.1,1.1,97,0.00,,FEW002,0.00,VWS V14.01,2013-07-09 07:58:00,
2013-07-09 03:59:00,69.8,68.9,30.15,SSW,202,0.0,0.0,97,0.00,,FEW002,0.00,VWS V14.01,2013-07-09 07:59:00,
2013-07-09 04:00:00,69.8,68.9,30.15,SSW,202,0.0,0.0,97,0.00,,FEW002,0.00,VWS V14.01,2013-07-09 08:00:00,
2013-07-09 04:01:00,69.8,68.9,30.15,SSW,202,1.1,1.1,97,0.00,,FEW002,0.00,VWS V14.01,2013-07-09 08:01:00,
2013-07-09 04:02:00,69.8,68.9,30.15,SSW,202,1.1,1.1,97,0.00,,FEW002,0.00,VWS V14.01,2013-07-09 08:02:00,
2013-07-09 04:03:00,69.8,68.9,30.15,SSW,202,0.0,0.0,97,0.00,,,0.00,VWS V14.01,2013-07-09 08:03:00,
2013-07-09 04:04:00,69.9,69.1,30.15,SSW,202,1.3,1.3,97,0.00,,FEW002,0.00,VWS V14.01,2013-07-09 08:04:00,
2013-07-09 04:05:00,69.9,69.1,30.15,SSW,202,2.0,2.0,97,0.00,,FEW002,0.00,VWS V14.01,2013-07-09 08:05:00,
2013-07-09 04:06:00,69.9,69.1,30.15,SSW,202,1.3,1.3,97,0.00,,FEW002,0.00,VWS V14.01,2013-07-09 08:06:00,
2013-07-09 04:07:00,69.9,69.1,30.15,SSW,202,2.0,2.0,97,0.00,,FEW002,0.00,VWS V14.01,2013-07-09 08:07:00,
2013-07-09 04:08:00,69.9,69.1,30.15,SSW,202,1.3,1.3,97,0.00,,,0.00,VWS V14.01,2013-07-09 08:08:00,
2013-07-09 04:09:00,69.8,68.9,30.15,SSW,202,2.5,2.5,97,0.00,,FEW002,0.00,VWS V14.01,2013-07-09 08:09:00,
2013-07-09 04:10:00,69.9,69.3,30.15,SSW,202,1.6,1.6,98,0.00,,FEW002,0.00,VWS V14.01,2013-07-09 08:10:00,
2013-07-09 04:11:00,69.9,69.3,30.15,SSW,202,2.2,2.2,98,0.00,,FEW002,0.00,VWS V14.01,2013-07-09 08:11:00,
2013-07-09 04:12:00,69.9,69.3,30.15,SSW,202,2.0,2.0,98,0.00,,FEW002,0.00,VWS V14.01,2013-07-09 08:12:00,
2013-07-09 04:13:00,69.9,69.3,30.15,SSW,202,2.2,2.2,98,0.00,,,0.00,VWS V14.01,2013-07-09 08:13:00,
2013-07-09 04:14:00,69.9,69.3,30.15,SSW,202,2.7,2.7,98,0.00,,FEW002,0.00,VWS V14.01,2013-07-09 08:14:00,
2013-07-09 04:15:00,69.9,69.3,30.15,SSW,202,2.5,2.5,98,0.00,,FEW002,0.00,VWS V14.01,2013-07-09 08:15:00,
2013-07-09 04:16:00,69.9,69.3,30.15,SSW,202,2.5,2.5,98,0.00,,FEW002,0.00,VWS V14.01,2013-07-09 08:16:00,
2013-07-09 04:17:00,69.9,69.3,30.15,SSW,202,2.9,2.9,98,0.00,,FEW002,0.00,VWS V14.01,2013-07-09 08:17:00,
2013-07-09 04:18:00,69.9,69.3,30.15,SSW,202,2.5,2.5,98,0.00,,,0.00,VWS V14.01,2013-07-09 08:18:00,
2013-07-09 04:19:00,69.9,69.3,30.15,SSW,202,3.6,3.6,98,0.00,,FEW002,0.00,VWS V14.01,2013-07-09 08:19:00,
2013-07-09 04:20:00,69.9,69.3,30.15,SW,225,2.5,2.5,98,0.00,,FEW002,0.00,VWS V14.01,2013-07-09 08:20:00,
2013-07-09 04:21:00,69.9,69.3,30.15,SSW,202,2.5,2.5,98,0.00,,FEW002,0.00,VWS V14.01,2013-07-09 08:21:00,
2013-07-09 04:22:00,69.9,69.3,30.15,SSW,202,2.0,2.0,98,0.00,,FEW002,0.00,VWS V14.01,2013-07-09 08:22:00,
2013-07-09 04:23:00,69.9,69.3,30.15,SW,225,2.7,2.7,98,0.00,,,0.00,VWS V14.01,2013-07-09 08:23:00,
2013-07-09 04:24:00,69.9,69.3,30.15,SSW,202,0.0,0.0,98,0.00,,FEW002,0.00,VWS V14.01,2013-07-09 08:24:00,
2013-07-09 04:25:00,69.9,69.3,30.12,South,180,2.9,2.9,98,0.00,,FEW002,0.00,VWS V14.01,2013-07-09 08:25:00,
2013-07-09 04:26:00,69.9,69.3,30.12,SW,225,2.0,2.0,98,0.00,,FEW002,0.00,VWS V14.01,2013-07-09 08:26:00,
2013-07-09 04:27:00,69.9,69.3,30.12,SSW,202,2.0,2.0,98,0.00,,FEW002,0.00,VWS V14.01,2013-07-09 08:27:00,
2013-07-09 04:28:00,69.9,69.3,30.12,SSW,202,2.9,2.9,98,0.00,,,0.00,VWS V14.01,2013-07-09 08:28:00,
2013-07-09 04:29:00,69.9,69.3,30.12,SW,225,2.2,2.2,98,0.00,,FEW002,0.00,VWS V14.01,2013-07-09 08:29:00,
2013-07-09 04:30:00,69.9,69.3,30.12,SSW,202,2.7,2.7,98,0.00,,FEW002,0.00,VWS V14.01,2013-07-09 08:30:00,
2013-07-09 04:31:00,70.1,69.5,30.12,SSW,202,2.7,2.7,98,0.00,,FEW002,0.00,VWS V14.01,2013-07-09 08:31:00,
2013-07-09 04:32:00,70.1,69.5,30.12,SW,225,2.5,2.5,98,0.00,,FEW002,0.00,VWS V14.01,2013-07-09 08:32:00,
2013-07-09 04:33:00,70.1,69.5,30.12,SSW,202,3.1,3.1,98,0.00,,BKN100,0.00,VWS V14.01,2013-07-09 08:33:00,
2013-07-09 04:34:00,70.1,69.5,30.12,SW,225,2.5,2.5,98,0.00,,FEW002,0.00,VWS V14.01,2013-07-09 08:34:00,
2013-07-09 04:35:00,70.1,69.5,30.12,SW,225,2.5,2.5,98,0.00,,FEW002,0.00,VWS V14.01,2013-07-09 08:35:00,
2013-07-09 04:36:00,70.1,69.5,30.12,SSW,202,3.4,3.4,98,0.00,,FEW002,0.00,VWS V14.01,2013-07-09 08:36:00,
2013-07-09 04:37:00,70.1,69.5,30.12,SW,225,2.5,2.5,98,0.00,,FEW002,0.00,VWS V14.01,2013-07-09 08:37:00,
2013-07-09 04:38:00,70.1,69.5,30.12,SW,225,2.5,2.5,98,0.00,,BKN100,0.00,VWS V14.01,2013-07-09 08:38:00,
2013-07-09 04:39:00,70.1,69.5,30.12,SSW,202,2.0,2.0,98,0.00,,FEW002,0.00,VWS V14.01,2013-07-09 08:39:00,
2013-07-09 04:40:00,70.1,69.5,30.15,SSW,202,3.1,3.1,98,0.00,,FEW002,0.00,VWS V14.01,2013-07-09 08:40:00,
2013-07-09 04:41:00,70.1,69.5,30.15,SSW,202,3.1,3.1,98,0.00,,FEW002,0.00,VWS V14.01,2013-07-09 08:41:00,
2013-07-09 04:42:00,70.1,69.5,30.15,SE,135,3.4,3.4,98,0.00,,FEW002,0.00,VWS V14.01,2013-07-09 08:42:00,
2013-07-09 04:43:00,70.1,69.5,30.15,SSE,158,2.9,2.9,98,0.00,,BKN100,0.00,VWS V14.01,2013-07-09 08:43:00,
2013-07-09 04:44:00,70.1,69.5,30.15,South,180,2.9,2.9,98,0.00,,FEW002,0.00,VWS V14.01,2013-07-09 08:44:00,
2013-07-09 04:45:00,70.1,69.5,30.15,SSW,202,3.1,3.1,98,0.00,,FEW002,0.00,VWS V14.01,2013-07-09 08:45:00,
2013-07-09 04:46:00,70.1,69.5,30.15,SSE,158,2.9,2.9,98,0.00,,FEW002,0.00,VWS V14.01,2013-07-09 08:46:00,
2013-07-09 04:47:00,70.1,69.5,30.15,SSE,158,4.3,4.3,98,0.00,,FEW002,0.00,VWS V14.01,2013-07-09 08:47:00,
2013-07-09 04:48:00,70.3,69.7,30.15,South,180,4.0,4.0,98,0.00,,FEW002,0.00,VWS V14.01,2013-07-09 08:48:00,
2013-07-09 04:49:00,70.1,69.5,30.15,South,180,2.0,2.0,98,0.00,,BKN100,0.00,VWS V14.01,2013-07-09 08:49:00,
2013-07-09 04:50:00,70.3,69.7,30.15,SSW,202,3.8,3.8,98,0.00,,FEW002,0.00,VWS V14.01,2013-07-09 08:50:00,
2013-07-09 04:51:00,70.1,69.5,30.15,SSW,202,2.5,2.5,98,0.00,,FEW002,0.00,VWS V14.01,2013-07-09 08:51:00,
2013-07-09 04:52:00,70.1,69.5,30.15,SSW,202,2.2,2.2,98,0.00,,FEW002,0.00,VWS V14.01,2013-07-09 08:52:00,
2013-07-09 04:53:00,70.1,69.5,30.15,SSW,202,1.3,1.3,98,0.00,,FEW002,0.00,VWS V14.01,2013-07-09 08:53:00,
2013-07-09 04:54:00,70.1,69.5,30.15,South,180,2.2,2.2,98,0.00,,BKN100,0.00,VWS V14.01,2013-07-09 08:54:00,
2013-07-09 04:55:00,70.1,69.5,30.15,South,180,2.2,2.2,98,0.00,,FEW002,0.00,VWS V14.01,2013-07-09 08:55:00,
2013-07-09 04:56:00,70.1,69.5,30.15,SSW,202,3.1,3.1,98,0.00,,FEW002,0.00,VWS V14.01,2013-07-09 08:56:00,
2013-07-09 04:57:00,70.1,69.5,30.15,SSW,202,2.5,2.5,98,0.00,,FEW002,0.00,VWS V14.01,2013-07-09 08:57:00,
2013-07-09 04:58:00,70.1,69.5,30.15,SSW,202,2.9,2.9,98,0.00,,FEW002,0.00,VWS V14.01,2013-07-09 08:58:00,
2013-07-09 04:59:00,70.1,69.5,30.15,SW,225,2.7,2.7,98,0.00,,BKN100,0.00,VWS V14.01,2013-07-09 08:59:00,
2013-07-09 05:00:00,70.1,69.5,30.15,SSW,202,2.5,2.5,98,0.00,,FEW002,0.00,VWS V14.01,2013-07-09 09:00:00,
2013-07-09 05:01:00,70.1,69.5,30.15,SSW,202,2.7,2.7,98,0.00,,FEW002,0.00,VWS V14.01,2013-07-09 09:01:00,
2013-07-09 05:02:00,70.1,69.5,30.15,SSW,202,3.6,3.6,98,0.00,,FEW002,0.00,VWS V14.01,2013-07-09 09:02:00,
2013-07-09 05:03:00,70.1,69.5,30.15,SSW,202,2.7,2.7,98,0.00,,FEW002,0.00,VWS V14.01,2013-07-09 09:03:00,
2013-07-09 05:04:00,70.1,69.5,30.15,SW,225,2.9,2.9,98,0.00,,BKN100,0.00,VWS V14.01,2013-07-09 09:04:00,
2013-07-09 05:05:00,70.1,69.5,30.15,SSW,202,3.1,3.1,98,0.00,,FEW002,0.00,VWS V14.01,2013-07-09 09:05:00,
2013-07-09 05:06:00,70.1,69.5,30.15,SSW,202,1.6,1.6,98,0.00,,FEW002,0.00,VWS V14.01,2013-07-09 09:06:00,
2013-07-09 05:07:00,70.1,69.5,30.15,SSW,202,2.7,2.7,98,0.00,,FEW002,0.00,VWS V14.01,2013-07-09 09:07:00,
2013-07-09 05:08:00,70.1,69.5,30.15,SSW,202,2.2,2.2,98,0.00,,FEW002,0.00,VWS V14.01,2013-07-09 09:08:00,
2013-07-09 05:09:00,70.1,69.5,30.15,SSW,202,1.1,1.1,98,0.00,,BKN100,0.00,VWS V14.01,2013-07-09 09:09:00,
2013-07-09 05:10:00,70.1,69.5,30.15,SW,225,1.6,1.6,98,0.00,,FEW002,0.00,VWS V14.01,2013-07-09 09:10:00,
2013-07-09 05:11:00,70.1,69.5,30.15,SSW,202,2.0,2.0,98,0.00,,FEW002,0.00,VWS V14.01,2013-07-09 09:11:00,
2013-07-09 05:12:00,70.1,69.5,30.15,South,180,1.1,1.1,98,0.00,,FEW002,0.00,VWS V14.01,2013-07-09 09:12:00,
2013-07-09 05:13:00,70.1,69.5,30.15,SSW,202,2.0,2.0,98,0.00,,FEW002,0.00,VWS V14.01,2013-07-09 09:13:00,
2013-07-09 05:14:00,70.1,69.5,30.15,SSW,202,1.3,1.3,98,0.00,,BKN100,0.00,VWS V14.01,2013-07-09 09:14:00,
2013-07-09 05:15:00,70.1,69.5,30.15,SSW,202,2.9,2.9,98,0.00,,FEW002,0.00,VWS V14.01,2013-07-09 09:15:00,
2013-07-09 05:16:00,70.1,69.5,30.15,SW,225,1.3,1.3,98,0.00,,FEW002,0.00,VWS V14.01,2013-07-09 09:16:00,
2013-07-09 05:17:00,70.1,69.5,30.15,WSW,248,2.0,2.0,98,0.00,,FEW002,0.00,VWS V14.01,2013-07-09 09:17:00,
2013-07-09 05:18:00,70.1,69.5,30.15,SSW,202,1.3,1.3,98,0.00,,FEW002,0.00,VWS V14.01,2013-07-09 09:18:00,
2013-07-09 05:19:00,70.1,69.5,30.15,WSW,248,2.0,2.0,98,0.00,,BKN100,0.00,VWS V14.01,2013-07-09 09:19:00,
2013-07-09 05:20:00,70.1,69.5,30.15,SSW,202,0.9,0.9,98,0.00,,FEW002,0.00,VWS V14.01,2013-07-09 09:20:00,
2013-07-09 05:21:00,70.1,69.5,30.15,South,180,0.9,0.9,98,0.00,,FEW002,0.00,VWS V14.01,2013-07-09 09:21:00,
2013-07-09 05:22:00,70.1,69.5,30.15,South,180,2.7,2.7,98,0.00,,FEW002,0.00,VWS V14.01,2013-07-09 09:22:00,
2013-07-09 05:23:00,70.1,69.5,30.15,SSW,202,2.2,2.2,98,0.00,,FEW002,0.00,VWS V14.01,2013-07-09 09:23:00,
2013-07-09 05:24:00,70.1,69.5,30.15,South,180,2.7,2.7,98,0.00,,BKN100,0.00,VWS V14.01,2013-07-09 09:24:00,
2013-07-09 05:25:00,70.1,69.5,30.15,SSW,202,2.0,2.0,98,0.00,,FEW002,0.00,VWS V14.01,2013-07-09 09:25:00,
2013-07-09 05:26:00,70.1,69.5,30.15,SSW,202,1.1,1.1,98,0.00,,FEW002,0.00,VWS V14.01,2013-07-09 09:26:00,
2013-07-09 05:27:00,70.1,69.5,30.15,South,180,0.0,0.0,98,0.00,,FEW002,0.00,VWS V14.01,2013-07-09 09:27:00,
2013-07-09 05:28:00,69.9,69.3,30.15,South,180,0.0,0.0,98,0.00,,FEW002,0.00,VWS V14.01,2013-07-09 09:28:00,
2013-07-09 05:29:00,70.1,69.5,30.15,South,180,0.9,0.9,98,0.00,,BKN100,0.00,VWS V14.01,2013-07-09 09:29:00,
2013-07-09 05:30:00,69.9,69.3,30.15,SSE,158,1.1,1.1,98,0.00,,FEW002,0.00,VWS V14.01,2013-07-09 09:30:00,
2013-07-09 05:31:00,69.9,69.3,30.15,SSE,158,2.7,2.7,98,0.00,,FEW002,0.00,VWS V14.01,2013-07-09 09:31:00,
2013-07-09 05:32:00,69.9,69.3,30.15,SSE,158,1.6,1.6,98,0.00,,FEW002,0.00,VWS V14.01,2013-07-09 09:32:00,
2013-07-09 05:33:00,69.9,69.3,30.15,SSE,158,1.1,1.1,98,0.00,,FEW002,0.00,VWS V14.01,2013-07-09 09:33:00,
2013-07-09 05:34:00,69.9,69.3,30.15,SSE,158,1.6,1.6,98,0.00,,BKN100,0.00,VWS V14.01,2013-07-09 09:34:00,
2013-07-09 05:35:00,69.9,69.3,30.15,SSE,158,0.0,0.0,98,0.00,,FEW002,0.00,VWS V14.01,2013-07-09 09:35:00,
2013-07-09 05:36:00,69.9,69.3,30.15,South,180,1.3,1.3,98,0.00,,FEW002,0.00,VWS V14.01,2013-07-09 09:36:00,
2013-07-09 05:37:00,69.9,69.3,30.15,South,180,1.6,1.6,98,0.00,,FEW002,0.00,VWS V14.01,2013-07-09 09:37:00,
2013-07-09 05:38:00,69.9,69.3,30.15,South,180,1.6,1.6,98,0.00,,FEW002,0.00,VWS V14.01,2013-07-09 09:38:00,
2013-07-09 05:39:00,69.9,69.3,30.15,South,180,1.6,1.6,98,0.00,,OVC100,0.00,VWS V14.01,2013-07-09 09:39:00,
2013-07-09 05:40:00,69.9,69.3,30.15,SE,135,2.5,2.5,98,0.00,,FEW002,0.00,VWS V14.01,2013-07-09 09:40:00,
2013-07-09 05:41:00,69.9,69.3,30.15,SE,135,0.0,0.0,98,0.00,,FEW002,0.00,VWS V14.01,2013-07-09 09:41:00,
2013-07-09 05:42:00,69.8,69.2,30.15,SSE,158,1.3,1.3,98,0.00,,FEW002,0.00,VWS V14.01,2013-07-09 09:42:00,
2013-07-09 05:43:00,69.8,69.2,30.15,South,180,0.0,0.0,98,0.00,,FEW002,0.00,VWS V14.01,2013-07-09 09:43:00,
2013-07-09 05:44:00,69.8,69.2,30.15,SSE,158,1.3,1.3,98,0.00,,OVC100,0.00,VWS V14.01,2013-07-09 09:44:00,
2013-07-09 05:45:00,69.8,69.2,30.15,SE,135,0.9,0.9,98,0.00,,FEW002,0.00,VWS V14.01,2013-07-09 09:45:00,
2013-07-09 05:46:00,69.8,69.2,30.15,SE,135,2.0,2.0,98,0.00,,FEW002,0.00,VWS V14.01,2013-07-09 09:46:00,
2013-07-09 05:47:00,69.6,69.0,30.15,SE,135,1.1,1.1,98,0.00,,FEW002,0.00,VWS V14.01,2013-07-09 09:47:00,
2013-07-09 05:48:00,69.6,69.0,30.15,SE,135,0.9,0.9,98,0.00,,FEW002,0.00,VWS V14.01,2013-07-09 09:48:00,
2013-07-09 05:49:00,69.6,69.0,30.15,SE,135,1.1,1.1,98,0.00,,OVC100,0.00,VWS V14.01,2013-07-09 09:49:00,
2013-07-09 05:50:00,69.4,68.8,30.15,ESE,112,1.3,1.3,98,0.00,,FEW002,0.00,VWS V14.01,2013-07-09 09:50:00,
2013-07-09 05:51:00,69.4,68.8,30.15,ESE,112,1.1,1.1,98,0.00,,FEW002,0.00,VWS V14.01,2013-07-09 09:51:00,
2013-07-09 05:52:00,69.4,68.8,30.15,ESE,112,1.1,1.1,98,0.00,,FEW002,0.00,VWS V14.01,2013-07-09 09:52:00,
2013-07-09 05:53:00,69.4,68.8,30.15,ESE,112,0.9,0.9,98,0.00,,FEW002,0.00,VWS V14.01,2013-07-09 09:53:00,
2013-07-09 05:54:00,69.4,68.8,30.15,ESE,112,1.1,1.1,98,0.00,,OVC100,0.00,VWS V14.01,2013-07-09 09:54:00,
2013-07-09 05:55:00,69.4,68.8,30.15,ESE,112,0.9,0.9,98,0.00,,FEW002,0.00,VWS V14.01,2013-07-09 09:55:00,
2013-07-09 05:56:00,69.4,68.8,30.15,ESE,112,1.3,1.3,98,0.00,,FEW002,0.00,VWS V14.01,2013-07-09 09:56:00,
2013-07-09 05:57:00,69.4,68.8,30.15,ESE,112,1.1,1.1,98,0.00,,FEW002,0.00,VWS V14.01,2013-07-09 09:57:00,
2013-07-09 05:58:00,69.4,68.8,30.15,ESE,112,1.3,1.3,98,0.00,,FEW002,0.00,VWS V14.01,2013-07-09 09:58:00,
2013-07-09 05:59:00,69.4,68.8,30.15,ESE,112,1.1,1.1,98,0.00,,OVC100,0.00,VWS V14.01,2013-07-09 09:59:00,
2013-07-09 06:00:00,69.4,68.8,30.15,ESE,112,0.0,0.0,98,0.00,,FEW002,0.00,VWS V14.01,2013-07-09 10:00:00,
2013-07-09 06:01:00,69.4,68.8,30.15,ESE,112,0.0,0.0,98,0.00,,FEW002,0.00,VWS V14.01,2013-07-09 10:01:00,
2013-07-09 06:02:00,69.2,68.6,30.15,ESE,112,0.0,0.0,98,0.00,,FEW002,0.00,VWS V14.01,2013-07-09 10:02:00,
2013-07-09 06:03:00,69.2,68.6,30.15,ESE,112,0.0,0.0,98,0.00,,FEW002,0.00,VWS V14.01,2013-07-09 10:03:00,
2013-07-09 06:04:00,69.2,68.6,30.15,ESE,112,0.0,0.0,98,0.00,,OVC100,0.00,VWS V14.01,2013-07-09 10:04:00,
2013-07-09 06:05:00,69.2,68.6,30.15,SE,135,1.3,1.3,98,0.00,,FEW002,0.00,VWS V14.01,2013-07-09 10:05:00,
2013-07-09 06:06:00,69.2,68.6,30.15,SE,135,0.9,0.9,98,0.00,,FEW002,0.00,VWS V14.01,2013-07-09 10:06:00,
2013-07-09 06:07:00,69.4,68.8,30.15,SSE,158,2.0,2.0,98,0.00,,FEW002,0.00,VWS V14.01,2013-07-09 10:07:00,
2013-07-09 06:08:00,69.4,68.8,30.15,SSE,158,0.9,0.9,98,0.00,,FEW002,0.00,VWS V14.01,2013-07-09 10:08:00,
2013-07-09 06:09:00,69.4,68.8,30.15,SSE,158,1.1,1.1,98,0.00,,OVC100,0.00,VWS V14.01,2013-07-09 10:09:00,
2013-07-09 06:10:00,69.4,68.8,30.18,SE,135,0.9,0.9,98,0.00,,FEW002,0.00,VWS V14.01,2013-07-09 10:10:00,
2013-07-09 06:11:00,69.4,68.8,30.18,SE,135,1.1,1.1,98,0.00,,FEW002,0.00,VWS V14.01,2013-07-09 10:11:00,
2013-07-09 06:12:00,69.4,68.8,30.18,South,180,1.3,1.3,98,0.00,,FEW002,0.00,VWS V14.01,2013-07-09 10:12:00,
2013-07-09 06:13:00,69.4,68.8,30.18,South,180,0.0,0.0,98,0.00,,FEW002,0.00,VWS V14.01,2013-07-09 10:13:00,
2013-07-09 06:14:00,69.4,68.8,30.18,South,180,1.1,1.1,98,0.00,,OVC100,0.00,VWS V14.01,2013-07-09 10:14:00,
2013-07-09 06:15:00,69.4,68.8,30.18,South,180,0.0,0.0,98,0.00,,FEW002,0.00,VWS V14.01,2013-07-09 10:15:00,
2013-07-09 06:16:00,69.4,68.8,30.18,South,180,0.0,0.0,98,0.00,,FEW002,0.00,VWS V14.01,2013-07-09 10:16:00,
2013-07-09 06:17:00,69.4,68.8,30.18,SSE,158,0.0,0.0,98,0.00,,FEW002,0.00,VWS V14.01,2013-07-09 10:17:00,
2013-07-09 06:18:00,69.4,68.8,30.18,SSW,202,0.0,0.0,98,0.00,,FEW002,0.00,VWS V14.01,2013-07-09 10:18:00,
2013-07-09 06:19:00,69.4,68.8,30.18,South,180,0.0,0.0,98,0.00,,OVC100,0.00,VWS V14.01,2013-07-09 10:19:00,
2013-07-09 06:20:00,69.4,68.8,30.18,SSE,158,1.6,1.6,98,0.00,,FEW002,0.00,VWS V14.01,2013-07-09 10:20:00,
2013-07-09 06:21:00,69.6,69.0,30.18,SE,135,1.1,1.1,98,0.00,,FEW002,0.00,VWS V14.01,2013-07-09 10:21:00,
2013-07-09 06:22:00,69.6,69.0,30.18,SE,135,1.1,1.1,98,0.00,,FEW002,0.00,VWS V14.01,2013-07-09 10:22:00,
2013-07-09 06:23:00,69.6,69.0,30.18,SE,135,0.0,0.0,98,0.00,,FEW002,0.00,VWS V14.01,2013-07-09 10:23:00,
2013-07-09 06:24:00,69.6,69.0,30.18,SE,135,1.1,1.1,98,0.00,,OVC100,0.00,VWS V14.01,2013-07-09 10:24:00,
2013-07-09 06:25:00,69.6,69.0,30.15,SE,135,1.6,1.6,98,0.00,,FEW002,0.00,VWS V14.01,2013-07-09 10:25:00,
2013-07-09 06:26:00,69.6,69.0,30.15,SE,135,1.1,1.1,98,0.00,,FEW002,0.00,VWS V14.01,2013-07-09 10:26:00,
2013-07-09 06:27:00,69.4,68.8,30.15,SSE,158,0.0,0.0,98,0.00,,FEW002,0.00,VWS V14.01,2013-07-09 10:27:00,
2013-07-09 06:28:00,69.4,68.8,30.15,SSE,158,0.0,0.0,98,0.00,,FEW002,0.00,VWS V14.01,2013-07-09 10:28:00,
2013-07-09 06:29:00,69.4,68.8,30.15,SSE,158,0.0,0.0,98,0.00,,OVC100,0.00,VWS V14.01,2013-07-09 10:29:00,
2013-07-09 06:30:00,69.4,68.8,30.15,SSW,202,1.1,1.1,98,0.00,,FEW002,0.00,VWS V14.01,2013-07-09 10:30:00,
2013-07-09 06:31:00,69.4,68.8,30.15,SSW,202,0.0,0.0,98,0.00,,FEW002,0.00,VWS V14.01,2013-07-09 10:31:00,
2013-07-09 06:32:00,69.4,68.8,30.15,SSW,202,1.6,1.6,98,0.00,,FEW002,0.00,VWS V14.01,2013-07-09 10:32:00,
2013-07-09 06:33:00,69.6,69.0,30.15,South,180,1.1,1.1,98,0.00,,FEW002,0.00,VWS V14.01,2013-07-09 10:33:00,
2013-07-09 06:34:00,69.4,68.8,30.15,SSW,202,1.6,1.6,98,0.00,,OVC100,0.00,VWS V14.01,2013-07-09 10:34:00,
2013-07-09 06:35:00,69.6,69.0,30.15,SSE,158,1.3,1.3,98,0.00,,FEW002,0.00,VWS V14.01,2013-07-09 10:35:00,
2013-07-09 06:36:00,69.6,69.0,30.15,SSE,158,1.6,1.6,98,0.00,,FEW002,0.00,VWS V14.01,2013-07-09 10:36:00,
2013-07-09 06:37:00,69.6,69.0,30.15,SSE,158,1.1,1.1,98,0.00,,FEW002,0.00,VWS V14.01,2013-07-09 10:37:00,
2013-07-09 06:38:00,69.6,69.0,30.15,SSE,158,0.0,0.0,98,0.00,,FEW002,0.00,VWS V14.01,2013-07-09 10:38:00,
2013-07-09 06:39:00,69.6,69.0,30.15,SSE,158,2.0,2.0,98,0.00,,SCT012,0.00,VWS V14.01,2013-07-09 10:39:00,
2013-07-09 06:40:00,69.8,69.2,30.15,SSW,202,2.7,2.7,98,0.00,,FEW002,0.00,VWS V14.01,2013-07-09 10:40:00,
2013-07-09 06:41:00,69.8,69.2,30.15,SSW,202,2.2,2.2,98,0.00,,FEW002,0.00,VWS V14.01,2013-07-09 10:41:00,
2013-07-09 06:42:00,69.6,69.0,30.15,South,180,1.1,1.1,98,0.00,,FEW002,0.00,VWS V14.01,2013-07-09 10:42:00,
2013-07-09 06:43:00,69.6,69.0,30.15,SSE,158,1.1,1.1,98,0.00,,FEW002,0.00,VWS V14.01,2013-07-09 10:43:00,
2013-07-09 06:44:00,69.8,69.2,30.15,South,180,1.3,1.3,98,0.00,,FEW002,0.00,VWS V14.01,2013-07-09 10:44:00,
2013-07-09 06:45:00,69.6,69.0,30.15,South,180,0.0,0.0,98,0.00,,SCT012,0.00,VWS V14.01,2013-07-09 10:45:00,
2013-07-09 06:46:00,69.8,69.2,30.15,SSW,202,0.9,0.9,98,0.00,,FEW002,0.00,VWS V14.01,2013-07-09 10:46:00,
2013-07-09 06:47:00,69.6,69.0,30.15,SSW,202,1.3,1.3,98,0.00,,FEW002,0.00,VWS V14.01,2013-07-09 10:47:00,
2013-07-09 06:48:00,69.6,69.0,30.15,SW,225,2.9,2.9,98,0.00,,FEW002,0.00,VWS V14.01,2013-07-09 10:48:00,
2013-07-09 06:49:00,69.8,69.2,30.15,South,180,0.0,0.0,98,0.00,,FEW002,0.00,VWS V14.01,2013-07-09 10:49:00,
2013-07-09 06:50:00,69.6,69.0,30.15,SW,225,2.9,2.9,98,0.00,,SCT012,0.00,VWS V14.01,2013-07-09 10:50:00,
2013-07-09 06:51:00,69.8,69.2,30.15,SSE,158,1.1,1.1,98,0.00,,FEW002,0.00,VWS V14.01,2013-07-09 10:51:00,
2013-07-09 06:52:00,69.8,69.2,30.15,South,180,0.0,0.0,98,0.00,,FEW002,0.00,VWS V14.01,2013-07-09 10:52:00,
2013-07-09 06:53:00,69.8,69.2,30.15,SSE,158,0.9,0.9,98,0.00,,FEW002,0.00,VWS V14.01,2013-07-09 10:53:00,
2013-07-09 06:54:00,69.8,69.2,30.15,SSE,158,1.3,1.3,98,0.00,,FEW002,0.00,VWS V14.01,2013-07-09 10:54:00,
2013-07-09 06:55:00,69.8,69.2,30.15,SSE,158,0.9,0.9,98,0.00,,SCT012,0.00,VWS V14.01,2013-07-09 10:55:00,
2013-07-09 06:56:00,69.9,69.3,30.18,SE,135,1.3,1.3,98,0.00,,FEW002,0.00,VWS V14.01,2013-07-09 10:56:00,
2013-07-09 06:57:00,70.1,69.5,30.18,SE,135,2.0,2.0,98,0.00,,FEW002,0.00,VWS V14.01,2013-07-09 10:57:00,
2013-07-09 06:58:00,69.9,69.3,30.18,SSE,158,1.1,1.1,98,0.00,,FEW002,0.00,VWS V14.01,2013-07-09 10:58:00,
2013-07-09 06:59:00,69.9,69.3,30.18,SSW,202,1.1,1.1,98,0.00,,FEW002,0.00,VWS V14.01,2013-07-09 10:59:00,
2013-07-09 07:00:00,69.9,69.3,30.18,SSE,158,1.1,1.1,98,0.00,,SCT012,0.00,VWS V14.01,2013-07-09 11:00:00,
2013-07-09 07:01:00,69.9,69.3,30.18,SW,225,0.9,0.9,98,0.00,,FEW002,0.00,VWS V14.01,2013-07-09 11:01:00,
2013-07-09 07:02:00,69.9,69.3,30.18,SSW,202,1.3,1.3,98,0.00,,FEW002,0.00,VWS V14.01,2013-07-09 11:02:00,
2013-07-09 07:03:00,69.9,69.3,30.18,SSW,202,2.5,2.5,98,0.00,,FEW002,0.00,VWS V14.01,2013-07-09 11:03:00,
2013-07-09 07:04:00,69.9,69.3,30.18,SSW,202,2.5,2.5,98,0.00,,FEW002,0.00,VWS V14.01,2013-07-09 11:04:00,
2013-07-09 07:05:00,69.9,69.3,30.18,SSW,202,2.5,2.5,98,0.00,,SCT012,0.00,VWS V14.01,2013-07-09 11:05:00,
2013-07-09 07:06:00,69.9,69.3,30.18,SSW,202,0.9,0.9,98,0.00,,FEW002,0.00,VWS V14.01,2013-07-09 11:06:00,
2013-07-09 07:07:00,69.9,69.3,30.18,SSW,202,0.0,0.0,98,0.00,,FEW002,0.00,VWS V14.01,2013-07-09 11:07:00,
2013-07-09 07:08:00,70.1,69.5,30.18,SSW,202,1.3,1.3,98,0.00,,FEW002,0.00,VWS V14.01,2013-07-09 11:08:00,
2013-07-09 07:09:00,70.1,69.5,30.18,SSW,202,0.9,0.9,98,0.00,,FEW002,0.00,VWS V14.01,2013-07-09 11:09:00,
2013-07-09 07:10:00,70.1,69.5,30.18,SSW,202,1.3,1.3,98,0.00,,SCT012,0.00,VWS V14.01,2013-07-09 11:10:00,
2013-07-09 07:11:00,70.1,69.5,30.15,South,180,1.1,1.1,98,0.00,,FEW002,0.00,VWS V14.01,2013-07-09 11:11:00,
2013-07-09 07:12:00,70.1,69.5,30.15,SSE,158,2.9,2.9,98,0.00,,FEW002,0.00,VWS V14.01,2013-07-09 11:12:00,
2013-07-09 07:13:00,70.1,69.5,30.15,SSW,202,2.0,2.0,98,0.00,,FEW002,0.00,VWS V14.01,2013-07-09 11:13:00,
2013-07-09 07:14:00,70.1,69.5,30.15,SSW,202,1.3,1.3,98,0.00,,FEW002,0.00,VWS V14.01,2013-07-09 11:14:00,
2013-07-09 07:15:00,70.1,69.5,30.15,SSW,202,2.0,2.0,98,0.00,,SCT012,0.00,VWS V14.01,2013-07-09 11:15:00,
2013-07-09 07:16:00,70.1,69.5,30.15,SSW,202,3.4,3.4,98,0.00,,FEW002,0.00,VWS V14.01,2013-07-09 11:16:00,
2013-07-09 07:17:00,70.1,69.5,30.15,SW,225,2.9,2.9,98,0.00,,FEW002,0.00,VWS V14.01,2013-07-09 11:17:00,
2013-07-09 07:18:00,70.1,69.5,30.15,SW,225,2.9,2.9,98,0.00,,FEW002,0.00,VWS V14.01,2013-07-09 11:18:00,
2013-07-09 07:19:00,70.1,69.5,30.15,SW,225,3.1,3.1,98,0.00,,FEW002,0.00,VWS V14.01,2013-07-09 11:19:00,
2013-07-09 07:20:00,70.1,69.5,30.15,SW,225,2.9,2.9,98,0.00,,SCT012,0.00,VWS V14.01,2013-07-09 11:20:00,
2013-07-09 07:21:00,70.1,69.5,30.15,SSW,202,3.4,3.4,98,0.00,,FEW002,0.00,VWS V14.01,2013-07-09 11:21:00,
2013-07-09 07:22:00,70.3,69.7,30.15,WSW,248,1.6,1.6,98,0.00,,FEW002,0.00,VWS V14.01,2013-07-09 11:22:00,
2013-07-09 07:23:00,70.3,69.7,30.15,WSW,248,2.2,2.2,98,0.00,,FEW002,0.00,VWS V14.01,2013-07-09 11:23:00,
2013-07-09 07:24:00,70.3,69.7,30.15,SW,225,2.0,2.0,98,0.00,,FEW002,0.00,VWS V14.01,2013-07-09 11:24:00,
2013-07-09 07:25:00,70.3,69.7,30.15,WSW,248,2.2,2.2,98,0.00,,SCT012,0.00,VWS V14.01,2013-07-09 11:25:00,
2013-07-09 07:26:00,70.3,69.7,30.12,WSW,248,3.4,3.4,98,0.00,,FEW002,0.00,VWS V14.01,2013-07-09 11:26:00,
2013-07-09 07:27:00,70.3,69.7,30.12,WSW,248,2.7,2.7,98,0.00,,FEW002,0.00,VWS V14.01,2013-07-09 11:27:00,
2013-07-09 07:28:00,70.3,69.7,30.12,WSW,248,2.7,2.7,98,0.00,,FEW002,0.00,VWS V14.01,2013-07-09 11:28:00,
2013-07-09 07:29:00,70.3,69.7,30.12,WSW,248,3.1,3.1,98,0.00,,FEW002,0.00,VWS V14.01,2013-07-09 11:29:00,
2013-07-09 07:30:00,70.3,69.7,30.12,WSW,248,2.7,2.7,98,0.00,,SCT012,0.00,VWS V14.01,2013-07-09 11:30:00,
2013-07-09 07:31:00,70.1,69.5,30.12,WSW,248,2.0,2.0,98,0.00,,FEW002,0.00,VWS V14.01,2013-07-09 11:31:00,
2013-07-09 07:32:00,70.1,69.5,30.12,WSW,248,2.7,2.7,98,0.00,,FEW002,0.00,VWS V14.01,2013-07-09 11:32:00,
2013-07-09 07:33:00,70.3,69.7,30.12,SW,225,2.0,2.0,98,0.00,,FEW002,0.00,VWS V14.01,2013-07-09 11:33:00,
2013-07-09 07:34:00,70.3,69.7,30.12,South,180,2.7,2.7,98,0.00,,FEW002,0.00,VWS V14.01,2013-07-09 11:34:00,
2013-07-09 07:35:00,70.3,69.7,30.12,SW,225,2.5,2.5,98,0.00,,SCT012,0.00,VWS V14.01,2013-07-09 11:35:00,
2013-07-09 07:36:00,70.1,69.5,30.12,South,180,2.5,2.5,98,0.00,,FEW002,0.00,VWS V14.01,2013-07-09 11:36:00,
2013-07-09 07:37:00,70.1,69.5,30.12,SSW,202,0.0,0.0,98,0.00,,FEW002,0.00,VWS V14.01,2013-07-09 11:37:00,
2013-07-09 07:38:00,70.1,69.5,30.12,South,180,0.0,0.0,98,0.00,,FEW002,0.00,VWS V14.01,2013-07-09 11:38:00,
2013-07-09 07:39:00,70.3,69.7,30.12,SSW,202,0.9,0.9,98,0.00,,FEW002,0.00,VWS V14.01,2013-07-09 11:39:00,
2013-07-09 07:40:00,70.1,69.5,30.12,South,180,0.0,0.0,98,0.00,,BKN012,0.00,VWS V14.01,2013-07-09 11:40:00,
2013-07-09 07:41:00,70.3,69.7,30.12,SSW,202,0.9,0.9,98,0.00,,FEW002,0.00,VWS V14.01,2013-07-09 11:41:00,
2013-07-09 07:42:00,70.3,69.7,30.12,SSW,202,0.9,0.9,98,0.00,,FEW002,0.00,VWS V14.01,2013-07-09 11:42:00,
2013-07-09 07:43:00,70.3,69.7,30.12,SSW,202,1.6,1.6,98,0.00,,FEW002,0.00,VWS V14.01,2013-07-09 11:43:00,
2013-07-09 07:44:00,70.3,69.7,30.12,SSW,202,2.0,2.0,98,0.00,,FEW002,0.00,VWS V14.01,2013-07-09 11:44:00,
2013-07-09 07:45:00,70.3,69.7,30.12,SSW,202,1.6,1.6,98,0.00,,BKN012,0.00,VWS V14.01,2013-07-09 11:45:00,
2013-07-09 07:46:00,70.3,69.7,30.12,SSW,202,2.2,2.2,98,0.00,,FEW002,0.00,VWS V14.01,2013-07-09 11:46:00,
2013-07-09 07:47:00,70.3,69.7,30.12,SW,225,3.1,3.1,98,0.00,,FEW002,0.00,VWS V14.01,2013-07-09 11:47:00,
2013-07-09 07:48:00,70.3,69.7,30.12,SSW,202,2.7,2.7,98,0.00,,FEW002,0.00,VWS V14.01,2013-07-09 11:48:00,
2013-07-09 07:49:00,70.3,69.7,30.12,SSW,202,3.1,3.1,98,0.00,,FEW002,0.00,VWS V14.01,2013-07-09 11:49:00,
2013-07-09 07:50:00,70.3,69.7,30.12,SSW,202,2.9,2.9,98,0.00,,BKN012,0.00,VWS V14.01,2013-07-09 11:50:00,
2013-07-09 07:51:00,70.3,69.7,30.12,South,180,2.7,2.7,98,0.00,,FEW002,0.00,VWS V14.01,2013-07-09 11:51:00,
2013-07-09 07:52:00,70.5,69.9,30.12,South,180,2.5,2.5,98,0.00,,FEW002,0.00,VWS V14.01,2013-07-09 11:52:00,
2013-07-09 07:53:00,70.5,69.9,30.12,South,180,1.6,1.6,98,0.00,,FEW002,0.00,VWS V14.01,2013-07-09 11:53:00,
2013-07-09 07:54:00,70.5,69.9,30.12,SSW,202,1.3,1.3,98,0.00,,FEW002,0.00,VWS V14.01,2013-07-09 11:54:00,
2013-07-09 07:55:00,70.5,69.9,30.12,SSW,202,2.2,2.2,98,0.00,,SCT016,0.00,VWS V14.01,2013-07-09 11:55:00,
2013-07-09 07:56:00,70.5,69.9,30.15,SSW,202,1.6,1.6,98,0.00,,FEW002,0.00,VWS V14.01,2013-07-09 11:56:00,
2013-07-09 07:57:00,70.5,69.9,30.15,South,180,2.5,2.5,98,0.00,,FEW002,0.00,VWS V14.01,2013-07-09 11:57:00,
2013-07-09 07:58:00,70.7,70.1,30.15,SSW,202,0.9,0.9,98,0.00,,FEW002,0.00,VWS V14.01,2013-07-09 11:58:00,
2013-07-09 07:59:00,70.7,70.1,30.15,SSW,202,1.6,1.6,98,0.00,,FEW002,0.00,VWS V14.01,2013-07-09 11:59:00,
2013-07-09 08:00:00,70.7,70.1,30.15,South,180,2.5,2.5,98,0.00,,SCT016,0.00,VWS V14.01,2013-07-09 12:00:00,
2013-07-09 08:01:00,70.7,70.1,30.15,SSW,202,2.0,2.0,98,0.00,,FEW002,0.00,VWS V14.01,2013-07-09 12:01:00,
2013-07-09 08:02:00,70.7,70.1,30.15,South,180,2.7,2.7,98,0.00,,FEW002,0.00,VWS V14.01,2013-07-09 12:02:00,
2013-07-09 08:03:00,70.7,70.1,30.15,SSW,202,1.6,1.6,98,0.00,,FEW002,0.00,VWS V14.01,2013-07-09 12:03:00,
2013-07-09 08:04:00,70.7,70.1,30.15,SSW,202,1.1,1.1,98,0.00,,FEW002,0.00,VWS V14.01,2013-07-09 12:04:00,
2013-07-09 08:05:00,70.7,70.1,30.15,SSW,202,1.1,1.1,98,0.00,,SCT016,0.00,VWS V14.01,2013-07-09 12:05:00,
2013-07-09 08:06:00,70.8,70.2,30.15,SW,225,2.7,2.7,98,0.00,,FEW002,0.00,VWS V14.01,2013-07-09 12:06:00,
2013-07-09 08:07:00,70.8,70.2,30.15,SSW,202,2.7,2.7,98,0.00,,FEW002,0.00,VWS V14.01,2013-07-09 12:07:00,
2013-07-09 08:08:00,70.8,70.2,30.15,SSW,202,2.5,2.5,98,0.00,,FEW002,0.00,VWS V14.01,2013-07-09 12:08:00,
2013-07-09 08:09:00,70.8,70.2,30.15,SW,225,3.1,3.1,98,0.00,,FEW002,0.00,VWS V14.01,2013-07-09 12:09:00,
2013-07-09 08:10:00,70.8,70.2,30.15,SSW,202,3.4,3.4,98,0.00,,FEW002,0.00,VWS V14.01,2013-07-09 12:10:00,
2013-07-09 08:11:00,70.8,70.2,30.15,SW,225,2.9,2.9,98,0.00,,SCT016,0.00,VWS V14.01,2013-07-09 12:11:00,
2013-07-09 08:12:00,70.8,70.2,30.15,SSW,202,2.9,2.9,98,0.00,,FEW002,0.00,VWS V14.01,2013-07-09 12:12:00,
2013-07-09 08:13:00,70.8,70.2,30.15,SSW,202,3.4,3.4,98,0.00,,FEW002,0.00,VWS V14.01,2013-07-09 12:13:00,
2013-07-09 08:14:00,70.8,70.2,30.15,SSW,202,2.5,2.5,98,0.00,,FEW002,0.00,VWS V14.01,2013-07-09 12:14:00,
2013-07-09 08:15:00,70.8,70.2,30.15,South,180,3.1,3.1,98,0.00,,FEW002,0.00,VWS V14.01,2013-07-09 12:15:00,
2013-07-09 08:16:00,70.8,70.2,30.15,SSW,202,3.4,3.4,98,0.00,,SCT016,0.00,VWS V14.01,2013-07-09 12:16:00,
2013-07-09 08:17:00,70.8,70.2,30.15,SW,225,3.6,3.6,98,0.00,,FEW002,0.00,VWS V14.01,2013-07-09 12:17:00,
2013-07-09 08:18:00,70.8,70.2,30.15,SW,225,3.8,3.8,98,0.00,,FEW002,0.00,VWS V14.01,2013-07-09 12:18:00,
2013-07-09 08:19:00,71.0,70.4,30.15,SW,225,2.9,2.9,98,0.00,,FEW002,0.00,VWS V14.01,2013-07-09 12:19:00,
2013-07-09 08:20:00,71.2,70.3,30.15,SW,225,2.0,2.0,97,0.00,,FEW002,0.00,VWS V14.01,2013-07-09 12:20:00,
2013-07-09 08:21:00,71.0,70.4,30.15,WSW,248,3.4,3.4,98,0.00,,SCT016,0.00,VWS V14.01,2013-07-09 12:21:00,
2013-07-09 08:22:00,71.2,70.3,30.15,SSW,202,4.3,4.3,97,0.00,,FEW002,0.00,VWS V14.01,2013-07-09 12:22:00,
2013-07-09 08:23:00,71.2,70.3,30.15,SSW,202,3.1,3.1,97,0.00,,FEW002,0.00,VWS V14.01,2013-07-09 12:23:00,
2013-07-09 08:24:00,71.2,70.3,30.15,SSW,202,2.7,2.7,97,0.00,,FEW002,0.00,VWS V14.01,2013-07-09 12:24:00,
2013-07-09 08:25:00,71.2,70.3,30.15,SSW,202,2.7,2.7,97,0.00,,FEW002,0.00,VWS V14.01,2013-07-09 12:25:00,
2013-07-09 08:26:00,71.2,70.3,30.15,SSW,202,2.7,2.7,97,0.00,,SCT016,0.00,VWS V14.01,2013-07-09 12:26:00,
2013-07-09 08:27:00,71.2,70.6,30.15,SSW,202,3.1,3.1,98,0.00,,FEW002,0.00,VWS V14.01,2013-07-09 12:27:00,
2013-07-09 08:28:00,71.2,70.6,30.15,SSW,202,2.7,2.7,98,0.00,,FEW002,0.00,VWS V14.01,2013-07-09 12:28:00,
2013-07-09 08:29:00,71.2,70.6,30.15,WSW,248,2.9,2.9,98,0.00,,FEW002,0.00,VWS V14.01,2013-07-09 12:29:00,
2013-07-09 08:30:00,71.4,70.8,30.15,SW,225,3.6,3.6,98,0.00,,FEW002,0.00,VWS V14.01,2013-07-09 12:30:00,
2013-07-09 08:31:00,71.2,70.6,30.15,WSW,248,3.6,3.6,98,0.00,,SCT016,0.00,VWS V14.01,2013-07-09 12:31:00,
2013-07-09 08:32:00,71.2,70.6,30.15,SSW,202,3.4,3.4,98,0.00,,FEW002,0.00,VWS V14.01,2013-07-09 12:32:00,
2013-07-09 08:33:00,71.2,70.6,30.15,SSW,202,3.6,3.6,98,0.00,,FEW002,0.00,VWS V14.01,2013-07-09 12:33:00,
2013-07-09 08:34:00,71.2,70.6,30.15,SW,225,3.4,3.4,98,0.00,,FEW002,0.00,VWS V14.01,2013-07-09 12:34:00,
2013-07-09 08:35:00,71.2,70.6,30.15,WSW,248,3.4,3.4,98,0.00,,FEW002,0.00,VWS V14.01,2013-07-09 12:35:00,
2013-07-09 08:36:00,71.2,70.6,30.15,WSW,248,3.1,3.1,98,0.00,,BKN016,0.00,VWS V14.01,2013-07-09 12:36:00,
2013-07-09 08:37:00,71.2,70.6,30.15,WSW,248,3.4,3.4,98,0.00,,BKN016,0.00,VWS V14.01,2013-07-09 12:37:00,
2013-07-09 08:38:00,71.4,70.8,30.15,SSW,202,2.5,2.5,98,0.00,,FEW002,0.00,VWS V14.01,2013-07-09 12:38:00,
2013-07-09 08:39:00,71.6,71.0,30.15,SW,225,2.5,2.5,98,0.00,,FEW002,0.00,VWS V14.01,2013-07-09 12:39:00,
2013-07-09 08:40:00,71.6,71.0,30.18,SW,225,2.9,2.9,98,0.00,,FEW002,0.00,VWS V14.01,2013-07-09 12:40:00,
2013-07-09 08:41:00,71.6,71.0,30.18,SW,225,2.7,2.7,98,0.00,,FEW002,0.00,VWS V14.01,2013-07-09 12:41:00,
2013-07-09 08:42:00,71.6,71.0,30.18,SW,225,2.9,2.9,98,0.00,,BKN016,0.00,VWS V14.01,2013-07-09 12:42:00,
2013-07-09 08:43:00,71.6,71.0,30.18,SSW,202,3.6,3.6,98,0.00,,FEW002,0.00,VWS V14.01,2013-07-09 12:43:00,
2013-07-09 08:44:00,71.6,71.0,30.18,SW,225,3.6,3.6,98,0.00,,FEW002,0.00,VWS V14.01,2013-07-09 12:44:00,
2013-07-09 08:45:00,71.7,71.2,30.18,SW,225,4.0,4.0,98,0.00,,FEW002,0.00,VWS V14.01,2013-07-09 12:45:00,
2013-07-09 08:46:00,71.7,71.2,30.18,SSW,202,2.7,2.7,98,0.00,,FEW002,0.00,VWS V14.01,2013-07-09 12:46:00,
2013-07-09 08:47:00,71.7,71.2,30.18,SW,225,4.0,4.0,98,0.00,,BKN016,0.00,VWS V14.01,2013-07-09 12:47:00,
2013-07-09 08:48:00,71.6,71.0,30.18,WSW,248,3.8,3.8,98,0.00,,FEW002,0.00,VWS V14.01,2013-07-09 12:48:00,
2013-07-09 08:49:00,71.6,70.7,30.18,SSW,202,4.3,4.3,97,0.00,,FEW002,0.00,VWS V14.01,2013-07-09 12:49:00,
2013-07-09 08:50:00,71.6,70.7,30.18,WSW,248,3.6,3.6,97,0.00,,FEW002,0.00,VWS V14.01,2013-07-09 12:50:00,
2013-07-09 08:51:00,71.6,70.7,30.18,SW,225,2.7,2.7,97,0.00,,FEW002,0.00,VWS V14.01,2013-07-09 12:51:00,
2013-07-09 08:52:00,71.6,70.7,30.18,WSW,248,3.6,3.6,97,0.00,,SCT016,0.00,VWS V14.01,2013-07-09 12:52:00,
2013-07-09 08:53:00,71.6,70.7,30.18,SW,225,4.0,4.0,97,0.00,,FEW002,0.00,VWS V14.01,2013-07-09 12:53:00,
2013-07-09 08:54:00,71.6,70.7,30.18,SW,225,3.4,3.4,97,0.00,,FEW002,0.00,VWS V14.01,2013-07-09 12:54:00,
2013-07-09 08:55:00,71.6,70.7,30.15,West,270,3.4,3.4,97,0.00,,FEW002,0.00,VWS V14.01,2013-07-09 12:55:00,
2013-07-09 08:56:00,71.6,70.7,30.15,WNW,292,5.4,5.4,97,0.00,,FEW002,0.00,VWS V14.01,2013-07-09 12:56:00,
2013-07-09 08:57:00,71.6,70.7,30.15,West,270,3.4,3.4,97,0.00,,SCT016,0.00,VWS V14.01,2013-07-09 12:57:00,
2013-07-09 08:58:00,71.4,70.2,30.15,WSW,248,5.8,5.8,96,0.00,,FEW002,0.00,VWS V14.01,2013-07-09 12:58:00,
2013-07-09 08:59:00,71.2,70.0,30.15,SW,225,4.0,4.0,96,0.00,,FEW002,0.00,VWS V14.01,2013-07-09 12:59:00,
2013-07-09 09:00:00,71.0,69.8,30.15,SSW,202,4.3,4.3,96,0.00,,FEW002,0.00,VWS V14.01,2013-07-09 13:00:00,
2013-07-09 09:01:00,71.0,69.8,30.15,West,270,3.8,3.8,96,0.00,,FEW002,0.00,VWS V14.01,2013-07-09 13:01:00,
2013-07-09 09:02:00,71.0,69.8,30.15,SSW,202,4.3,4.3,96,0.00,,SCT016,0.00,VWS V14.01,2013-07-09 13:02:00,
2013-07-09 09:03:00,71.2,69.7,30.15,SW,225,4.9,4.9,95,0.00,,FEW002,0.00,VWS V14.01,2013-07-09 13:03:00,
2013-07-09 09:04:00,71.0,69.5,30.15,WSW,248,4.5,4.5,95,0.00,,FEW002,0.00,VWS V14.01,2013-07-09 13:04:00,
2013-07-09 09:05:00,70.8,69.0,30.15,SW,225,3.8,3.8,94,0.00,,FEW002,0.00,VWS V14.01,2013-07-09 13:05:00,
2013-07-09 09:06:00,70.8,69.0,30.15,SW,225,3.8,3.8,94,0.00,,FEW002,0.00,VWS V14.01,2013-07-09 13:06:00,
2013-07-09 09:07:00,70.8,69.0,30.15,SW,225,3.8,3.8,94,0.00,,SCT016,0.00,VWS V14.01,2013-07-09 13:07:00,
2013-07-09 09:08:00,71.2,69.7,30.15,SSW,202,2.7,2.7,95,0.00,,FEW002,0.00,VWS V14.01,2013-07-09 13:08:00,
2013-07-09 09:09:00,71.4,70.2,30.15,WSW,248,4.0,4.0,96,0.00,,FEW002,0.00,VWS V14.01,2013-07-09 13:09:00,
2013-07-09 09:10:00,71.2,69.7,30.15,WSW,248,3.1,3.1,95,0.00,,FEW002,0.00,VWS V14.01,2013-07-09 13:10:00,
2013-07-09 09:11:00,71.2,69.4,30.15,WSW,248,5.6,5.6,94,0.00,,FEW002,0.00,VWS V14.01,2013-07-09 13:11:00,
2013-07-09 09:12:00,71.2,69.7,30.15,WSW,248,3.4,3.4,95,0.00,,SCT016,0.00,VWS V14.01,2013-07-09 13:12:00,
2013-07-09 09:13:00,71.2,69.4,30.15,SW,225,3.4,3.4,94,0.00,,FEW002,0.00,VWS V14.01,2013-07-09 13:13:00,
2013-07-09 09:14:00,71.0,69.2,30.15,SSW,202,4.3,4.3,94,0.00,,FEW002,0.00,VWS V14.01,2013-07-09 13:14:00,
2013-07-09 09:15:00,71.0,69.2,30.15,SSW,202,5.4,5.4,94,0.00,,FEW002,0.00,VWS V14.01,2013-07-09 13:15:00,
2013-07-09 09:16:00,71.0,68.9,30.15,SW,225,2.9,2.9,93,0.00,,FEW002,0.00,VWS V14.01,2013-07-09 13:16:00,
2013-07-09 09:17:00,71.0,69.2,30.15,SSW,202,4.9,4.9,94,0.00,,SCT016,0.00,VWS V14.01,2013-07-09 13:17:00,
2013-07-09 09:18:00,71.2,69.4,30.15,SW,225,3.1,3.1,94,0.00,,FEW002,0.00,VWS V14.01,2013-07-09 13:18:00,
2013-07-09 09:19:00,71.2,68.8,30.15,WSW,248,4.0,4.0,92,0.00,,FEW002,0.00,VWS V14.01,2013-07-09 13:19:00,
2013-07-09 09:20:00,71.2,68.8,30.15,WSW,248,4.0,4.0,92,0.00,,FEW002,0.00,VWS V14.01,2013-07-09 13:20:00,
2013-07-09 09:21:00,71.0,68.6,30.15,WSW,248,3.4,3.4,92,0.00,,FEW002,0.00,VWS V14.01,2013-07-09 13:21:00,
2013-07-09 09:22:00,71.2,68.8,30.15,WSW,248,3.1,3.1,92,0.00,,SCT016,0.00,VWS V14.01,2013-07-09 13:22:00,
2013-07-09 09:23:00,71.0,68.6,30.15,West,270,4.3,4.3,92,0.00,,FEW002,0.00,VWS V14.01,2013-07-09 13:23:00,
2013-07-09 09:24:00,71.4,68.9,30.15,SSW,202,2.0,2.0,92,0.00,,FEW002,0.00,VWS V14.01,2013-07-09 13:24:00,
2013-07-09 09:25:00,71.6,69.4,30.15,South,180,2.9,2.9,93,0.00,,FEW002,0.00,VWS V14.01,2013-07-09 13:25:00,
2013-07-09 09:26:00,71.7,69.6,30.15,South,180,4.9,4.9,93,0.00,,FEW002,0.00,VWS V14.01,2013-07-09 13:26:00,
2013-07-09 09:27:00,71.6,69.4,30.15,SSE,158,4.0,4.0,93,0.00,,SCT016,0.00,VWS V14.01,2013-07-09 13:27:00,
2013-07-09 09:28:00,71.7,69.3,30.15,SSE,158,3.1,3.1,92,0.00,,FEW002,0.00,VWS V14.01,2013-07-09 13:28:00,
2013-07-09 09:29:00,71.9,69.5,30.15,SE,135,3.4,3.4,92,0.00,,FEW002,0.00,VWS V14.01,2013-07-09 13:29:00,
2013-07-09 09:30:00,72.1,69.0,30.15,WSW,248,2.9,2.9,90,0.00,,FEW002,0.00,VWS V14.01,2013-07-09 13:30:00,
2013-07-09 09:31:00,72.1,69.0,30.15,SSW,202,4.9,4.9,90,0.00,,FEW002,0.00,VWS V14.01,2013-07-09 13:31:00,
2013-07-09 09:32:00,72.1,69.0,30.15,SSW,202,2.7,2.7,90,0.00,,SCT016,0.00,VWS V14.01,2013-07-09 13:32:00,
2013-07-09 09:33:00,72.5,70.0,30.15,South,180,3.4,3.4,92,0.00,,FEW002,0.00,VWS V14.01,2013-07-09 13:33:00,
2013-07-09 09:34:00,72.6,69.2,30.15,SSW,202,4.5,4.5,89,0.00,,FEW002,0.00,VWS V14.01,2013-07-09 13:34:00,
2013-07-09 09:35:00,72.5,68.4,30.15,SSW,202,4.9,4.9,87,0.00,,FEW002,0.00,VWS V14.01,2013-07-09 13:35:00,
2013-07-09 09:36:00,72.1,68.0,30.15,SSW,202,4.3,4.3,87,0.00,,FEW002,0.00,VWS V14.01,2013-07-09 13:36:00,
2013-07-09 09:37:00,72.3,67.9,30.15,SSW,202,4.3,4.3,86,0.00,,FEW002,0.00,VWS V14.01,2013-07-09 13:37:00,
2013-07-09 09:38:00,72.5,68.4,30.15,South,180,3.1,3.1,87,0.00,,SCT016,0.00,VWS V14.01,2013-07-09 13:38:00,
2013-07-09 09:39:00,71.9,67.2,30.15,South,180,1.6,1.6,85,0.00,,FEW002,0.00,VWS V14.01,2013-07-09 13:39:00,
2013-07-09 09:40:00,72.5,67.7,30.15,SW,225,4.0,4.0,85,0.00,,FEW002,0.00,VWS V14.01,2013-07-09 13:40:00,
2013-07-09 09:41:00,72.6,67.9,30.18,WSW,248,4.9,4.9,85,0.00,,FEW002,0.00,VWS V14.01,2013-07-09 13:41:00,
2013-07-09 09:42:00,72.5,66.7,30.18,WSW,248,5.6,5.6,82,0.00,,FEW002,0.00,VWS V14.01,2013-07-09 13:42:00,
2013-07-09 09:43:00,72.6,67.9,30.18,WSW,248,3.6,3.6,85,0.00,,SCT016,0.00,VWS V14.01,2013-07-09 13:43:00,
2013-07-09 09:44:00,72.3,66.1,30.18,WSW,248,3.4,3.4,81,0.00,,FEW002,0.00,VWS V14.01,2013-07-09 13:44:00,
2013-07-09 09:45:00,72.1,66.7,30.18,WSW,248,4.3,4.3,83,0.00,,FEW002,0.00,VWS V14.01,2013-07-09 13:45:00,
2013-07-09 09:46:00,72.1,66.7,30.18,WNW,292,3.8,3.8,83,0.00,,FEW002,0.00,VWS V14.01,2013-07-09 13:46:00,
2013-07-09 09:47:00,72.1,67.0,30.18,SW,225,2.9,2.9,84,0.00,,FEW002,0.00,VWS V14.01,2013-07-09 13:47:00,
2013-07-09 09:48:00,72.1,66.7,30.18,West,270,2.9,2.9,83,0.00,,SCT016,0.00,VWS V14.01,2013-07-09 13:48:00,
2013-07-09 09:49:00,72.1,67.3,30.18,SSW,202,3.4,3.4,85,0.00,,FEW002,0.00,VWS V14.01,2013-07-09 13:49:00,
2013-07-09 09:50:00,71.6,66.5,30.18,South,180,2.9,2.9,84,0.00,,FEW002,0.00,VWS V14.01,2013-07-09 13:50:00,
2013-07-09 09:51:00,71.7,66.3,30.18,SSW,202,3.1,3.1,83,0.00,,FEW002,0.00,VWS V14.01,2013-07-09 13:51:00,
2013-07-09 09:52:00,71.7,66.3,30.18,SSW,202,4.0,4.0,83,0.00,,FEW002,0.00,VWS V14.01,2013-07-09 13:52:00,
2013-07-09 09:53:00,71.7,66.3,30.18,SSW,202,3.1,3.1,83,0.00,,BKN009,0.00,VWS V14.01,2013-07-09 13:53:00,
2013-07-09 09:54:00,72.1,67.3,30.18,SSW,202,4.3,4.3,85,0.00,,FEW002,0.00,VWS V14.01,2013-07-09 13:54:00,
2013-07-09 09:55:00,72.1,67.0,30.18,SSW,202,2.7,2.7,84,0.00,,FEW002,0.00,VWS V14.01,2013-07-09 13:55:00,
2013-07-09 09:56:00,72.1,67.0,30.18,SSW,202,4.3,4.3,84,0.00,,FEW002,0.00,VWS V14.01,2013-07-09 13:56:00,
2013-07-09 09:57:00,72.3,67.2,30.18,West,270,4.0,4.0,84,0.00,,FEW002,0.00,VWS V14.01,2013-07-09 13:57:00,
2013-07-09 09:58:00,72.1,67.0,30.18,SSW,202,4.3,4.3,84,0.00,,BKN009,0.00,VWS V14.01,2013-07-09 13:58:00,
2013-07-09 09:59:00,72.3,67.2,30.18,SSE,158,2.2,2.2,84,0.00,,FEW002,0.00,VWS V14.01,2013-07-09 13:59:00,
2013-07-09 10:00:00,72.3,67.2,30.18,SW,225,0.0,0.0,84,0.00,,FEW002,0.00,VWS V14.01,2013-07-09 14:00:00,
2013-07-09 10:01:00,72.1,66.3,30.18,WSW,248,3.6,3.6,82,0.00,,FEW002,0.00,VWS V14.01,2013-07-09 14:01:00,
2013-07-09 10:02:00,72.1,65.6,30.18,WSW,248,3.4,3.4,80,0.00,,FEW002,0.00,VWS V14.01,2013-07-09 14:02:00,
2013-07-09 10:03:00,72.1,66.3,30.18,SSW,202,3.6,3.6,82,0.00,,BKN009,0.00,VWS V14.01,2013-07-09 14:03:00,
2013-07-09 10:04:00,72.1,66.3,30.18,South,180,3.4,3.4,82,0.00,,FEW002,0.00,VWS V14.01,2013-07-09 14:04:00,
2013-07-09 10:05:00,72.3,66.5,30.18,SSW,202,1.6,1.6,82,0.00,,FEW002,0.00,VWS V14.01,2013-07-09 14:05:00,
2013-07-09 10:06:00,72.5,67.0,30.18,South,180,3.4,3.4,83,0.00,,SCT100,0.00,VWS V14.01,2013-07-09 14:06:00,
2013-07-09 10:07:00,72.6,67.5,30.18,SSW,202,2.0,2.0,84,0.00,,FEW002,0.00,VWS V14.01,2013-07-09 14:07:00,
2013-07-09 10:08:00,72.5,67.0,30.18,South,180,3.4,3.4,83,0.00,,BKN009,0.00,VWS V14.01,2013-07-09 14:08:00,
2013-07-09 10:09:00,72.6,67.5,30.18,SSW,202,5.4,5.4,84,0.00,,FEW002,0.00,VWS V14.01,2013-07-09 14:09:00,
2013-07-09 10:10:00,72.6,66.5,30.18,SSW,202,3.1,3.1,81,0.00,,FEW002,0.00,VWS V14.01,2013-07-09 14:10:00,
2013-07-09 10:11:00,72.6,66.1,30.18,SW,225,6.0,6.0,80,0.00,,FEW002,0.00,VWS V14.01,2013-07-09 14:11:00,
2013-07-09 10:12:00,72.5,64.8,30.18,SW,225,4.5,4.5,77,0.00,,FEW002,0.00,VWS V14.01,2013-07-09 14:12:00,
2013-07-09 10:13:00,72.6,66.1,30.18,SW,225,6.0,6.0,80,0.00,,BKN009,0.00,VWS V14.01,2013-07-09 14:13:00,
2013-07-09 10:14:00,72.3,64.7,30.18,WSW,248,2.7,2.7,77,0.00,,FEW002,0.00,VWS V14.01,2013-07-09 14:14:00,
2013-07-09 10:15:00,72.5,65.6,30.18,WNW,292,2.7,2.7,79,0.00,,FEW002,0.00,VWS V14.01,2013-07-09 14:15:00,
2013-07-09 10:16:00,72.5,65.9,30.18,SSE,158,2.2,2.2,80,0.00,,FEW002,0.00,VWS V14.01,2013-07-09 14:16:00,
2013-07-09 10:17:00,72.5,65.9,30.18,ESE,112,3.6,3.6,80,0.00,,FEW002,0.00,VWS V14.01,2013-07-09 14:17:00,
2013-07-09 10:18:00,72.5,65.9,30.18,SSE,158,2.2,2.2,80,0.00,,BKN009,0.00,VWS V14.01,2013-07-09 14:18:00,
2013-07-09 10:19:00,72.5,65.9,30.18,SW,225,2.9,2.9,80,0.00,,FEW002,0.00,VWS V14.01,2013-07-09 14:19:00,
2013-07-09 10:20:00,72.6,66.8,30.18,West,270,5.4,5.4,82,0.00,,FEW002,0.00,VWS V14.01,2013-07-09 14:20:00,
2013-07-09 10:21:00,72.6,66.1,30.18,SSW,202,4.0,4.0,80,0.00,,FEW002,0.00,VWS V14.01,2013-07-09 14:21:00,
2013-07-09 10:22:00,72.6,65.8,30.18,SW,225,3.8,3.8,79,0.00,,FEW002,0.00,VWS V14.01,2013-07-09 14:22:00,
2013-07-09 10:23:00,72.6,66.1,30.18,SSE,158,3.6,3.6,80,0.00,,BKN009,0.00,VWS V14.01,2013-07-09 14:23:00,
2013-07-09 10:24:00,72.6,65.8,30.18,South,180,2.7,2.7,79,0.00,,FEW002,0.00,VWS V14.01,2013-07-09 14:24:00,
2013-07-09 10:25:00,72.6,65.8,30.21,SSW,202,4.3,4.3,79,0.00,,FEW002,0.00,VWS V14.01,2013-07-09 14:25:00,
2013-07-09 10:26:00,73.0,66.1,30.21,SSW,202,2.5,2.5,79,0.00,,FEW002,0.00,VWS V14.01,2013-07-09 14:26:00,
2013-07-09 10:27:00,73.2,67.0,30.21,SSW,202,2.0,2.0,81,0.00,,FEW002,0.00,VWS V14.01,2013-07-09 14:27:00,
2013-07-09 10:28:00,73.0,66.8,30.21,SSW,202,2.5,2.5,81,0.00,,BKN009,0.00,VWS V14.01,2013-07-09 14:28:00,
2013-07-09 10:29:00,73.0,66.1,30.21,SSW,202,4.7,4.7,79,0.00,,FEW002,0.00,VWS V14.01,2013-07-09 14:29:00,
2013-07-09 10:30:00,73.2,65.9,30.21,WSW,248,4.3,4.3,78,0.00,,FEW002,0.00,VWS V14.01,2013-07-09 14:30:00,
2013-07-09 10:31:00,73.2,65.5,30.21,WSW,248,3.1,3.1,77,0.00,,FEW002,0.00,VWS V14.01,2013-07-09 14:31:00,
2013-07-09 10:32:00,73.2,65.5,30.21,WSW,248,5.6,5.6,77,0.00,,FEW002,0.00,VWS V14.01,2013-07-09 14:32:00,
2013-07-09 10:33:00,73.2,65.6,30.21,SW,225,4.3,4.3,77,0.00,,BKN014,0.00,VWS V14.01,2013-07-09 14:33:00,
2013-07-09 10:34:00,73.2,65.5,30.21,SSW,202,4.9,4.9,77,0.00,,FEW002,0.00,VWS V14.01,2013-07-09 14:34:00,
2013-07-09 10:35:00,73.4,65.7,30.21,WSW,248,2.7,2.7,77,0.00,,FEW002,0.00,VWS V14.01,2013-07-09 14:35:00,
2013-07-09 10:36:00,73.2,64.4,30.21,WSW,248,6.3,6.3,74,0.00,,FEW002,0.00,VWS V14.01,2013-07-09 14:36:00,
2013-07-09 10:37:00,73.2,64.0,30.21,WNW,292,5.6,5.6,73,0.00,,FEW002,0.00,VWS V14.01,2013-07-09 14:37:00,
2013-07-09 10:38:00,73.2,64.4,30.21,West,270,7.6,7.6,74,0.00,,BKN011,0.00,VWS V14.01,2013-07-09 14:38:00,
2013-07-09 10:39:00,73.2,64.0,30.21,West,270,2.9,2.9,73,0.00,,FEW002,0.00,VWS V14.01,2013-07-09 14:39:00,
2013-07-09 10:40:00,73.2,64.0,30.18,SSW,202,2.9,2.9,73,0.00,,FEW002,0.00,VWS V14.01,2013-07-09 14:40:00,
2013-07-09 10:41:00,73.4,64.6,30.18,WSW,248,2.9,2.9,74,0.00,,FEW002,0.00,VWS V14.01,2013-07-09 14:41:00,
2013-07-09 10:42:00,73.4,64.6,30.18,SW,225,2.0,2.0,74,0.00,,FEW002,0.00,VWS V14.01,2013-07-09 14:42:00,
2013-07-09 10:43:00,73.4,64.6,30.18,WSW,248,3.4,3.4,74,0.00,,BKN011,0.00,VWS V14.01,2013-07-09 14:43:00,
2013-07-09 10:44:00,73.5,64.8,30.18,WNW,292,3.1,3.1,74,0.00,,FEW002,0.00,VWS V14.01,2013-07-09 14:44:00,
2013-07-09 10:45:00,73.5,64.8,30.18,West,270,4.9,4.9,74,0.00,,FEW002,0.00,VWS V14.01,2013-07-09 14:45:00,
2013-07-09 10:46:00,73.7,64.1,30.18,WSW,248,3.6,3.6,72,0.00,,FEW002,0.00,VWS V14.01,2013-07-09 14:46:00,
2013-07-09 10:47:00,73.5,63.6,30.18,WSW,248,2.0,2.0,71,0.00,,FEW002,0.00,VWS V14.01,2013-07-09 14:47:00,
2013-07-09 10:48:00,73.5,63.6,30.18,WNW,292,1.3,1.3,71,0.00,,BKN011,0.00,VWS V14.01,2013-07-09 14:48:00,
2013-07-09 10:49:00,73.7,63.3,30.18,WSW,248,2.9,2.9,70,0.00,,FEW002,0.00,VWS V14.01,2013-07-09 14:49:00,
2013-07-09 10:50:00,73.9,63.5,30.18,NW,315,3.1,3.1,70,0.00,,FEW002,0.00,VWS V14.01,2013-07-09 14:50:00,
2013-07-09 10:51:00,73.9,63.9,30.18,WSW,248,1.1,1.1,71,0.00,,FEW002,0.00,VWS V14.01,2013-07-09 14:51:00,
2013-07-09 10:52:00,74.1,64.5,30.18,SSW,202,1.6,1.6,72,0.00,,FEW002,0.00,VWS V14.01,2013-07-09 14:52:00,
2013-07-09 10:53:00,73.9,63.9,30.18,SW,225,2.0,2.0,71,0.00,,FEW015,0.00,VWS V14.01,2013-07-09 14:53:00,
2013-07-09 10:54:00,74.1,64.5,30.18,South,180,2.2,2.2,72,0.00,,FEW002,0.00,VWS V14.01,2013-07-09 14:54:00,
2013-07-09 10:55:00,74.1,64.5,30.18,SW,225,1.3,1.3,72,0.00,,FEW002,0.00,VWS V14.01,2013-07-09 14:55:00,
2013-07-09 10:56:00,74.3,64.7,30.18,WSW,248,0.0,0.0,72,0.00,,FEW002,0.00,VWS V14.01,2013-07-09 14:56:00,
2013-07-09 10:57:00,74.3,63.8,30.18,SSW,202,2.5,2.5,70,0.00,,FEW002,0.00,VWS V14.01,2013-07-09 14:57:00,
2013-07-09 10:58:00,74.4,64.8,30.18,SSE,158,3.6,3.6,72,0.00,,FEW002,0.00,VWS V14.01,2013-07-09 14:58:00,
2013-07-09 10:59:00,74.3,63.8,30.18,South,180,4.0,4.0,70,0.00,,BKN015,0.00,VWS V14.01,2013-07-09 14:59:00,
2013-07-09 11:00:00,74.1,63.3,30.18,SSW,202,4.9,4.9,69,0.00,,FEW002,0.00,VWS V14.01,2013-07-09 15:00:00,
2013-07-09 11:01:00,74.1,63.7,30.18,SSW,202,3.8,3.8,70,0.00,,FEW002,0.00,VWS V14.01,2013-07-09 15:01:00,
2013-07-09 11:02:00,74.3,63.4,30.18,SSE,158,3.8,3.8,69,0.00,,FEW002,0.00,VWS V14.01,2013-07-09 15:02:00,
2013-07-09 11:03:00,74.4,64.0,30.18,SSE,158,2.7,2.7,70,0.00,,FEW002,0.00,VWS V14.01,2013-07-09 15:03:00,
2013-07-09 11:04:00,74.3,63.4,30.18,SSE,158,3.8,3.8,69,0.00,,FEW015,0.00,VWS V14.01,2013-07-09 15:04:00,
2013-07-09 11:05:00,74.3,62.2,30.18,ESE,112,0.9,0.9,66,0.00,,FEW002,0.00,VWS V14.01,2013-07-09 15:05:00,
2013-07-09 11:06:00,74.4,63.6,30.18,ESE,112,1.6,1.6,69,0.00,,FEW002,0.00,VWS V14.01,2013-07-09 15:06:00,
2013-07-09 11:07:00,74.6,63.8,30.18,SSW,202,3.1,3.1,69,0.00,,FEW002,0.00,VWS V14.01,2013-07-09 15:07:00,
2013-07-09 11:08:00,74.8,64.0,30.18,SSW,202,2.7,2.7,69,0.00,,FEW002,0.00,VWS V14.01,2013-07-09 15:08:00,
2013-07-09 11:09:00,74.6,63.8,30.18,SSW,202,3.1,3.1,69,0.00,,FEW015,0.00,VWS V14.01,2013-07-09 15:09:00,
2013-07-09 11:10:00,75.2,63.9,30.18,West,270,3.4,3.4,68,0.00,,FEW002,0.00,VWS V14.01,2013-07-09 15:10:00,
2013-07-09 11:11:00,75.0,62.4,30.18,SW,225,2.5,2.5,65,0.00,,FEW002,0.00,VWS V14.01,2013-07-09 15:11:00,
2013-07-09 11:12:00,75.2,63.0,30.18,SSW,202,0.0,0.0,66,0.00,,FEW002,0.00,VWS V14.01,2013-07-09 15:12:00,
2013-07-09 11:13:00,75.3,63.6,30.18,SSW,202,0.9,0.9,67,0.00,,FEW002,0.00,VWS V14.01,2013-07-09 15:13:00,
2013-07-09 11:14:00,75.2,63.0,30.18,SSW,202,0.0,0.0,66,0.00,,FEW015,0.00,VWS V14.01,2013-07-09 15:14:00,
2013-07-09 11:15:00,75.3,63.6,30.18,West,270,5.6,5.6,67,0.00,,FEW002,0.00,VWS V14.01,2013-07-09 15:15:00,
2013-07-09 11:16:00,75.2,61.7,30.18,West,270,7.8,7.8,63,0.00,,FEW002,0.00,VWS V14.01,2013-07-09 15:16:00,
2013-07-09 11:17:00,75.0,61.1,30.18,WSW,248,5.4,5.4,62,0.00,,FEW002,0.00,VWS V14.01,2013-07-09 15:17:00,
2013-07-09 11:18:00,75.2,61.7,30.18,WSW,248,3.4,3.4,63,0.00,,FEW002,0.00,VWS V14.01,2013-07-09 15:18:00,
2013-07-09 11:19:00,75.0,61.1,30.18,WSW,248,5.4,5.4,62,0.00,,FEW015,0.00,VWS V14.01,2013-07-09 15:19:00,
2013-07-09 11:20:00,75.3,62.8,30.18,SW,225,3.6,3.6,65,0.00,,FEW002,0.00,VWS V14.01,2013-07-09 15:20:00,
2013-07-09 11:21:00,75.2,61.3,30.18,SSW,202,4.3,4.3,62,0.00,,FEW002,0.00,VWS V14.01,2013-07-09 15:21:00,
2013-07-09 11:22:00,75.2,61.3,30.18,SW,225,5.6,5.6,62,0.00,,FEW002,0.00,VWS V14.01,2013-07-09 15:22:00,
2013-07-09 11:23:00,75.2,61.7,30.18,WSW,248,3.8,3.8,63,0.00,,FEW002,0.00,VWS V14.01,2013-07-09 15:23:00,
2013-07-09 11:24:00,75.2,61.3,30.18,SW,225,5.6,5.6,62,0.00,,FEW015,0.00,VWS V14.01,2013-07-09 15:24:00,
2013-07-09 11:25:00,75.2,61.3,30.18,West,270,5.8,5.8,62,0.00,,FEW002,0.00,VWS V14.01,2013-07-09 15:25:00,
2013-07-09 11:26:00,75.2,62.2,30.18,SW,225,5.6,5.6,64,0.00,,FEW002,0.00,VWS V14.01,2013-07-09 15:26:00,
2013-07-09 11:27:00,75.2,61.7,30.18,WSW,248,6.5,6.5,63,0.00,,FEW002,0.00,VWS V14.01,2013-07-09 15:27:00,
2013-07-09 11:28:00,75.2,62.2,30.18,SW,225,3.8,3.8,64,0.00,,FEW002,0.00,VWS V14.01,2013-07-09 15:28:00,
2013-07-09 11:29:00,75.2,61.7,30.18,WSW,248,6.5,6.5,63,0.00,,FEW015,0.00,VWS V14.01,2013-07-09 15:29:00,
2013-07-09 11:30:00,74.6,59.8,30.18,SW,225,5.6,5.6,60,0.00,,FEW002,0.00,VWS V14.01,2013-07-09 15:30:00,
2013-07-09 11:31:00,74.8,60.0,30.18,SW,225,2.7,2.7,60,0.00,,FEW002,0.00,VWS V14.01,2013-07-09 15:31:00,
2013-07-09 11:32:00,74.8,60.0,30.18,SW,225,5.8,5.8,60,0.00,,FEW002,0.00,VWS V14.01,2013-07-09 15:32:00,
2013-07-09 11:33:00,74.8,60.0,30.18,West,270,6.3,6.3,60,0.00,,FEW002,0.00,VWS V14.01,2013-07-09 15:33:00,
2013-07-09 11:34:00,74.8,60.0,30.18,SW,225,5.8,5.8,60,0.00,,FEW015,0.00,VWS V14.01,2013-07-09 15:34:00,
2013-07-09 11:35:00,74.8,61.4,30.18,West,270,3.1,3.1,63,0.00,,FEW002,0.00,VWS V14.01,2013-07-09 15:35:00,
2013-07-09 11:36:00,74.8,60.9,30.18,West,270,7.2,7.2,62,0.00,,FEW002,0.00,VWS V14.01,2013-07-09 15:36:00,
2013-07-09 11:37:00,74.8,60.9,30.18,WSW,248,4.3,4.3,62,0.00,,FEW002,0.00,VWS V14.01,2013-07-09 15:37:00,
2013-07-09 11:38:00,74.8,61.4,30.18,SW,225,3.1,3.1,63,0.00,,BKN025,0.00,VWS V14.01,2013-07-09 15:38:00,
2013-07-09 11:39:00,74.8,60.9,30.18,WSW,248,4.3,4.3,62,0.00,,BKN025,0.00,VWS V14.01,2013-07-09 15:39:00,
2013-07-09 11:40:00,75.0,62.0,30.18,WSW,248,2.9,2.9,64,0.00,,FEW002,0.00,VWS V14.01,2013-07-09 15:40:00,
2013-07-09 11:41:00,75.0,61.5,30.18,SW,225,1.6,1.6,63,0.00,,FEW002,0.00,VWS V14.01,2013-07-09 15:41:00,
2013-07-09 11:42:00,75.2,62.2,30.18,WSW,248,1.1,1.1,64,0.00,,FEW002,0.00,VWS V14.01,2013-07-09 15:42:00,
2013-07-09 11:43:00,75.3,63.2,30.18,WSW,248,3.8,3.8,66,0.00,,FEW002,0.00,VWS V14.01,2013-07-09 15:43:00,
2013-07-09 11:44:00,74.8,61.4,30.18,SW,225,3.1,3.1,63,0.00,,BKN025,0.00,VWS V14.01,2013-07-09 15:44:00,
2013-07-09 11:45:00,75.7,63.5,30.18,SSW,202,3.8,3.8,66,0.00,,FEW002,0.00,VWS V14.01,2013-07-09 15:45:00,
2013-07-09 11:46:00,75.7,61.8,30.18,SW,225,5.8,5.8,62,0.00,,FEW002,0.00,VWS V14.01,2013-07-09 15:46:00,
2013-07-09 11:47:00,75.5,60.7,30.18,SW,225,5.8,5.8,60,0.00,,FEW002,0.00,VWS V14.01,2013-07-09 15:47:00,
2013-07-09 11:48:00,75.5,61.1,30.18,WSW,248,5.6,5.6,61,0.00,,FEW002,0.00,VWS V14.01,2013-07-09 15:48:00,
2013-07-09 11:49:00,75.7,62.2,30.18,WSW,248,2.5,2.5,63,0.00,,FEW002,0.00,VWS V14.01,2013-07-09 15:49:00,
2013-07-09 11:50:00,75.7,62.2,30.18,SSW,202,4.0,4.0,63,0.00,,FEW002,0.00,VWS V14.01,2013-07-09 15:50:00,
2013-07-09 11:51:00,76.1,62.1,30.18,SW,225,4.9,4.9,62,0.00,,FEW002,0.00,VWS V14.01,2013-07-09 15:51:00,
2013-07-09 11:52:00,76.1,61.7,30.18,SW,225,4.9,4.9,61,0.00,,FEW002,0.00,VWS V14.01,2013-07-09 15:52:00,
2013-07-09 11:53:00,75.9,61.5,30.18,SSE,158,3.6,3.6,61,0.00,,FEW002,0.00,VWS V14.01,2013-07-09 15:53:00,
2013-07-09 11:54:00,76.2,62.3,30.18,WSW,248,4.7,4.7,62,0.00,,FEW002,0.00,VWS V14.01,2013-07-09 15:54:00,
2013-07-09 11:55:00,76.2,62.3,30.18,SW,225,8.1,8.1,62,0.00,,FEW002,0.00,VWS V14.01,2013-07-09 15:55:00,
2013-07-09 11:56:00,76.2,61.8,30.18,WSW,248,7.6,7.6,61,0.00,,FEW002,0.00,VWS V14.01,2013-07-09 15:56:00,
2013-07-09 11:57:00,76.2,60.9,30.18,South,180,1.6,1.6,59,0.00,,FEW002,0.00,VWS V14.01,2013-07-09 15:57:00,
2013-07-09 11:58:00,76.2,60.9,30.18,SSW,202,1.6,1.6,59,0.00,,FEW002,0.00,VWS V14.01,2013-07-09 15:58:00,
2013-07-09 11:59:00,76.4,62.0,30.18,SSW,202,2.5,2.5,61,0.00,,FEW002,0.00,VWS V14.01,2013-07-09 15:59:00,
2013-07-09 12:00:00,76.6,63.5,30.18,SSW,202,3.1,3.1,64,0.00,,FEW002,0.00,VWS V14.01,2013-07-09 16:00:00,
2013-07-09 12:01:00,76.8,63.2,30.18,SW,225,3.6,3.6,63,0.00,,FEW002,0.00,VWS V14.01,2013-07-09 16:01:00,
2013-07-09 12:02:00,76.6,62.2,30.18,SSW,202,6.0,6.0,61,0.00,,FEW002,0.00,VWS V14.01,2013-07-09 16:02:00,
2013-07-09 12:03:00,77.0,64.3,30.18,WSW,248,5.4,5.4,65,0.00,,FEW002,0.00,VWS V14.01,2013-07-09 16:03:00,
2013-07-09 12:04:00,76.8,62.8,30.18,SW,225,3.6,3.6,62,0.00,,FEW002,0.00,VWS V14.01,2013-07-09 16:04:00,
2013-07-09 12:05:00,77.0,62.5,30.18,SSW,202,5.4,5.4,61,0.00,,FEW002,0.00,VWS V14.01,2013-07-09 16:05:00,
2013-07-09 12:06:00,76.8,61.9,30.18,SSE,158,3.6,3.6,60,0.00,,FEW002,0.00,VWS V14.01,2013-07-09 16:06:00,
2013-07-09 12:07:00,76.8,61.9,30.18,South,180,3.6,3.6,60,0.00,,FEW002,0.00,VWS V14.01,2013-07-09 16:07:00,
2013-07-09 12:08:00,76.8,61.9,30.18,SSW,202,4.7,4.7,60,0.00,,FEW002,0.00,VWS V14.01,2013-07-09 16:08:00,
2013-07-09 12:09:00,76.6,60.2,30.18,SW,225,6.3,6.3,57,0.00,,FEW002,0.00,VWS V14.01,2013-07-09 16:09:00,
2013-07-09 12:10:00,76.8,61.9,30.18,WSW,248,8.7,8.7,60,0.00,,FEW002,0.00,VWS V14.01,2013-07-09 16:10:00,
2013-07-09 12:11:00,76.8,61.9,30.18,SW,225,4.9,4.9,60,0.00,,FEW002,0.00,VWS V14.01,2013-07-09 16:11:00,
2013-07-09 12:12:00,76.6,60.2,30.18,WSW,248,4.0,4.0,57,0.00,,FEW002,0.00,VWS V14.01,2013-07-09 16:12:00,
2013-07-09 12:13:00,76.6,60.2,30.18,WSW,248,4.9,4.9,57,0.00,,FEW002,0.00,VWS V14.01,2013-07-09 16:13:00,
2013-07-09 12:14:00,76.6,60.2,30.18,WSW,248,4.7,4.7,57,0.00,,FEW002,0.00,VWS V14.01,2013-07-09 16:14:00,
2013-07-09 12:15:00,76.4,60.6,30.18,West,270,5.8,5.8,58,0.00,,FEW002,0.00,VWS V14.01,2013-07-09 16:15:00,
2013-07-09 12:16:00,76.2,60.9,30.18,WSW,248,6.0,6.0,59,0.00,,FEW002,0.00,VWS V14.01,2013-07-09 16:16:00,
2013-07-09 12:17:00,76.2,60.9,30.18,South,180,4.3,4.3,59,0.00,,FEW002,0.00,VWS V14.01,2013-07-09 16:17:00,
2013-07-09 12:18:00,76.2,60.9,30.18,SSW,202,5.8,5.8,59,0.00,,FEW002,0.00,VWS V14.01,2013-07-09 16:18:00,
2013-07-09 12:19:00,76.2,60.9,30.18,SSW,202,4.3,4.3,59,0.00,,FEW002,0.00,VWS V14.01,2013-07-09 16:19:00,
2013-07-09 12:20:00,76.4,62.0,30.18,SW,225,2.9,2.9,61,0.00,,FEW002,0.00,VWS V14.01,2013-07-09 16:20:00,
2013-07-09 12:21:00,76.6,62.6,30.18,SW,225,2.5,2.5,62,0.00,,FEW002,0.00,VWS V14.01,2013-07-09 16:21:00,
2013-07-09 12:22:00,76.2,59.9,30.18,SW,225,4.9,4.9,57,0.00,,FEW002,0.00,VWS V14.01,2013-07-09 16:22:00,
2013-07-09 12:23:00,76.2,60.4,30.18,SSW,202,3.6,3.6,58,0.00,,FEW002,0.00,VWS V14.01,2013-07-09 16:23:00,
2013-07-09 12:24:00,76.2,60.4,30.15,SSW,202,6.3,6.3,58,0.00,,FEW002,0.00,VWS V14.01,2013-07-09 16:24:00,
2013-07-09 12:25:00,76.2,59.9,30.15,SW,225,5.8,5.8,57,0.00,,FEW002,0.00,VWS V14.01,2013-07-09 16:25:00,
2013-07-09 12:26:00,76.2,59.9,30.15,WSW,248,4.9,4.9,57,0.00,,FEW002,0.00,VWS V14.01,2013-07-09 16:26:00,
2013-07-09 12:27:00,76.4,60.6,30.15,WSW,248,3.8,3.8,58,0.00,,FEW002,0.00,VWS V14.01,2013-07-09 16:27:00,
2013-07-09 12:28:00,76.4,60.6,30.15,WSW,248,5.6,5.6,58,0.00,,FEW002,0.00,VWS V14.01,2013-07-09 16:28:00,
2013-07-09 12:29:00,76.4,60.6,30.15,SSW,202,3.6,3.6,58,0.00,,FEW002,0.00,VWS V14.01,2013-07-09 16:29:00,
2013-07-09 12:30:00,76.8,60.9,30.15,SW,225,5.4,5.4,58,0.00,,FEW002,0.00,VWS V14.01,2013-07-09 16:30:00,
2013-07-09 12:31:00,77.1,63.1,30.15,WSW,248,4.0,4.0,62,0.00,,FEW002,0.00,VWS V14.01,2013-07-09 16:31:00,
2013-07-09 12:32:00,77.1,63.1,30.15,WSW,248,4.9,4.9,62,0.00,,FEW002,0.00,VWS V14.01,2013-07-09 16:32:00,
2013-07-09 12:33:00,77.3,61.9,30.15,WSW,248,4.3,4.3,59,0.00,,FEW002,0.00,VWS V14.01,2013-07-09 16:33:00,
2013-07-09 12:34:00,77.3,61.9,30.15,WSW,248,4.3,4.3,59,0.00,,FEW002,0.00,VWS V14.01,2013-07-09 16:34:00,
2013-07-09 12:35:00,77.3,61.9,30.15,WSW,248,5.6,5.6,59,0.00,,FEW002,0.00,VWS V14.01,2013-07-09 16:35:00,
2013-07-09 12:36:00,77.3,61.4,30.15,SSW,202,4.3,4.3,58,0.00,,FEW002,0.00,VWS V14.01,2013-07-09 16:36:00,
2013-07-09 12:37:00,77.5,62.1,30.15,WSW,248,4.0,4.0,59,0.00,,FEW002,0.00,VWS V14.01,2013-07-09 16:37:00,
2013-07-09 12:38:00,77.7,61.7,30.15,SSW,202,7.4,7.4,58,0.00,,FEW002,0.00,VWS V14.01,2013-07-09 16:38:00,
2013-07-09 12:39:00,77.7,61.7,30.18,SSW,202,4.9,4.9,58,0.00,,FEW002,0.00,VWS V14.01,2013-07-09 16:39:00,
2013-07-09 12:40:00,77.7,60.8,30.18,WSW,248,8.1,8.1,56,0.00,,FEW002,0.00,VWS V14.01,2013-07-09 16:40:00,
2013-07-09 12:41:00,77.7,61.2,30.18,West,270,5.6,5.6,57,0.00,,FEW002,0.00,VWS V14.01,2013-07-09 16:41:00,
2013-07-09 12:42:00,77.7,60.2,30.18,West,270,5.6,5.6,55,0.00,,FEW002,0.00,VWS V14.01,2013-07-09 16:42:00,
2013-07-09 12:44:00,77.5,60.6,30.18,WSW,248,6.9,6.9,56,0.00,,FEW002,0.00,VWS V14.01,2013-07-09 16:44:00,
2013-07-09 12:45:00,77.9,61.4,30.18,SSW,202,4.3,4.3,57,0.00,,FEW002,0.00,VWS V14.01,2013-07-09 16:45:00,
2013-07-09 12:46:00,77.9,62.4,30.18,SSW,202,3.4,3.4,59,0.00,,FEW002,0.00,VWS V14.01,2013-07-09 16:46:00,
2013-07-09 12:47:00,77.7,61.2,30.18,SSW,202,7.8,7.8,57,0.00,,FEW002,0.00,VWS V14.01,2013-07-09 16:47:00,
2013-07-09 12:48:00,77.7,61.2,30.18,SW,225,5.8,5.8,57,0.00,,FEW002,0.00,VWS V14.01,2013-07-09 16:48:00,
2013-07-09 12:49:00,77.9,62.9,30.18,WSW,248,1.6,1.6,60,0.00,,FEW002,0.00,VWS V14.01,2013-07-09 16:49:00,
2013-07-09 12:50:00,78.0,62.6,30.18,South,180,4.9,4.9,59,0.00,,FEW002,0.00,VWS V14.01,2013-07-09 16:50:00,
2013-07-09 12:51:00,78.0,62.6,30.18,SW,225,5.4,5.4,59,0.00,,FEW002,0.00,VWS V14.01,2013-07-09 16:51:00,
2013-07-09 12:52:00,77.9,60.4,30.18,SW,225,4.3,4.3,55,0.00,,FEW002,0.00,VWS V14.01,2013-07-09 16:52:00,
2013-07-09 12:53:00,77.7,61.2,30.18,WSW,248,6.5,6.5,57,0.00,,FEW002,0.00,VWS V14.01,2013-07-09 16:53:00,
2013-07-09 12:54:00,77.7,61.2,30.18,WSW,248,7.6,7.6,57,0.00,,FEW002,0.00,VWS V14.01,2013-07-09 16:54:00,
2013-07-09 12:55:00,77.7,60.8,30.18,WSW,248,4.0,4.0,56,0.00,,FEW002,0.00,VWS V14.01,2013-07-09 16:55:00,
2013-07-09 12:56:00,77.9,62.4,30.18,West,270,6.3,6.3,59,0.00,,FEW002,0.00,VWS V14.01,2013-07-09 16:56:00,
2013-07-09 12:57:00,77.9,61.4,30.18,WNW,292,8.7,8.7,57,0.00,,FEW002,0.00,VWS V14.01,2013-07-09 16:57:00,
2013-07-09 12:58:00,77.9,60.4,30.18,SW,225,4.9,4.9,55,0.00,,FEW002,0.00,VWS V14.01,2013-07-09 16:58:00,
2013-07-09 12:59:00,77.9,60.4,30.18,SW,225,3.8,3.8,55,0.00,,FEW002,0.00,VWS V14.01,2013-07-09 16:59:00,
2013-07-09 13:00:00,78.0,59.5,30.18,WSW,248,5.8,5.8,53,0.00,,FEW002,0.00,VWS V14.01,2013-07-09 17:00:00,
2013-07-09 13:01:00,78.0,60.6,30.18,WSW,248,5.4,5.4,55,0.00,,FEW002,0.00,VWS V14.01,2013-07-09 17:01:00,
2013-07-09 13:02:00,78.2,61.8,30.18,West,270,2.9,2.9,57,0.00,,FEW002,0.00,VWS V14.01,2013-07-09 17:02:00,
2013-07-09 13:03:00,78.2,61.8,30.18,WSW,248,4.5,4.5,57,0.00,,FEW002,0.00,VWS V14.01,2013-07-09 17:03:00,
2013-07-09 13:04:00,78.2,62.2,30.18,WSW,248,6.5,6.5,58,0.00,,FEW002,0.00,VWS V14.01,2013-07-09 17:04:00,
2013-07-09 13:05:00,77.9,60.9,30.18,SSW,202,7.4,7.4,56,0.00,,FEW002,0.00,VWS V14.01,2013-07-09 17:05:00,
2013-07-09 13:06:00,78.0,62.1,30.18,SSW,202,2.9,2.9,58,0.00,,FEW002,0.00,VWS V14.01,2013-07-09 17:06:00,
2013-07-09 13:07:00,78.0,62.1,30.18,SW,225,4.9,4.9,58,0.00,,FEW002,0.00,VWS V14.01,2013-07-09 17:07:00,
2013-07-09 13:08:00,78.0,62.1,30.18,WSW,248,4.3,4.3,58,0.00,,FEW002,0.00,VWS V14.01,2013-07-09 17:08:00,
2013-07-09 13:09:00,78.2,63.2,30.15,WSW,248,3.1,3.1,60,0.00,,FEW002,0.00,VWS V14.01,2013-07-09 17:09:00,
2013-07-09 13:10:00,78.2,62.2,30.15,West,270,2.7,2.7,58,0.00,,FEW002,0.00,VWS V14.01,2013-07-09 17:10:00,
2013-07-09 13:11:00,78.0,62.1,30.15,SW,225,2.7,2.7,58,0.00,,FEW002,0.00,VWS V14.01,2013-07-09 17:11:00,
2013-07-09 13:12:00,78.2,62.2,30.15,SW,225,6.0,6.0,58,0.00,,FEW002,0.00,VWS V14.01,2013-07-09 17:12:00,
2013-07-09 13:13:00,78.2,62.2,30.15,WSW,248,5.4,5.4,58,0.00,,FEW002,0.00,VWS V14.01,2013-07-09 17:13:00,
2013-07-09 13:14:00,78.4,61.9,30.15,SSW,202,5.8,5.8,57,0.00,,FEW002,0.00,VWS V14.01,2013-07-09 17:14:00,
2013-07-09 13:15:00,78.4,62.4,30.15,SSW,202,7.6,7.6,58,0.00,,FEW002,0.00,VWS V14.01,2013-07-09 17:15:00,
2013-07-09 13:16:00,78.4,62.4,30.15,West,270,3.8,3.8,58,0.00,,FEW002,0.00,VWS V14.01,2013-07-09 17:16:00,
2013-07-09 13:17:00,78.8,63.2,30.15,WSW,248,4.3,4.3,59,0.00,,FEW002,0.00,VWS V14.01,2013-07-09 17:17:00,
2013-07-09 13:18:00,78.8,62.8,30.15,SSW,202,7.4,7.4,58,0.00,,FEW002,0.00,VWS V14.01,2013-07-09 17:18:00,
2013-07-09 13:19:00,78.6,61.6,30.15,SSW,202,5.4,5.4,56,0.00,,FEW002,0.00,VWS V14.01,2013-07-09 17:19:00,
2013-07-09 13:20:00,78.6,63.1,30.15,SW,225,5.8,5.8,59,0.00,,FEW002,0.00,VWS V14.01,2013-07-09 17:20:00,
2013-07-09 13:21:00,78.4,60.9,30.15,SW,225,5.6,5.6,55,0.00,,FEW002,0.00,VWS V14.01,2013-07-09 17:21:00,
2013-07-09 13:22:00,78.4,60.9,30.15,South,180,3.6,3.6,55,0.00,,FEW002,0.00,VWS V14.01,2013-07-09 17:22:00,
2013-07-09 13:23:00,78.4,61.4,30.15,WSW,248,5.4,5.4,56,0.00,,FEW002,0.00,VWS V14.01,2013-07-09 17:23:00,
2013-07-09 13:24:00,78.4,61.4,30.15,SW,225,4.9,4.9,56,0.00,,FEW002,0.00,VWS V14.01,2013-07-09 17:24:00,
2013-07-09 13:25:00,78.6,62.1,30.15,South,180,2.9,2.9,57,0.00,,FEW002,0.00,VWS V14.01,2013-07-09 17:25:00,
2013-07-09 13:26:00,78.8,62.3,30.15,West,270,2.7,2.7,57,0.00,,FEW002,0.00,VWS V14.01,2013-07-09 17:26:00,
2013-07-09 13:27:00,78.9,63.9,30.15,SSW,202,2.9,2.9,60,0.00,,FEW002,0.00,VWS V14.01,2013-07-09 17:27:00,
2013-07-09 13:28:00,78.8,62.3,30.15,South,180,4.7,4.7,57,0.00,,FEW002,0.00,VWS V14.01,2013-07-09 17:28:00,
2013-07-09 13:29:00,78.9,62.9,30.15,SSW,202,6.5,6.5,58,0.00,,FEW002,0.00,VWS V14.01,2013-07-09 17:29:00,
2013-07-09 13:30:00,78.8,62.8,30.15,South,180,5.4,5.4,58,0.00,,FEW002,0.00,VWS V14.01,2013-07-09 17:30:00,
2013-07-09 13:31:00,78.9,63.4,30.15,SW,225,5.4,5.4,59,0.00,,FEW002,0.00,VWS V14.01,2013-07-09 17:31:00,
2013-07-09 13:32:00,78.9,62.4,30.15,SSW,202,4.9,4.9,57,0.00,,FEW002,0.00,VWS V14.01,2013-07-09 17:32:00,
2013-07-09 13:33:00,78.8,61.8,30.15,SSW,202,6.3,6.3,56,0.00,,FEW002,0.00,VWS V14.01,2013-07-09 17:33:00,
2013-07-09 13:34:00,78.8,62.3,30.15,SSW,202,4.3,4.3,57,0.00,,FEW002,0.00,VWS V14.01,2013-07-09 17:34:00,
2013-07-09 13:35:00,78.8,62.3,30.15,SSW,202,6.5,6.5,57,0.00,,FEW002,0.00,VWS V14.01,2013-07-09 17:35:00,
2013-07-09 13:36:00,78.8,62.3,30.15,SSW,202,3.4,3.4,57,0.00,,FEW002,0.00,VWS V14.01,2013-07-09 17:36:00,
2013-07-09 13:37:00,78.8,62.8,30.15,WNW,292,3.8,3.8,58,0.00,,FEW002,0.00,VWS V14.01,2013-07-09 17:37:00,
2013-07-09 13:38:00,78.9,62.4,30.15,WSW,248,5.4,5.4,57,0.00,,FEW002,0.00,VWS V14.01,2013-07-09 17:38:00,
2013-07-09 13:39:00,78.8,59.7,30.15,WSW,248,4.0,4.0,52,0.00,,FEW002,0.00,VWS V14.01,2013-07-09 17:39:00,
2013-07-09 13:40:00,78.8,59.7,30.15,NW,315,2.9,2.9,52,0.00,,FEW002,0.00,VWS V14.01,2013-07-09 17:40:00,
2013-07-09 13:41:00,78.9,59.3,30.15,SSW,202,2.5,2.5,51,0.00,,FEW002,0.00,VWS V14.01,2013-07-09 17:41:00,
2013-07-09 13:42:00,78.9,59.3,30.15,SW,225,3.4,3.4,51,0.00,,FEW002,0.00,VWS V14.01,2013-07-09 17:42:00,
2013-07-09 13:43:00,79.1,62.6,30.15,South,180,5.6,5.6,57,0.00,,FEW002,0.00,VWS V14.01,2013-07-09 17:43:00,
2013-07-09 13:44:00,78.9,61.9,30.15,SSW,202,5.4,5.4,56,0.00,,FEW002,0.00,VWS V14.01,2013-07-09 17:44:00,
2013-07-09 13:45:00,78.8,61.8,30.15,SSW,202,4.7,4.7,56,0.00,,FEW002,0.00,VWS V14.01,2013-07-09 17:45:00,
2013-07-09 13:46:00,78.9,62.9,30.15,West,270,2.5,2.5,58,0.00,,FEW002,0.00,VWS V14.01,2013-07-09 17:46:00,
2013-07-09 13:47:00,78.8,61.8,30.15,WSW,248,4.5,4.5,56,0.00,,FEW002,0.00,VWS V14.01,2013-07-09 17:47:00,
2013-07-09 13:49:00,78.9,62.4,30.15,WSW,248,7.8,7.8,57,0.00,,FEW002,0.00,VWS V14.01,2013-07-09 17:49:00,
2013-07-09 13:50:00,78.9,62.4,30.15,SW,225,6.0,6.0,57,0.00,,FEW002,0.00,VWS V14.01,2013-07-09 17:50:00,
2013-07-09 13:51:00,78.6,59.5,30.15,WSW,248,4.0,4.0,52,0.00,,FEW002,0.00,VWS V14.01,2013-07-09 17:51:00,
2013-07-09 13:52:00,78.6,61.1,30.15,SSW,202,2.7,2.7,55,0.00,,FEW002,0.00,VWS V14.01,2013-07-09 17:52:00,
2013-07-09 13:53:00,78.6,60.6,30.15,SSW,202,5.8,5.8,54,0.00,,FEW002,0.00,VWS V14.01,2013-07-09 17:53:00,
2013-07-09 13:54:00,78.6,60.6,30.15,South,180,3.1,3.1,54,0.00,,FEW002,0.00,VWS V14.01,2013-07-09 17:54:00,
2013-07-09 13:55:00,78.9,62.4,30.15,South,180,3.6,3.6,57,0.00,,FEW002,0.00,VWS V14.01,2013-07-09 17:55:00,
2013-07-09 13:56:00,78.9,62.4,30.15,South,180,2.9,2.9,57,0.00,,FEW002,0.00,VWS V14.01,2013-07-09 17:56:00,
2013-07-09 13:57:00,78.9,62.4,30.15,SSW,202,5.4,5.4,57,0.00,,FEW002,0.00,VWS V14.01,2013-07-09 17:57:00,
2013-07-09 13:58:00,78.9,61.9,30.15,South,180,4.9,4.9,56,0.00,,FEW002,0.00,VWS V14.01,2013-07-09 17:58:00,
2013-07-09 13:59:00,78.9,61.9,30.15,SSW,202,5.6,5.6,56,0.00,,FEW002,0.00,VWS V14.01,2013-07-09 17:59:00,
2013-07-09 14:00:00,78.9,61.9,30.15,SSW,202,3.6,3.6,56,0.00,,FEW002,0.00,VWS V14.01,2013-07-09 18:00:00,
2013-07-09 14:01:00,78.9,61.9,30.15,SSW,202,3.8,3.8,56,0.00,,FEW002,0.00,VWS V14.01,2013-07-09 18:01:00,
2013-07-09 14:02:00,78.8,61.8,30.15,SSE,158,2.7,2.7,56,0.00,,FEW002,0.00,VWS V14.01,2013-07-09 18:02:00,
2013-07-09 14:03:00,78.9,62.4,30.15,SSW,202,2.0,2.0,57,0.00,,FEW002,0.00,VWS V14.01,2013-07-09 18:03:00,
2013-07-09 14:04:00,78.9,62.4,30.15,SSW,202,4.3,4.3,57,0.00,,FEW002,0.00,VWS V14.01,2013-07-09 18:04:00,
2013-07-09 14:05:00,79.3,63.7,30.15,WSW,248,6.3,6.3,59,0.00,,FEW002,0.00,VWS V14.01,2013-07-09 18:05:00,
2013-07-09 14:06:00,79.5,63.9,30.15,WSW,248,7.2,7.2,59,0.00,,FEW002,0.00,VWS V14.01,2013-07-09 18:06:00,
2013-07-09 14:07:00,79.3,60.2,30.15,WSW,248,3.1,3.1,52,0.00,,FEW002,0.00,VWS V14.01,2013-07-09 18:07:00,
2013-07-09 14:08:00,79.1,61.6,30.15,SSW,202,6.0,6.0,55,0.00,,FEW002,0.00,VWS V14.01,2013-07-09 18:08:00,
2013-07-09 14:09:00,79.1,61.6,30.15,SSE,158,4.3,4.3,55,0.00,,FEW002,0.00,VWS V14.01,2013-07-09 18:09:00,
2013-07-09 14:10:00,79.3,62.3,30.15,SSW,202,4.5,4.5,56,0.00,,FEW002,0.00,VWS V14.01,2013-07-09 18:10:00,
2013-07-09 14:11:00,79.1,60.5,30.15,SSW,202,2.7,2.7,53,0.00,,FEW002,0.00,VWS V14.01,2013-07-09 18:11:00,
2013-07-09 14:12:00,79.1,61.1,30.15,SSW,202,5.6,5.6,54,0.00,,FEW002,0.00,VWS V14.01,2013-07-09 18:12:00,
2013-07-09 14:13:00,79.1,61.6,30.15,South,180,3.4,3.4,55,0.00,,FEW002,0.00,VWS V14.01,2013-07-09 18:13:00,
2013-07-09 14:14:00,79.3,62.3,30.15,WSW,248,3.8,3.8,56,0.00,,FEW002,0.00,VWS V14.01,2013-07-09 18:14:00,
2013-07-09 14:15:00,79.3,62.3,30.15,SSW,202,3.4,3.4,56,0.00,,FEW002,0.00,VWS V14.01,2013-07-09 18:15:00,
2013-07-09 14:16:00,79.3,59.1,30.15,SSW,202,7.6,7.6,50,0.00,,FEW002,0.00,VWS V14.01,2013-07-09 18:16:00,
2013-07-09 14:17:00,79.3,61.2,30.15,SSW,202,5.4,5.4,54,0.00,,FEW002,0.00,VWS V14.01,2013-07-09 18:17:00,
2013-07-09 14:18:00,79.3,61.2,30.15,SSW,202,4.0,4.0,54,0.00,,FEW002,0.00,VWS V14.01,2013-07-09 18:18:00,
2013-07-09 14:19:00,79.5,61.4,30.15,SW,225,7.4,7.4,54,0.00,,FEW002,0.00,VWS V14.01,2013-07-09 18:19:00,
2013-07-09 14:20:00,79.5,60.9,30.15,South,180,4.9,4.9,53,0.00,,FEW002,0.00,VWS V14.01,2013-07-09 18:20:00,
2013-07-09 14:21:00,79.5,60.9,30.15,SSW,202,4.3,4.3,53,0.00,,FEW002,0.00,VWS V14.01,2013-07-09 18:21:00,
2013-07-09 14:22:00,79.5,61.4,30.15,SSE,158,3.8,3.8,54,0.00,,FEW002,0.00,VWS V14.01,2013-07-09 18:22:00,
2013-07-09 14:23:00,79.8,62.8,30.15,SSW,202,4.0,4.0,56,0.00,,FEW002,0.00,VWS V14.01,2013-07-09 18:23:00,
2013-07-09 14:24:00,79.8,62.8,30.15,SSW,202,2.9,2.9,56,0.00,,FEW002,0.00,VWS V14.01,2013-07-09 18:24:00,
2013-07-09 14:25:00,79.8,62.8,30.15,SSW,202,3.8,3.8,56,0.00,,FEW002,0.00,VWS V14.01,2013-07-09 18:25:00,
2013-07-09 14:26:00,80.0,59.7,30.15,SSW,202,4.5,4.5,50,0.00,,FEW002,0.00,VWS V14.01,2013-07-09 18:26:00,
2013-07-09 14:27:00,79.8,60.7,30.15,SW,225,8.7,8.7,52,0.00,,FEW002,0.00,VWS V14.01,2013-07-09 18:27:00,
2013-07-09 14:28:00,79.7,60.0,30.15,South,180,6.5,6.5,51,0.00,,FEW002,0.00,VWS V14.01,2013-07-09 18:28:00,
2013-07-09 14:29:00,79.1,59.5,30.15,SSE,158,5.4,5.4,51,0.00,,FEW002,0.00,VWS V14.01,2013-07-09 18:29:00,
2013-07-09 14:30:00,79.1,59.5,30.15,SSW,202,2.9,2.9,51,0.00,,FEW002,0.00,VWS V14.01,2013-07-09 18:30:00,
2013-07-09 14:31:00,79.1,59.5,30.15,SW,225,3.1,3.1,51,0.00,,FEW002,0.00,VWS V14.01,2013-07-09 18:31:00,
2013-07-09 14:32:00,79.5,62.4,30.15,SSW,202,2.9,2.9,56,0.00,,FEW002,0.00,VWS V14.01,2013-07-09 18:32:00,
2013-07-09 14:33:00,79.5,62.4,30.15,West,270,4.9,4.9,56,0.00,,FEW002,0.00,VWS V14.01,2013-07-09 18:33:00,
2013-07-09 14:34:00,79.5,60.3,30.15,WSW,248,4.0,4.0,52,0.00,,FEW002,0.00,VWS V14.01,2013-07-09 18:34:00,
2013-07-09 14:35:00,79.7,61.0,30.15,South,180,4.9,4.9,53,0.00,,FEW002,0.00,VWS V14.01,2013-07-09 18:35:00,
2013-07-09 14:36:00,79.7,61.6,30.15,SSW,202,2.7,2.7,54,0.00,,FEW002,0.00,VWS V14.01,2013-07-09 18:36:00,
2013-07-09 14:37:00,80.0,62.9,30.15,SW,225,3.1,3.1,56,0.00,,FEW002,0.00,VWS V14.01,2013-07-09 18:37:00,
2013-07-09 14:38:00,80.0,61.4,30.15,SSW,202,6.0,6.0,53,0.00,,FEW002,0.00,VWS V14.01,2013-07-09 18:38:00,
2013-07-09 14:39:00,79.8,61.7,30.12,SSW,202,5.6,5.6,54,0.00,,FEW002,0.00,VWS V14.01,2013-07-09 18:39:00,
2013-07-09 14:40:00,79.8,62.2,30.12,WSW,248,7.6,7.6,55,0.00,,FEW002,0.00,VWS V14.01,2013-07-09 18:40:00,
2013-07-09 14:41:00,79.8,61.7,30.12,WSW,248,6.5,6.5,54,0.00,,FEW002,0.00,VWS V14.01,2013-07-09 18:41:00,
2013-07-09 14:42:00,79.8,61.7,30.12,SSW,202,2.9,2.9,54,0.00,,FEW002,0.00,VWS V14.01,2013-07-09 18:42:00,
2013-07-09 14:43:00,79.8,61.7,30.12,WSW,248,3.6,3.6,54,0.00,,FEW002,0.00,VWS V14.01,2013-07-09 18:43:00,
2013-07-09 14:44:00,80.0,61.9,30.12,WSW,248,3.8,3.8,54,0.00,,FEW002,0.00,VWS V14.01,2013-07-09 18:44:00,
2013-07-09 14:45:00,80.2,62.6,30.12,SSW,202,2.5,2.5,55,0.00,,FEW002,0.00,VWS V14.01,2013-07-09 18:45:00,
2013-07-09 14:46:00,80.2,63.1,30.12,WSW,248,5.4,5.4,56,0.00,,FEW002,0.00,VWS V14.01,2013-07-09 18:46:00,
2013-07-09 14:47:00,80.0,61.4,30.12,WSW,248,6.7,6.7,53,0.00,,FEW002,0.00,VWS V14.01,2013-07-09 18:47:00,
2013-07-09 14:48:00,79.8,61.2,30.12,WSW,248,4.9,4.9,53,0.00,,FEW002,0.00,VWS V14.01,2013-07-09 18:48:00,
2013-07-09 14:49:00,79.8,60.7,30.12,WSW,248,6.0,6.0,52,0.00,,FEW002,0.00,VWS V14.01,2013-07-09 18:49:00,
2013-07-09 14:50:00,79.8,60.7,30.12,SW,225,5.8,5.8,52,0.00,,FEW002,0.00,VWS V14.01,2013-07-09 18:50:00,
2013-07-09 14:51:00,80.0,62.9,30.12,WSW,248,3.1,3.1,56,0.00,,FEW002,0.00,VWS V14.01,2013-07-09 18:51:00,
2013-07-09 14:52:00,80.0,62.4,30.12,WSW,248,4.3,4.3,55,0.00,,FEW002,0.00,VWS V14.01,2013-07-09 18:52:00,
2013-07-09 14:53:00,80.0,63.4,30.12,SSW,202,2.0,2.0,57,0.00,,FEW002,0.00,VWS V14.01,2013-07-09 18:53:00,
2013-07-09 14:54:00,80.2,61.5,30.12,West,270,5.4,5.4,53,0.00,,FEW002,0.00,VWS V14.01,2013-07-09 18:54:00,
2013-07-09 14:55:00,80.0,60.3,30.12,SW,225,3.1,3.1,51,0.00,,FEW002,0.00,VWS V14.01,2013-07-09 18:55:00,
2013-07-09 14:56:00,80.0,60.3,30.12,SSW,202,2.0,2.0,51,0.00,,FEW002,0.00,VWS V14.01,2013-07-09 18:56:00,
2013-07-09 14:57:00,80.0,60.8,30.12,South,180,4.0,4.0,52,0.00,,FEW002,0.00,VWS V14.01,2013-07-09 18:57:00,
2013-07-09 14:58:00,79.8,60.7,30.12,SSW,202,4.7,4.7,52,0.00,,FEW002,0.00,VWS V14.01,2013-07-09 18:58:00,
2013-07-09 14:59:00,79.8,61.7,30.12,SW,225,4.0,4.0,54,0.00,,FEW002,0.00,VWS V14.01,2013-07-09 18:59:00,
2013-07-09 15:00:00,79.8,62.2,30.12,SSW,202,3.6,3.6,55,0.00,,FEW002,0.00,VWS V14.01,2013-07-09 19:00:00,
2013-07-09 15:01:00,80.0,61.9,30.12,SSE,158,3.8,3.8,54,0.00,,FEW002,0.00,VWS V14.01,2013-07-09 19:01:00,
2013-07-09 15:02:00,80.0,61.9,30.12,SSW,202,2.9,2.9,54,0.00,,FEW002,0.00,VWS V14.01,2013-07-09 19:02:00,
2013-07-09 15:03:00,80.2,60.5,30.12,South,180,3.1,3.1,51,0.00,,FEW002,0.00,VWS V14.01,2013-07-09 19:03:00,
2013-07-09 15:04:00,80.2,60.5,30.12,South,180,5.4,5.4,51,0.00,,FEW002,0.00,VWS V14.01,2013-07-09 19:04:00,
2013-07-09 15:05:00,80.0,60.3,30.12,SSW,202,5.8,5.8,51,0.00,,FEW002,0.00,VWS V14.01,2013-07-09 19:05:00,
2013-07-09 15:06:00,80.0,60.3,30.12,SSW,202,3.6,3.6,51,0.00,,FEW002,0.00,VWS V14.01,2013-07-09 19:06:00,
2013-07-09 15:07:00,79.7,60.0,30.12,South,180,5.6,5.6,51,0.00,,FEW002,0.00,VWS V14.01,2013-07-09 19:07:00,
2013-07-09 15:08:00,79.5,60.9,30.12,West,270,3.6,3.6,53,0.00,,FEW002,0.00,VWS V14.01,2013-07-09 19:08:00,
2013-07-09 15:09:00,79.5,60.9,30.12,SW,225,4.3,4.3,53,0.00,,FEW002,0.00,VWS V14.01,2013-07-09 19:09:00,
2013-07-09 15:10:00,79.5,61.4,30.12,South,180,4.7,4.7,54,0.00,,FEW002,0.00,VWS V14.01,2013-07-09 19:10:00,
2013-07-09 15:11:00,79.5,61.4,30.12,SSW,202,3.4,3.4,54,0.00,,FEW002,0.00,VWS V14.01,2013-07-09 19:11:00,
2013-07-09 15:12:00,79.3,62.8,30.12,SW,225,5.8,5.8,57,0.00,,FEW002,0.00,VWS V14.01,2013-07-09 19:12:00,
2013-07-09 15:13:00,78.9,62.4,30.12,SSW,202,9.8,9.8,57,0.00,,FEW002,0.00,VWS V14.01,2013-07-09 19:13:00,
2013-07-09 15:14:00,78.9,62.4,30.12,SW,225,9.6,9.6,57,0.00,,FEW002,0.00,VWS V14.01,2013-07-09 19:14:00,
2013-07-09 15:15:00,78.4,61.9,30.12,WSW,248,9.2,9.2,57,0.00,,FEW002,0.00,VWS V14.01,2013-07-09 19:15:00,
2013-07-09 15:16:00,78.4,61.9,30.12,WSW,248,10.5,10.5,57,0.00,,FEW002,0.00,VWS V14.01,2013-07-09 19:16:00,
2013-07-09 15:17:00,77.3,61.4,30.12,WSW,248,8.5,8.5,58,0.00,,FEW002,0.00,VWS V14.01,2013-07-09 19:17:00,
2013-07-09 15:18:00,77.3,61.4,30.12,SSW,202,5.8,5.8,58,0.00,,FEW002,0.00,VWS V14.01,2013-07-09 19:18:00,
2013-07-09 15:19:00,77.7,62.2,30.12,SSW,202,6.3,6.3,59,0.00,,FEW002,0.00,VWS V14.01,2013-07-09 19:19:00,
2013-07-09 15:20:00,77.7,61.7,30.12,SSW,202,6.0,6.0,58,0.00,,FEW002,0.00,VWS V14.01,2013-07-09 19:20:00,
2013-07-09 15:21:00,77.7,61.7,30.12,SW,225,6.3,6.3,58,0.00,,FEW002,0.00,VWS V14.01,2013-07-09 19:21:00,
2013-07-09 15:22:00,78.0,61.6,30.12,SSW,202,5.6,5.6,57,0.00,,FEW002,0.00,VWS V14.01,2013-07-09 19:22:00,
2013-07-09 15:23:00,78.0,61.6,30.12,SSW,202,3.4,3.4,57,0.00,,FEW002,0.00,VWS V14.01,2013-07-09 19:23:00,
2013-07-09 15:24:00,78.0,61.6,30.12,SSW,202,4.3,4.3,57,0.00,,FEW002,0.00,VWS V14.01,2013-07-09 19:24:00,
2013-07-09 15:25:00,78.0,61.6,30.12,SSW,202,9.6,9.6,57,0.00,,FEW002,0.00,VWS V14.01,2013-07-09 19:25:00,
2013-07-09 15:26:00,77.9,61.4,30.12,South,180,7.6,7.6,57,0.00,,FEW002,0.00,VWS V14.01,2013-07-09 19:26:00,
2013-07-09 15:27:00,77.9,61.4,30.12,SSW,202,6.0,6.0,57,0.00,,FEW002,0.00,VWS V14.01,2013-07-09 19:27:00,
2013-07-09 15:28:00,77.9,61.4,30.12,SSW,202,7.6,7.6,57,0.00,,FEW002,0.00,VWS V14.01,2013-07-09 19:28:00,
2013-07-09 15:29:00,77.7,60.8,30.12,SSW,202,2.7,2.7,56,0.00,,FEW002,0.00,VWS V14.01,2013-07-09 19:29:00,
2013-07-09 15:30:00,78.0,62.1,30.12,South,180,6.5,6.5,58,0.00,,FEW002,0.00,VWS V14.01,2013-07-09 19:30:00,
2013-07-09 15:31:00,78.0,62.1,30.12,SSW,202,6.3,6.3,58,0.00,,FEW002,0.00,VWS V14.01,2013-07-09 19:31:00,
2013-07-09 15:32:00,78.2,62.2,30.12,SSW,202,5.4,5.4,58,0.00,,FEW002,0.00,VWS V14.01,2013-07-09 19:32:00,
2013-07-09 15:33:00,78.0,60.6,30.12,SSW,202,5.4,5.4,55,0.00,,FEW002,0.00,VWS V14.01,2013-07-09 19:33:00,
2013-07-09 15:34:00,78.2,62.2,30.12,WSW,248,5.4,5.4,58,0.00,,FEW002,0.00,VWS V14.01,2013-07-09 19:34:00,
2013-07-09 15:35:00,78.2,61.2,30.12,West,270,7.4,7.4,56,0.00,,FEW002,0.00,VWS V14.01,2013-07-09 19:35:00,
2013-07-09 15:36:00,78.2,61.2,30.12,SSW,202,3.1,3.1,56,0.00,,FEW002,0.00,VWS V14.01,2013-07-09 19:36:00,
2013-07-09 15:37:00,78.4,61.4,30.12,WSW,248,3.4,3.4,56,0.00,,FEW002,0.00,VWS V14.01,2013-07-09 19:37:00,
2013-07-09 15:38:00,78.4,60.9,30.12,SW,225,3.8,3.8,55,0.00,,FEW002,0.00,VWS V14.01,2013-07-09 19:38:00,
2013-07-09 15:39:00,78.6,62.1,30.12,WSW,248,3.4,3.4,57,0.00,,FEW002,0.00,VWS V14.01,2013-07-09 19:39:00,
2013-07-09 15:40:00,78.9,63.4,30.12,WSW,248,5.6,5.6,59,0.00,,FEW002,0.00,VWS V14.01,2013-07-09 19:40:00,
2013-07-09 15:41:00,78.8,61.2,30.12,SW,225,6.3,6.3,55,0.00,,FEW002,0.00,VWS V14.01,2013-07-09 19:41:00,
2013-07-09 15:42:00,78.9,62.4,30.12,WSW,248,6.3,6.3,57,0.00,,FEW002,0.00,VWS V14.01,2013-07-09 19:42:00,
2013-07-09 15:43:00,79.3,62.8,30.12,WSW,248,4.9,4.9,57,0.00,,FEW002,0.00,VWS V14.01,2013-07-09 19:43:00,
2013-07-09 15:44:00,79.3,62.8,30.12,West,270,5.8,5.8,57,0.00,,FEW002,0.00,VWS V14.01,2013-07-09 19:44:00,
2013-07-09 15:45:00,79.3,62.8,30.12,WSW,248,5.4,5.4,57,0.00,,FEW002,0.00,VWS V14.01,2013-07-09 19:45:00,
2013-07-09 15:46:00,79.3,62.8,30.12,SW,225,4.3,4.3,57,0.00,,FEW002,0.00,VWS V14.01,2013-07-09 19:46:00,
2013-07-09 15:47:00,79.8,62.8,30.12,SSW,202,7.8,7.8,56,0.00,,FEW002,0.00,VWS V14.01,2013-07-09 19:47:00,
2013-07-09 15:48:00,79.8,62.8,30.12,WSW,248,6.5,6.5,56,0.00,,FEW002,0.00,VWS V14.01,2013-07-09 19:48:00,
2013-07-09 15:49:00,79.8,61.2,30.12,WSW,248,6.3,6.3,53,0.00,,FEW002,0.00,VWS V14.01,2013-07-09 19:49:00,
2013-07-09 15:50:00,79.7,60.0,30.12,WSW,248,5.6,5.6,51,0.00,,FEW002,0.00,VWS V14.01,2013-07-09 19:50:00,
2013-07-09 15:51:00,79.7,59.4,30.12,WSW,248,3.8,3.8,50,0.00,,FEW002,0.00,VWS V14.01,2013-07-09 19:51:00,
2013-07-09 15:52:00,79.7,60.5,30.12,SSW,202,6.3,6.3,52,0.00,,FEW002,0.00,VWS V14.01,2013-07-09 19:52:00,
2013-07-09 15:53:00,79.8,62.2,30.12,WSW,248,3.8,3.8,55,0.00,,FEW002,0.00,VWS V14.01,2013-07-09 19:53:00,
2013-07-09 15:54:00,79.8,62.2,30.12,WSW,248,4.9,4.9,55,0.00,,FEW002,0.00,VWS V14.01,2013-07-09 19:54:00,
2013-07-09 15:55:00,80.0,60.8,30.12,SW,225,6.5,6.5,52,0.00,,FEW002,0.00,VWS V14.01,2013-07-09 19:55:00,
2013-07-09 15:56:00,80.0,61.4,30.12,SSW,202,5.8,5.8,53,0.00,,FEW002,0.00,VWS V14.01,2013-07-09 19:56:00,
2013-07-09 15:57:00,80.0,61.4,30.12,WSW,248,5.6,5.6,53,0.00,,FEW002,0.00,VWS V14.01,2013-07-09 19:57:00,
2013-07-09 15:58:00,80.0,62.9,30.12,West,270,8.5,8.5,56,0.00,,FEW002,0.00,VWS V14.01,2013-07-09 19:58:00,
2013-07-09 15:59:00,80.0,62.9,30.12,SSW,202,8.1,8.1,56,0.00,,FEW002,0.00,VWS V14.01,2013-07-09 19:59:00,
2013-07-09 16:00:00,79.5,61.4,30.12,SSW,202,7.2,7.2,54,0.00,,FEW002,0.00,VWS V14.01,2013-07-09 20:00:00,
2013-07-09 16:01:00,79.7,62.6,30.12,WSW,248,10.7,10.7,56,0.00,,FEW002,0.00,VWS V14.01,2013-07-09 20:01:00,
2013-07-09 16:02:00,79.5,62.9,30.12,SSW,202,8.1,8.1,57,0.00,,FEW002,0.00,VWS V14.01,2013-07-09 20:02:00,
2013-07-09 16:03:00,79.5,62.9,30.12,SW,225,5.6,5.6,57,0.00,,FEW002,0.00,VWS V14.01,2013-07-09 20:03:00,
2013-07-09 16:04:00,79.3,61.8,30.12,SSW,202,7.4,7.4,55,0.00,,FEW002,0.00,VWS V14.01,2013-07-09 20:04:00,
2013-07-09 16:05:00,79.3,61.8,30.12,SSW,202,6.0,6.0,55,0.00,,FEW002,0.00,VWS V14.01,2013-07-09 20:05:00,
2013-07-09 16:06:00,79.5,62.9,30.12,WSW,248,8.7,8.7,57,0.00,,FEW002,0.00,VWS V14.01,2013-07-09 20:06:00,
2013-07-09 16:07:00,79.8,63.3,30.12,SW,225,6.3,6.3,57,0.00,,FEW002,0.00,VWS V14.01,2013-07-09 20:07:00,
2013-07-09 16:08:00,79.8,63.3,30.12,South,180,6.7,6.7,57,0.00,,FEW002,0.00,VWS V14.01,2013-07-09 20:08:00,
2013-07-09 16:09:00,79.8,62.8,30.12,South,180,6.0,6.0,56,0.00,,FEW002,0.00,VWS V14.01,2013-07-09 20:09:00,
2013-07-09 16:10:00,79.8,62.2,30.12,WSW,248,8.5,8.5,55,0.00,,FEW002,0.00,VWS V14.01,2013-07-09 20:10:00,
2013-07-09 16:11:00,79.8,62.2,30.12,SW,225,6.3,6.3,55,0.00,,FEW002,0.00,VWS V14.01,2013-07-09 20:11:00,
2013-07-09 16:12:00,79.8,62.2,30.12,WSW,248,8.7,8.7,55,0.00,,FEW002,0.00,VWS V14.01,2013-07-09 20:12:00,
2013-07-09 16:13:00,79.3,59.1,30.12,WSW,248,11.0,11.0,50,0.00,,FEW002,0.00,VWS V14.01,2013-07-09 20:13:00,
2013-07-09 16:14:00,79.3,60.2,30.12,SSW,202,6.5,6.5,52,0.00,,FEW002,0.00,VWS V14.01,2013-07-09 20:14:00,
2013-07-09 16:15:00,79.1,60.0,30.12,WSW,248,5.8,5.8,52,0.00,,FEW002,0.00,VWS V14.01,2013-07-09 20:15:00,
2013-07-09 16:16:00,79.1,61.6,30.12,SSW,202,10.3,10.3,55,0.00,,FEW002,0.00,VWS V14.01,2013-07-09 20:16:00,
2013-07-09 16:17:00,78.6,60.6,30.12,SW,225,10.3,10.3,54,0.00,,FEW002,0.00,VWS V14.01,2013-07-09 20:17:00,
2013-07-09 16:18:00,78.4,61.4,30.12,SSW,202,10.5,10.5,56,0.00,,FEW002,0.00,VWS V14.01,2013-07-09 20:18:00,
2013-07-09 16:19:00,78.4,61.4,30.12,SW,225,10.7,10.7,56,0.00,,FEW002,0.00,VWS V14.01,2013-07-09 20:19:00,
2013-07-09 16:20:00,77.9,61.9,30.12,South,180,5.6,5.6,58,0.00,,FEW002,0.00,VWS V14.01,2013-07-09 20:20:00,
2013-07-09 16:21:00,77.9,61.9,30.12,SW,225,8.5,8.5,58,0.00,,FEW002,0.00,VWS V14.01,2013-07-09 20:21:00,
2013-07-09 16:22:00,77.3,61.9,30.12,SW,225,10.3,10.3,59,0.00,,FEW002,0.00,VWS V14.01,2013-07-09 20:22:00,
2013-07-09 16:23:00,77.1,62.2,30.12,SW,225,8.5,8.5,60,0.00,,FEW002,0.00,VWS V14.01,2013-07-09 20:23:00,
2013-07-09 16:24:00,77.1,62.2,30.09,SSW,202,6.3,6.3,60,0.00,,FEW002,0.00,VWS V14.01,2013-07-09 20:24:00,
2013-07-09 16:25:00,77.0,60.6,30.09,SW,225,7.8,7.8,57,0.00,,FEW002,0.00,VWS V14.01,2013-07-09 20:25:00,
2013-07-09 16:26:00,77.3,60.9,30.09,SSW,202,7.8,7.8,57,0.00,,FEW002,0.00,VWS V14.01,2013-07-09 20:26:00,
2013-07-09 16:27:00,77.7,62.2,30.09,SW,225,7.2,7.2,59,0.00,,FEW002,0.00,VWS V14.01,2013-07-09 20:27:00,
2013-07-09 16:28:00,77.9,62.4,30.09,WSW,248,4.7,4.7,59,0.00,,FEW002,0.00,VWS V14.01,2013-07-09 20:28:00,
2013-07-09 16:29:00,77.9,62.4,30.09,WSW,248,10.1,10.1,59,0.00,,FEW002,0.00,VWS V14.01,2013-07-09 20:29:00,
2013-07-09 16:30:00,77.9,60.4,30.09,WSW,248,6.5,6.5,55,0.00,,FEW002,0.00,VWS V14.01,2013-07-09 20:30:00,
2013-07-09 16:31:00,78.0,61.6,30.09,SW,225,10.3,10.3,57,0.00,,FEW002,0.00,VWS V14.01,2013-07-09 20:31:00,
2013-07-09 16:32:00,77.7,60.8,30.09,WNW,292,8.5,8.5,56,0.00,,FEW002,0.00,VWS V14.01,2013-07-09 20:32:00,
2013-07-09 16:33:00,77.5,61.6,30.09,SW,225,6.3,6.3,58,0.00,,FEW002,0.00,VWS V14.01,2013-07-09 20:33:00,
2013-07-09 16:34:00,77.1,60.2,30.09,SW,225,10.7,10.7,56,0.00,,FEW002,0.00,VWS V14.01,2013-07-09 20:34:00,
2013-07-09 16:35:00,77.0,60.6,30.09,West,270,6.7,6.7,57,0.00,,FEW002,0.00,VWS V14.01,2013-07-09 20:35:00,
2013-07-09 16:36:00,76.8,60.4,30.09,West,270,6.0,6.0,57,0.00,,FEW002,0.00,VWS V14.01,2013-07-09 20:36:00,
2013-07-09 16:37:00,77.0,60.6,30.09,SW,225,7.8,7.8,57,0.00,,FEW002,0.00,VWS V14.01,2013-07-09 20:37:00,
2013-07-09 16:38:00,77.0,60.6,30.09,SW,225,5.8,5.8,57,0.00,,FEW002,0.00,VWS V14.01,2013-07-09 20:38:00,
2013-07-09 16:39:00,77.0,61.5,30.12,WSW,248,5.8,5.8,59,0.00,,FEW002,0.00,VWS V14.01,2013-07-09 20:39:00,
2013-07-09 16:40:00,77.3,61.9,30.12,SSW,202,4.9,4.9,59,0.00,,FEW002,0.00,VWS V14.01,2013-07-09 20:40:00,
2013-07-09 16:41:00,77.3,61.4,30.12,SSW,202,6.5,6.5,58,0.00,,FEW002,0.00,VWS V14.01,2013-07-09 20:41:00,
2013-07-09 16:42:00,77.3,61.4,30.12,SSW,202,5.6,5.6,58,0.00,,FEW002,0.00,VWS V14.01,2013-07-09 20:42:00,
2013-07-09 16:43:00,77.3,60.9,30.12,SW,225,6.5,6.5,57,0.00,,FEW002,0.00,VWS V14.01,2013-07-09 20:43:00,
2013-07-09 16:44:00,77.5,62.1,30.12,WSW,248,3.6,3.6,59,0.00,,FEW002,0.00,VWS V14.01,2013-07-09 20:44:00,
2013-07-09 16:45:00,77.5,61.1,30.12,SW,225,7.6,7.6,57,0.00,,FEW002,0.00,VWS V14.01,2013-07-09 20:45:00,
2013-07-09 16:46:00,77.5,61.6,30.12,WSW,248,6.0,6.0,58,0.00,,FEW002,0.00,VWS V14.01,2013-07-09 20:46:00,
2013-07-09 16:47:00,77.7,59.7,30.12,SSW,202,4.3,4.3,54,0.00,,FEW002,0.00,VWS V14.01,2013-07-09 20:47:00,
2013-07-09 16:48:00,77.7,61.2,30.12,SW,225,7.2,7.2,57,0.00,,FEW002,0.00,VWS V14.01,2013-07-09 20:48:00,
2013-07-09 16:49:00,77.7,60.2,30.12,SW,225,6.0,6.0,55,0.00,,FEW002,0.00,VWS V14.01,2013-07-09 20:49:00,
2013-07-09 16:50:00,77.7,61.2,30.12,WNW,292,4.9,4.9,57,0.00,,FEW002,0.00,VWS V14.01,2013-07-09 20:50:00,
2013-07-09 16:51:00,77.7,57.6,30.12,WSW,248,8.7,8.7,50,0.00,,FEW002,0.00,VWS V14.01,2013-07-09 20:51:00,
2013-07-09 16:52:00,77.9,60.9,30.12,SW,225,7.4,7.4,56,0.00,,FEW002,0.00,VWS V14.01,2013-07-09 20:52:00,
2013-07-09 16:53:00,77.7,59.7,30.12,SSW,202,5.6,5.6,54,0.00,,FEW002,0.00,VWS V14.01,2013-07-09 20:53:00,
2013-07-09 16:54:00,77.7,59.7,30.09,SW,225,7.2,7.2,54,0.00,,FEW002,0.00,VWS V14.01,2013-07-09 20:54:00,
2013-07-09 16:55:00,77.5,59.6,30.09,South,180,9.8,9.8,54,0.00,,FEW002,0.00,VWS V14.01,2013-07-09 20:55:00,
2013-07-09 16:56:00,77.3,58.9,30.09,SSW,202,8.5,8.5,53,0.00,,FEW002,0.00,VWS V14.01,2013-07-09 20:56:00,
2013-07-09 16:57:00,77.3,59.4,30.09,SSW,202,6.0,6.0,54,0.00,,FEW002,0.00,VWS V14.01,2013-07-09 20:57:00,
2013-07-09 16:58:00,77.1,58.7,30.09,SW,225,5.6,5.6,53,0.00,,FEW002,0.00,VWS V14.01,2013-07-09 20:58:00,
2013-07-09 16:59:00,77.1,59.2,30.09,SW,225,8.5,8.5,54,0.00,,FEW002,0.00,VWS V14.01,2013-07-09 20:59:00,
2013-07-09 17:00:00,77.0,59.1,30.09,WSW,248,3.4,3.4,54,0.00,,FEW002,0.00,VWS V14.01,2013-07-09 21:00:00,
2013-07-09 17:01:00,77.1,59.7,30.09,West,270,2.9,2.9,55,0.00,,FEW002,0.00,VWS V14.01,2013-07-09 21:01:00,
2013-07-09 17:02:00,77.5,61.6,30.09,SW,225,6.5,6.5,58,0.00,,FEW002,0.00,VWS V14.01,2013-07-09 21:02:00,
2013-07-09 17:03:00,77.5,61.6,30.09,WSW,248,6.3,6.3,58,0.00,,FEW002,0.00,VWS V14.01,2013-07-09 21:03:00,
2013-07-09 17:04:00,77.5,61.6,30.09,SW,225,6.0,6.0,58,0.00,,FEW002,0.00,VWS V14.01,2013-07-09 21:04:00,
2013-07-09 17:05:00,77.3,58.3,30.09,SSW,202,6.7,6.7,52,0.00,,FEW002,0.00,VWS V14.01,2013-07-09 21:05:00,
2013-07-09 17:06:00,77.3,59.4,30.09,SW,225,5.8,5.8,54,0.00,,FEW002,0.00,VWS V14.01,2013-07-09 21:06:00,
2013-07-09 17:07:00,77.3,60.4,30.09,SSW,202,6.0,6.0,56,0.00,,FEW002,0.00,VWS V14.01,2013-07-09 21:07:00,
2013-07-09 17:08:00,77.1,60.2,30.09,SW,225,5.4,5.4,56,0.00,,FEW002,0.00,VWS V14.01,2013-07-09 21:08:00,
2013-07-09 17:09:00,77.1,60.2,30.12,WSW,248,6.9,6.9,56,0.00,,FEW002,0.00,VWS V14.01,2013-07-09 21:09:00,
2013-07-09 17:10:00,76.8,58.9,30.12,SW,225,5.8,5.8,54,0.00,,FEW002,0.00,VWS V14.01,2013-07-09 21:10:00,
2013-07-09 17:11:00,76.8,58.9,30.12,WSW,248,4.7,4.7,54,0.00,,FEW002,0.00,VWS V14.01,2013-07-09 21:11:00,
2013-07-09 17:12:00,76.8,58.9,30.12,SSW,202,3.1,3.1,54,0.00,,FEW002,0.00,VWS V14.01,2013-07-09 21:12:00,
2013-07-09 17:13:00,77.0,60.6,30.12,WSW,248,3.6,3.6,57,0.00,,FEW002,0.00,VWS V14.01,2013-07-09 21:13:00,
2013-07-09 17:14:00,77.0,59.6,30.12,SSW,202,4.9,4.9,55,0.00,,FEW002,0.00,VWS V14.01,2013-07-09 21:14:00,
2013-07-09 17:15:00,77.0,59.1,30.12,SSW,202,6.3,6.3,54,0.00,,FEW002,0.00,VWS V14.01,2013-07-09 21:15:00,
2013-07-09 17:16:00,77.0,58.5,30.12,SSW,202,5.4,5.4,53,0.00,,FEW002,0.00,VWS V14.01,2013-07-09 21:16:00,
2013-07-09 17:17:00,77.0,58.0,30.12,SW,225,2.7,2.7,52,0.00,,FEW002,0.00,VWS V14.01,2013-07-09 21:17:00,
2013-07-09 17:18:00,76.8,58.4,30.12,SSE,158,3.1,3.1,53,0.00,,FEW002,0.00,VWS V14.01,2013-07-09 21:18:00,
2013-07-09 17:19:00,76.8,57.8,30.12,SSW,202,5.8,5.8,52,0.00,,FEW002,0.00,VWS V14.01,2013-07-09 21:19:00,
2013-07-09 17:20:00,76.8,58.4,30.12,SSW,202,4.9,4.9,53,0.00,,FEW002,0.00,VWS V14.01,2013-07-09 21:20:00,
2013-07-09 17:21:00,76.8,58.4,30.12,SSW,202,4.3,4.3,53,0.00,,FEW002,0.00,VWS V14.01,2013-07-09 21:21:00,
2013-07-09 17:22:00,76.8,59.4,30.12,South,180,3.6,3.6,55,0.00,,FEW002,0.00,VWS V14.01,2013-07-09 21:22:00,
2013-07-09 17:23:00,76.8,58.9,30.12,SSW,202,2.9,2.9,54,0.00,,FEW002,0.00,VWS V14.01,2013-07-09 21:23:00,
2013-07-09 17:24:00,77.0,59.1,30.09,South,180,4.0,4.0,54,0.00,,FEW002,0.00,VWS V14.01,2013-07-09 21:24:00,
2013-07-09 17:25:00,76.8,59.4,30.09,South,180,3.6,3.6,55,0.00,,FEW002,0.00,VWS V14.01,2013-07-09 21:25:00,
2013-07-09 17:26:00,77.0,59.6,30.09,SSW,202,3.4,3.4,55,0.00,,FEW002,0.00,VWS V14.01,2013-07-09 21:26:00,
2013-07-09 17:27:00,76.8,58.9,30.09,SSW,202,4.3,4.3,54,0.00,,FEW002,0.00,VWS V14.01,2013-07-09 21:27:00,
2013-07-09 17:28:00,76.8,58.9,30.09,South,180,2.5,2.5,54,0.00,,FEW002,0.00,VWS V14.01,2013-07-09 21:28:00,
2013-07-09 17:29:00,76.8,58.9,30.09,SSW,202,3.8,3.8,54,0.00,,FEW002,0.00,VWS V14.01,2013-07-09 21:29:00,
2013-07-09 17:30:00,76.8,59.9,30.09,SSW,202,1.6,1.6,56,0.00,,FEW002,0.00,VWS V14.01,2013-07-09 21:30:00,
2013-07-09 17:31:00,76.8,60.4,30.09,South,180,3.4,3.4,57,0.00,,FEW002,0.00,VWS V14.01,2013-07-09 21:31:00,
2013-07-09 17:32:00,76.8,59.9,30.09,SW,225,3.1,3.1,56,0.00,,FEW002,0.00,VWS V14.01,2013-07-09 21:32:00,
2013-07-09 17:33:00,76.8,60.4,30.09,South,180,2.9,2.9,57,0.00,,FEW002,0.00,VWS V14.01,2013-07-09 21:33:00,
2013-07-09 17:34:00,76.8,60.4,30.09,South,180,2.9,2.9,57,0.00,,FEW002,0.00,VWS V14.01,2013-07-09 21:34:00,
2013-07-09 17:35:00,76.8,59.9,30.09,SSE,158,3.1,3.1,56,0.00,,FEW002,0.00,VWS V14.01,2013-07-09 21:35:00,
2013-07-09 17:36:00,77.0,61.1,30.09,South,180,2.2,2.2,58,0.00,,FEW002,0.00,VWS V14.01,2013-07-09 21:36:00,
2013-07-09 17:37:00,77.0,61.1,30.09,SSW,202,3.1,3.1,58,0.00,,FEW002,0.00,VWS V14.01,2013-07-09 21:37:00,
2013-07-09 17:38:00,77.0,61.1,30.09,SE,135,4.0,4.0,58,0.00,,FEW002,0.00,VWS V14.01,2013-07-09 21:38:00,
2013-07-09 17:39:00,77.0,61.1,30.12,SE,135,2.7,2.7,58,0.00,,FEW002,0.00,VWS V14.01,2013-07-09 21:39:00,
2013-07-09 17:40:00,77.0,61.5,30.12,SE,135,6.3,6.3,59,0.00,,FEW002,0.00,VWS V14.01,2013-07-09 21:40:00,
2013-07-09 17:41:00,76.6,60.7,30.12,SSW,202,6.3,6.3,58,0.00,,FEW002,0.00,VWS V14.01,2013-07-09 21:41:00,
2013-07-09 17:42:00,76.2,60.4,30.12,SSW,202,5.6,5.6,58,0.00,,FEW002,0.00,VWS V14.01,2013-07-09 21:42:00,
2013-07-09 17:43:00,75.5,60.2,30.12,ESE,112,4.0,4.0,59,0.00,,FEW002,0.00,VWS V14.01,2013-07-09 21:43:00,
2013-07-09 17:44:00,75.0,59.2,30.12,SE,135,12.1,12.1,58,0.00,,FEW002,0.00,VWS V14.01,2013-07-09 21:44:00,
2013-07-09 17:45:00,75.0,59.2,30.12,WSW,248,6.5,6.5,58,0.00,,FEW002,0.00,VWS V14.01,2013-07-09 21:45:00,
2013-07-09 17:46:00,73.9,59.2,30.12,SW,225,4.0,4.0,60,0.00,,FEW002,0.00,VWS V14.01,2013-07-09 21:46:00,
2013-07-09 17:47:00,73.9,59.2,30.12,SSW,202,5.8,5.8,60,0.00,,FEW002,0.00,VWS V14.01,2013-07-09 21:47:00,
2013-07-09 17:48:00,73.9,59.6,30.12,WSW,248,6.5,6.5,61,0.00,,FEW002,0.00,VWS V14.01,2013-07-09 21:48:00,
2013-07-09 17:49:00,73.9,59.6,30.12,SE,135,4.3,4.3,61,0.00,,FEW002,0.00,VWS V14.01,2013-07-09 21:49:00,
2013-07-09 17:50:00,73.9,59.6,30.12,SSW,202,3.1,3.1,61,0.00,,FEW002,0.00,VWS V14.01,2013-07-09 21:50:00,
2013-07-09 17:51:00,73.9,60.1,30.12,SSW,202,5.4,5.4,62,0.00,,FEW002,0.00,VWS V14.01,2013-07-09 21:51:00,
2013-07-09 17:52:00,73.7,59.9,30.12,SSW,202,4.3,4.3,62,0.00,,FEW002,0.00,VWS V14.01,2013-07-09 21:52:00,
2013-07-09 17:53:00,73.7,59.9,30.12,SW,225,5.4,5.4,62,0.00,,FEW002,0.00,VWS V14.01,2013-07-09 21:53:00,
2013-07-09 17:54:00,73.9,60.1,30.12,SSW,202,2.9,2.9,62,0.00,,FEW002,0.00,VWS V14.01,2013-07-09 21:54:00,
2013-07-09 17:55:00,74.1,60.7,30.12,SSW,202,2.9,2.9,63,0.00,,FEW002,0.00,VWS V14.01,2013-07-09 21:55:00,
2013-07-09 17:56:00,74.3,60.4,30.12,SSE,158,5.4,5.4,62,0.00,,FEW002,0.00,VWS V14.01,2013-07-09 21:56:00,
2013-07-09 17:57:00,74.1,59.8,30.12,SSW,202,2.5,2.5,61,0.00,,FEW002,0.00,VWS V14.01,2013-07-09 21:57:00,
2013-07-09 17:58:00,74.3,60.0,30.12,South,180,3.8,3.8,61,0.00,,FEW002,0.00,VWS V14.01,2013-07-09 21:58:00,
2013-07-09 17:59:00,74.6,61.2,30.12,SSW,202,2.0,2.0,63,0.00,,FEW002,0.00,VWS V14.01,2013-07-09 21:59:00,
2013-07-09 18:00:00,74.4,59.7,30.12,SSW,202,5.8,5.8,60,0.00,,FEW002,0.00,VWS V14.01,2013-07-09 22:00:00,
2013-07-09 18:01:00,74.3,59.0,30.12,South,180,6.3,6.3,59,0.00,,FEW002,0.00,VWS V14.01,2013-07-09 22:01:00,
2013-07-09 18:02:00,74.3,59.0,30.12,SSW,202,4.7,4.7,59,0.00,,FEW002,0.00,VWS V14.01,2013-07-09 22:02:00,
2013-07-09 18:03:00,74.3,59.0,30.12,SSW,202,8.1,8.1,59,0.00,,FEW002,0.00,VWS V14.01,2013-07-09 22:03:00,
2013-07-09 18:04:00,74.3,59.0,30.12,SSW,202,5.8,5.8,59,0.00,,FEW002,0.00,VWS V14.01,2013-07-09 22:04:00,
2013-07-09 18:05:00,74.6,59.8,30.12,SW,225,4.7,4.7,60,0.00,,FEW002,0.00,VWS V14.01,2013-07-09 22:05:00,
2013-07-09 18:06:00,74.8,60.0,30.12,SSE,158,4.3,4.3,60,0.00,,SCT100,0.00,VWS V14.01,2013-07-09 22:06:00,
2013-07-09 18:07:00,74.8,60.0,30.12,SSW,202,3.8,3.8,60,0.00,,FEW002,0.00,VWS V14.01,2013-07-09 22:07:00,
2013-07-09 18:08:00,74.8,60.0,30.12,SSW,202,3.8,3.8,60,0.00,,FEW002,0.00,VWS V14.01,2013-07-09 22:08:00,
2013-07-09 18:09:00,75.0,60.2,30.12,WSW,248,3.6,3.6,60,0.00,,FEW002,0.00,VWS V14.01,2013-07-09 22:09:00,
2013-07-09 18:10:00,75.0,60.2,30.12,SSW,202,5.4,5.4,60,0.00,,FEW002,0.00,VWS V14.01,2013-07-09 22:10:00,
2013-07-09 18:11:00,75.0,59.2,30.12,SSE,158,4.3,4.3,58,0.00,,FEW002,0.00,VWS V14.01,2013-07-09 22:11:00,
2013-07-09 18:12:00,75.0,59.2,30.12,WSW,248,3.4,3.4,58,0.00,,FEW002,0.00,VWS V14.01,2013-07-09 22:12:00,
2013-07-09 18:13:00,74.8,59.5,30.12,SSW,202,5.4,5.4,59,0.00,,FEW002,0.00,VWS V14.01,2013-07-09 22:13:00,
2013-07-09 18:14:00,74.8,59.5,30.12,SSW,202,5.8,5.8,59,0.00,,FEW002,0.00,VWS V14.01,2013-07-09 22:14:00,
2013-07-09 18:15:00,74.8,59.0,30.12,South,180,6.5,6.5,58,0.00,,FEW002,0.00,VWS V14.01,2013-07-09 22:15:00,
2013-07-09 18:16:00,74.8,59.5,30.12,SW,225,7.6,7.6,59,0.00,,FEW002,0.00,VWS V14.01,2013-07-09 22:16:00,
2013-07-09 18:17:00,74.6,59.8,30.12,SSW,202,6.5,6.5,60,0.00,,FEW002,0.00,VWS V14.01,2013-07-09 22:17:00,
2013-07-09 18:18:00,74.6,59.8,30.12,SSW,202,4.9,4.9,60,0.00,,FEW002,0.00,VWS V14.01,2013-07-09 22:18:00,
2013-07-09 18:19:00,74.8,60.0,30.12,SW,225,7.2,7.2,60,0.00,,FEW002,0.00,VWS V14.01,2013-07-09 22:19:00,
2013-07-09 18:20:00,74.6,59.4,30.12,SSW,202,10.1,10.1,59,0.00,,FEW002,0.00,VWS V14.01,2013-07-09 22:20:00,
2013-07-09 18:21:00,74.6,60.3,30.12,SSW,202,6.3,6.3,61,0.00,,FEW002,0.00,VWS V14.01,2013-07-09 22:21:00,
2013-07-09 18:22:00,74.6,59.8,30.12,SSE,158,4.9,4.9,60,0.00,,FEW002,0.00,VWS V14.01,2013-07-09 22:22:00,
2013-07-09 18:23:00,74.6,59.8,30.12,SSW,202,3.6,3.6,60,0.00,,FEW002,0.00,VWS V14.01,2013-07-09 22:23:00,
2013-07-09 18:24:00,74.6,60.3,30.06,SSW,202,4.3,4.3,61,0.00,,FEW002,0.00,VWS V14.01,2013-07-09 22:24:00,
2013-07-09 18:25:00,74.6,60.3,30.06,SSW,202,3.1,3.1,61,0.00,,FEW002,0.00,VWS V14.01,2013-07-09 22:25:00,
2013-07-09 18:26:00,74.8,60.0,30.06,WSW,248,8.1,8.1,60,0.00,,FEW002,0.00,VWS V14.01,2013-07-09 22:26:00,
2013-07-09 18:27:00,74.8,60.0,30.06,SSW,202,3.8,3.8,60,0.00,,FEW002,0.00,VWS V14.01,2013-07-09 22:27:00,
2013-07-09 18:28:00,75.0,61.1,30.06,SW,225,5.8,5.8,62,0.00,,FEW002,0.00,VWS V14.01,2013-07-09 22:28:00,
2013-07-09 18:29:00,75.0,60.6,30.06,SSW,202,6.5,6.5,61,0.00,,FEW002,0.00,VWS V14.01,2013-07-09 22:29:00,
2013-07-09 18:30:00,75.0,60.6,30.06,SSW,202,4.7,4.7,61,0.00,,FEW002,0.00,VWS V14.01,2013-07-09 22:30:00,
2013-07-09 18:31:00,75.0,61.1,30.06,South,180,6.3,6.3,62,0.00,,FEW002,0.00,VWS V14.01,2013-07-09 22:31:00,
2013-07-09 18:32:00,75.0,60.6,30.06,SSW,202,4.7,4.7,61,0.00,,FEW002,0.00,VWS V14.01,2013-07-09 22:32:00,
2013-07-09 18:33:00,75.2,60.8,30.06,SSW,202,3.6,3.6,61,0.00,,FEW002,0.00,VWS V14.01,2013-07-09 22:33:00,
2013-07-09 18:34:00,75.3,61.4,30.06,SSW,202,3.8,3.8,62,0.00,,FEW002,0.00,VWS V14.01,2013-07-09 22:34:00,
2013-07-09 18:35:00,75.3,61.0,30.06,SSW,202,3.1,3.1,61,0.00,,FEW002,0.00,VWS V14.01,2013-07-09 22:35:00,
2013-07-09 18:36:00,75.3,61.0,30.06,SSW,202,4.7,4.7,61,0.00,,FEW002,0.00,VWS V14.01,2013-07-09 22:36:00,
2013-07-09 18:37:00,75.3,61.0,30.06,SW,225,5.4,5.4,61,0.00,,FEW002,0.00,VWS V14.01,2013-07-09 22:37:00,
2013-07-09 18:38:00,75.3,61.0,30.06,SSW,202,6.0,6.0,61,0.00,,FEW002,0.00,VWS V14.01,2013-07-09 22:38:00,
2013-07-09 18:39:00,75.3,61.0,30.09,South,180,5.4,5.4,61,0.00,,FEW002,0.00,VWS V14.01,2013-07-09 22:39:00,
2013-07-09 18:40:00,75.7,61.3,30.09,SSW,202,6.0,6.0,61,0.00,,FEW002,0.00,VWS V14.01,2013-07-09 22:40:00,
2013-07-09 18:41:00,75.7,60.8,30.09,SSW,202,3.6,3.6,60,0.00,,FEW002,0.00,VWS V14.01,2013-07-09 22:41:00,
2013-07-09 18:42:00,75.9,61.9,30.09,SSW,202,2.9,2.9,62,0.00,,FEW002,0.00,VWS V14.01,2013-07-09 22:42:00,
2013-07-09 18:43:00,75.9,61.0,30.09,West,270,5.4,5.4,60,0.00,,FEW002,0.00,VWS V14.01,2013-07-09 22:43:00,
2013-07-09 18:44:00,75.9,61.0,30.09,SSW,202,3.1,3.1,60,0.00,,FEW002,0.00,VWS V14.01,2013-07-09 22:44:00,
2013-07-09 18:45:00,75.9,61.0,30.09,South,180,3.1,3.1,60,0.00,,FEW002,0.00,VWS V14.01,2013-07-09 22:45:00,
2013-07-09 18:46:00,76.1,61.2,30.09,SSW,202,3.4,3.4,60,0.00,,FEW002,0.00,VWS V14.01,2013-07-09 22:46:00,
2013-07-09 18:47:00,76.2,61.8,30.09,SW,225,4.0,4.0,61,0.00,,FEW002,0.00,VWS V14.01,2013-07-09 22:47:00,
2013-07-09 18:48:00,76.2,61.8,30.09,SW,225,4.0,4.0,61,0.00,,FEW002,0.00,VWS V14.01,2013-07-09 22:48:00,
2013-07-09 18:49:00,76.2,60.4,30.09,SSW,202,4.9,4.9,58,0.00,,FEW002,0.00,VWS V14.01,2013-07-09 22:49:00,
2013-07-09 18:50:00,76.4,61.0,30.09,SSW,202,3.8,3.8,59,0.00,,FEW002,0.00,VWS V14.01,2013-07-09 22:50:00,
2013-07-09 18:51:00,76.4,61.0,30.09,South,180,5.4,5.4,59,0.00,,FEW002,0.00,VWS V14.01,2013-07-09 22:51:00,
2013-07-09 18:52:00,76.4,61.0,30.09,SW,225,3.8,3.8,59,0.00,,FEW002,0.00,VWS V14.01,2013-07-09 22:52:00,
2013-07-09 18:53:00,76.4,61.0,30.09,SSW,202,3.4,3.4,59,0.00,,FEW002,0.00,VWS V14.01,2013-07-09 22:53:00,
2013-07-09 18:54:00,76.4,61.0,30.09,SW,225,4.0,4.0,59,0.00,,FEW002,0.00,VWS V14.01,2013-07-09 22:54:00,
2013-07-09 18:55:00,76.4,61.0,30.09,SW,225,2.7,2.7,59,0.00,,FEW002,0.00,VWS V14.01,2013-07-09 22:55:00,
2013-07-09 18:56:00,76.6,61.2,30.09,WSW,248,2.0,2.0,59,0.00,,FEW002,0.00,VWS V14.01,2013-07-09 22:56:00,
2013-07-09 18:57:00,76.6,61.2,30.09,SSE,158,2.5,2.5,59,0.00,,FEW002,0.00,VWS V14.01,2013-07-09 22:57:00,
2013-07-09 18:58:00,76.6,61.7,30.09,SSW,202,2.0,2.0,60,0.00,,FEW002,0.00,VWS V14.01,2013-07-09 22:58:00,
2013-07-09 18:59:00,76.6,61.2,30.09,South,180,4.0,4.0,59,0.00,,FEW002,0.00,VWS V14.01,2013-07-09 22:59:00,
2013-07-09 19:00:00,76.6,60.7,30.09,SSE,158,2.0,2.0,58,0.00,,FEW002,0.00,VWS V14.01,2013-07-09 23:00:00,
2013-07-09 19:01:00,76.4,61.0,30.09,SSW,202,5.4,5.4,59,0.00,,FEW002,0.00,VWS V14.01,2013-07-09 23:01:00,
2013-07-09 19:02:00,76.4,60.6,30.09,SSW,202,4.3,4.3,58,0.00,,FEW002,0.00,VWS V14.01,2013-07-09 23:02:00,
2013-07-09 19:03:00,76.4,60.6,30.09,South,180,3.8,3.8,58,0.00,,FEW002,0.00,VWS V14.01,2013-07-09 23:03:00,
2013-07-09 19:04:00,76.2,60.9,30.09,SSW,202,4.3,4.3,59,0.00,,FEW002,0.00,VWS V14.01,2013-07-09 23:04:00,
2013-07-09 19:05:00,76.2,61.3,30.09,SSE,158,2.5,2.5,60,0.00,,FEW002,0.00,VWS V14.01,2013-07-09 23:05:00,
2013-07-09 19:06:00,76.2,61.3,30.09,SSW,202,2.7,2.7,60,0.00,,FEW002,0.00,VWS V14.01,2013-07-09 23:06:00,
2013-07-09 19:07:00,76.1,60.7,30.09,South,180,2.7,2.7,59,0.00,,FEW002,0.00,VWS V14.01,2013-07-09 23:07:00,
2013-07-09 19:08:00,76.1,61.2,30.09,ESE,112,5.4,5.4,60,0.00,,FEW002,0.00,VWS V14.01,2013-07-09 23:08:00,
2013-07-09 19:09:00,75.9,61.0,30.09,SSE,158,4.9,4.9,60,0.00,,FEW002,0.00,VWS V14.01,2013-07-09 23:09:00,
2013-07-09 19:10:00,75.9,60.5,30.09,SSW,202,2.9,2.9,59,0.00,,FEW002,0.00,VWS V14.01,2013-07-09 23:10:00,
2013-07-09 19:11:00,75.9,61.0,30.09,SSW,202,3.4,3.4,60,0.00,,FEW002,0.00,VWS V14.01,2013-07-09 23:11:00,
2013-07-09 19:12:00,75.9,61.5,30.09,SSW,202,3.8,3.8,61,0.00,,FEW002,0.00,VWS V14.01,2013-07-09 23:12:00,
2013-07-09 19:13:00,75.9,61.5,30.09,SSE,158,4.5,4.5,61,0.00,,FEW002,0.00,VWS V14.01,2013-07-09 23:13:00,
2013-07-09 19:14:00,75.7,61.3,30.09,SE,135,3.1,3.1,61,0.00,,FEW002,0.00,VWS V14.01,2013-07-09 23:14:00,
2013-07-09 19:15:00,75.7,61.3,30.09,South,180,4.3,4.3,61,0.00,,FEW002,0.00,VWS V14.01,2013-07-09 23:15:00,
2013-07-09 19:16:00,75.5,60.7,30.09,SSW,202,5.6,5.6,60,0.00,,FEW002,0.00,VWS V14.01,2013-07-09 23:16:00,
2013-07-09 19:17:00,75.5,60.7,30.09,SSE,158,4.3,4.3,60,0.00,,FEW002,0.00,VWS V14.01,2013-07-09 23:17:00,
2013-07-09 19:18:00,75.5,61.1,30.09,SSW,202,3.6,3.6,61,0.00,,FEW002,0.00,VWS V14.01,2013-07-09 23:18:00,
2013-07-09 19:19:00,75.3,61.4,30.09,SSW,202,4.3,4.3,62,0.00,,FEW002,0.00,VWS V14.01,2013-07-09 23:19:00,
2013-07-09 19:20:00,75.3,61.4,30.09,SSE,158,3.6,3.6,62,0.00,,FEW002,0.00,VWS V14.01,2013-07-09 23:20:00,
2013-07-09 19:21:00,75.3,61.4,30.09,SSE,158,4.3,4.3,62,0.00,,FEW002,0.00,VWS V14.01,2013-07-09 23:21:00,
2013-07-09 19:22:00,75.3,61.4,30.09,WSW,248,2.0,2.0,62,0.00,,FEW002,0.00,VWS V14.01,2013-07-09 23:22:00,
2013-07-09 19:23:00,75.2,61.3,30.09,SSW,202,2.7,2.7,62,0.00,,FEW002,0.00,VWS V14.01,2013-07-09 23:23:00,
2013-07-09 19:24:00,75.2,61.3,30.06,South,180,4.0,4.0,62,0.00,,FEW002,0.00,VWS V14.01,2013-07-09 23:24:00,
2013-07-09 19:25:00,75.2,61.3,30.06,SSW,202,3.6,3.6,62,0.00,,FEW002,0.00,VWS V14.01,2013-07-09 23:25:00,
2013-07-09 19:26:00,75.0,61.1,30.06,South,180,4.0,4.0,62,0.00,,FEW002,0.00,VWS V14.01,2013-07-09 23:26:00,
2013-07-09 19:27:00,75.0,60.6,30.06,SSW,202,7.8,7.8,61,0.00,,FEW002,0.00,VWS V14.01,2013-07-09 23:27:00,
2013-07-09 19:28:00,75.0,61.1,30.06,South,180,3.4,3.4,62,0.00,,FEW002,0.00,VWS V14.01,2013-07-09 23:28:00,
2013-07-09 19:29:00,75.0,61.1,30.06,South,180,3.4,3.4,62,0.00,,FEW002,0.00,VWS V14.01,2013-07-09 23:29:00,
2013-07-09 19:30:00,75.0,61.1,30.06,SW,225,1.6,1.6,62,0.00,,FEW002,0.00,VWS V14.01,2013-07-09 23:30:00,
2013-07-09 19:31:00,75.0,61.1,30.06,SSW,202,3.1,3.1,62,0.00,,FEW002,0.00,VWS V14.01,2013-07-09 23:31:00,
2013-07-09 19:32:00,74.8,60.9,30.06,SW,225,4.3,4.3,62,0.00,,FEW002,0.00,VWS V14.01,2013-07-09 23:32:00,
2013-07-09 19:33:00,74.8,60.9,30.06,South,180,3.6,3.6,62,0.00,,FEW002,0.00,VWS V14.01,2013-07-09 23:33:00,
2013-07-09 19:34:00,74.8,61.4,30.06,South,180,3.6,3.6,63,0.00,,FEW002,0.00,VWS V14.01,2013-07-09 23:34:00,
2013-07-09 19:35:00,74.8,61.4,30.06,South,180,3.8,3.8,63,0.00,,FEW002,0.00,VWS V14.01,2013-07-09 23:35:00,
2013-07-09 19:36:00,74.8,61.4,30.06,SSW,202,2.5,2.5,63,0.00,,FEW002,0.00,VWS V14.01,2013-07-09 23:36:00,
2013-07-09 19:37:00,74.8,61.4,30.06,SSW,202,3.1,3.1,63,0.00,,FEW002,0.00,VWS V14.01,2013-07-09 23:37:00,
2013-07-09 19:38:00,74.8,61.4,30.06,SSW,202,3.8,3.8,63,0.00,,FEW002,0.00,VWS V14.01,2013-07-09 23:38:00,
2013-07-09 19:39:00,74.8,61.4,30.09,SE,135,2.7,2.7,63,0.00,,FEW002,0.00,VWS V14.01,2013-07-09 23:39:00,
2013-07-09 19:40:00,74.8,61.4,30.09,SSE,158,2.0,2.0,63,0.00,,FEW002,0.00,VWS V14.01,2013-07-09 23:40:00,
2013-07-09 19:41:00,74.8,61.8,30.09,SSW,202,4.9,4.9,64,0.00,,FEW002,0.00,VWS V14.01,2013-07-09 23:41:00,
2013-07-09 19:42:00,74.8,61.4,30.09,SSE,158,4.0,4.0,63,0.00,,FEW002,0.00,VWS V14.01,2013-07-09 23:42:00,
2013-07-09 19:43:00,74.8,61.4,30.09,SSW,202,4.0,4.0,63,0.00,,FEW002,0.00,VWS V14.01,2013-07-09 23:43:00,
2013-07-09 19:45:00,74.6,61.7,30.09,SW,225,6.5,6.5,64,0.00,,FEW002,0.00,VWS V14.01,2013-07-09 23:45:00,
2013-07-09 19:46:00,74.8,61.8,30.09,SSW,202,4.0,4.0,64,0.00,,FEW002,0.00,VWS V14.01,2013-07-09 23:46:00,
2013-07-09 19:47:00,74.8,61.8,30.09,WSW,248,5.4,5.4,64,0.00,,FEW002,0.00,VWS V14.01,2013-07-09 23:47:00,
2013-07-09 19:48:00,74.6,61.7,30.09,SSW,202,7.2,7.2,64,0.00,,FEW002,0.00,VWS V14.01,2013-07-09 23:48:00,
2013-07-09 19:49:00,74.8,62.3,30.09,SSW,202,4.0,4.0,65,0.00,,FEW002,0.00,VWS V14.01,2013-07-09 23:49:00,
2013-07-09 19:50:00,74.8,62.3,30.09,WSW,248,4.0,4.0,65,0.00,,FEW002,0.00,VWS V14.01,2013-07-09 23:50:00,
2013-07-09 19:51:00,74.6,62.1,30.09,WSW,248,4.7,4.7,65,0.00,,FEW002,0.00,VWS V14.01,2013-07-09 23:51:00,
2013-07-09 19:52:00,74.6,62.1,30.09,SW,225,3.6,3.6,65,0.00,,FEW002,0.00,VWS V14.01,2013-07-09 23:52:00,
2013-07-09 19:53:00,74.8,62.3,30.09,SSW,202,3.4,3.4,65,0.00,,FEW002,0.00,VWS V14.01,2013-07-09 23:53:00,
2013-07-09 19:54:00,74.8,62.3,30.12,SSW,202,4.3,4.3,65,0.00,,FEW002,0.00,VWS V14.01,2013-07-09 23:54:00,
2013-07-09 19:55:00,74.6,62.1,30.12,SSW,202,5.6,5.6,65,0.00,,FEW002,0.00,VWS V14.01,2013-07-09 23:55:00,
2013-07-09 19:56:00,74.6,62.1,30.12,SSW,202,6.0,6.0,65,0.00,,FEW002,0.00,VWS V14.01,2013-07-09 23:56:00,
2013-07-09 19:57:00,74.6,62.1,30.12,SSW,202,6.5,6.5,65,0.00,,FEW002,0.00,VWS V14.01,2013-07-09 23:57:00,
2013-07-09 19:58:00,74.6,62.1,30.12,SSW,202,4.9,4.9,65,0.00,,FEW002,0.00,VWS V14.01,2013-07-09 23:58:00,
2013-07-09 19:59:00,74.4,61.9,30.12,South,180,6.3,6.3,65,0.00,,FEW002,0.00,VWS V14.01,2013-07-09 23:59:00,
2013-07-09 20:00:00,74.4,61.9,30.12,SSW,202,3.8,3.8,65,0.00,,FEW002,0.00,VWS V14.01,2013-07-10 00:00:00,
2013-07-09 20:01:00,74.4,62.3,30.12,SSW,202,4.0,4.0,66,0.00,,FEW002,0.00,VWS V14.01,2013-07-10 00:01:00,
2013-07-09 20:02:00,74.4,62.3,30.12,SW,225,2.7,2.7,66,0.00,,FEW002,0.00,VWS V14.01,2013-07-10 00:02:00,
2013-07-09 20:03:00,74.4,62.3,30.12,SSW,202,3.1,3.1,66,0.00,,FEW002,0.00,VWS V14.01,2013-07-10 00:03:00,
2013-07-09 20:04:00,74.3,62.2,30.12,SW,225,3.8,3.8,66,0.00,,FEW002,0.00,VWS V14.01,2013-07-10 00:04:00,
2013-07-09 20:05:00,74.4,63.2,30.12,SW,225,5.4,5.4,68,0.00,,FEW002,0.00,VWS V14.01,2013-07-10 00:05:00,
2013-07-09 20:06:00,74.3,63.0,30.12,SSW,202,3.4,3.4,68,0.00,,FEW002,0.00,VWS V14.01,2013-07-10 00:06:00,
2013-07-09 20:07:00,74.3,62.6,30.12,SSW,202,4.3,4.3,67,0.00,,FEW002,0.00,VWS V14.01,2013-07-10 00:07:00,
2013-07-09 20:08:00,74.3,62.6,30.12,SW,225,3.4,3.4,67,0.00,,FEW002,0.00,VWS V14.01,2013-07-10 00:08:00,
2013-07-09 20:09:00,74.3,62.6,30.12,SSW,202,3.4,3.4,67,0.00,,FEW002,0.00,VWS V14.01,2013-07-10 00:09:00,
2013-07-09 20:10:00,74.3,63.0,30.12,SW,225,2.9,2.9,68,0.00,,FEW002,0.00,VWS V14.01,2013-07-10 00:10:00,
2013-07-09 20:11:00,74.3,63.0,30.12,SSW,202,2.7,2.7,68,0.00,,FEW002,0.00,VWS V14.01,2013-07-10 00:11:00,
2013-07-09 20:12:00,74.3,63.0,30.12,SSW,202,3.4,3.4,68,0.00,,FEW002,0.00,VWS V14.01,2013-07-10 00:12:00,
2013-07-09 20:13:00,74.1,63.3,30.12,SSW,202,3.8,3.8,69,0.00,,FEW002,0.00,VWS V14.01,2013-07-10 00:13:00,
2013-07-09 20:14:00,74.1,62.9,30.12,South,180,2.9,2.9,68,0.00,,FEW002,0.00,VWS V14.01,2013-07-10 00:14:00,
2013-07-09 20:15:00,73.9,63.1,30.12,SSW,202,3.4,3.4,69,0.00,,FEW002,0.00,VWS V14.01,2013-07-10 00:15:00,
2013-07-09 20:16:00,73.9,63.1,30.12,South,180,4.3,4.3,69,0.00,,FEW002,0.00,VWS V14.01,2013-07-10 00:16:00,
2013-07-09 20:17:00,73.9,63.1,30.12,SSW,202,4.3,4.3,69,0.00,,FEW002,0.00,VWS V14.01,2013-07-10 00:17:00,
2013-07-09 20:18:00,73.9,63.1,30.12,SSW,202,3.4,3.4,69,0.00,,FEW002,0.00,VWS V14.01,2013-07-10 00:18:00,
2013-07-09 20:19:00,73.7,62.9,30.12,SSE,158,4.5,4.5,69,0.00,,FEW002,0.00,VWS V14.01,2013-07-10 00:19:00,
2013-07-09 20:20:00,73.7,63.3,30.12,South,180,2.9,2.9,70,0.00,,FEW002,0.00,VWS V14.01,2013-07-10 00:20:00,
2013-07-09 20:21:00,73.7,63.3,30.12,SSW,202,2.2,2.2,70,0.00,,FEW002,0.00,VWS V14.01,2013-07-10 00:21:00,
2013-07-09 20:22:00,73.7,63.7,30.12,SSW,202,2.5,2.5,71,0.00,,FEW002,0.00,VWS V14.01,2013-07-10 00:22:00,
2013-07-09 20:23:00,73.7,63.7,30.12,SSW,202,2.9,2.9,71,0.00,,FEW002,0.00,VWS V14.01,2013-07-10 00:23:00,
2013-07-09 20:24:00,73.7,63.3,30.12,South,180,3.1,3.1,70,0.00,,FEW002,0.00,VWS V14.01,2013-07-10 00:24:00,
2013-07-09 20:25:00,73.7,63.7,30.12,SW,225,3.8,3.8,71,0.00,,FEW002,0.00,VWS V14.01,2013-07-10 00:25:00,
2013-07-09 20:26:00,73.5,63.6,30.12,SW,225,2.9,2.9,71,0.00,,FEW002,0.00,VWS V14.01,2013-07-10 00:26:00,
2013-07-09 20:27:00,73.5,64.0,30.12,SW,225,2.9,2.9,72,0.00,,FEW002,0.00,VWS V14.01,2013-07-10 00:27:00,
2013-07-09 20:28:00,73.5,64.0,30.12,SSW,202,3.6,3.6,72,0.00,,FEW002,0.00,VWS V14.01,2013-07-10 00:28:00,
2013-07-09 20:29:00,73.5,64.0,30.12,South,180,2.7,2.7,72,0.00,,FEW002,0.00,VWS V14.01,2013-07-10 00:29:00,
2013-07-09 20:30:00,73.5,64.0,30.12,SW,225,3.4,3.4,72,0.00,,FEW002,0.00,VWS V14.01,2013-07-10 00:30:00,
2013-07-09 20:31:00,73.4,63.8,30.12,SW,225,3.8,3.8,72,0.00,,FEW002,0.00,VWS V14.01,2013-07-10 00:31:00,
2013-07-09 20:32:00,73.4,63.8,30.12,SSW,202,5.6,5.6,72,0.00,,FEW002,0.00,VWS V14.01,2013-07-10 00:32:00,
2013-07-09 20:33:00,73.4,63.8,30.12,SW,225,4.3,4.3,72,0.00,,FEW002,0.00,VWS V14.01,2013-07-10 00:33:00,
2013-07-09 20:34:00,73.4,64.2,30.12,SSW,202,3.6,3.6,73,0.00,,FEW002,0.00,VWS V14.01,2013-07-10 00:34:00,
2013-07-09 20:35:00,73.4,64.2,30.12,SW,225,3.6,3.6,73,0.00,,FEW002,0.00,VWS V14.01,2013-07-10 00:35:00,
2013-07-09 20:36:00,73.2,64.0,30.12,SW,225,3.4,3.4,73,0.00,,FEW002,0.00,VWS V14.01,2013-07-10 00:36:00,
2013-07-09 20:37:00,73.2,64.0,30.12,WSW,248,3.1,3.1,73,0.00,,FEW002,0.00,VWS V14.01,2013-07-10 00:37:00,
2013-07-09 20:38:00,73.2,64.4,30.12,WSW,248,3.8,3.8,74,0.00,,FEW002,0.00,VWS V14.01,2013-07-10 00:38:00,
2013-07-09 20:39:00,73.2,64.4,30.12,SW,225,2.9,2.9,74,0.00,,FEW002,0.00,VWS V14.01,2013-07-10 00:39:00,
2013-07-09 20:40:00,73.2,64.4,30.12,SW,225,2.0,2.0,74,0.00,,FEW002,0.00,VWS V14.01,2013-07-10 00:40:00,
2013-07-09 20:41:00,73.2,64.4,30.12,SW,225,2.5,2.5,74,0.00,,FEW002,0.00,VWS V14.01,2013-07-10 00:41:00,
2013-07-09 20:42:00,73.0,64.6,30.12,WSW,248,3.6,3.6,75,0.00,,FEW002,0.00,VWS V14.01,2013-07-10 00:42:00,
2013-07-09 20:43:00,73.0,64.6,30.12,SW,225,2.0,2.0,75,0.00,,FEW002,0.00,VWS V14.01,2013-07-10 00:43:00,
2013-07-09 20:44:00,73.0,64.6,30.12,SSW,202,2.9,2.9,75,0.00,,FEW002,0.00,VWS V14.01,2013-07-10 00:44:00,
2013-07-09 20:45:00,73.0,64.6,30.12,SW,225,4.0,4.0,75,0.00,,FEW002,0.00,VWS V14.01,2013-07-10 00:45:00,
2013-07-09 20:46:00,73.0,64.6,30.12,SSW,202,2.7,2.7,75,0.00,,FEW002,0.00,VWS V14.01,2013-07-10 00:46:00,
2013-07-09 20:47:00,72.8,64.8,30.12,South,180,3.4,3.4,76,0.00,,FEW002,0.00,VWS V14.01,2013-07-10 00:47:00,
2013-07-09 20:48:00,72.8,64.4,30.12,SSW,202,3.8,3.8,75,0.00,,FEW002,0.00,VWS V14.01,2013-07-10 00:48:00,
2013-07-09 20:49:00,72.8,64.8,30.12,SSW,202,3.6,3.6,76,0.00,,FEW002,0.00,VWS V14.01,2013-07-10 00:49:00,
2013-07-09 20:50:00,72.6,64.7,30.12,SSW,202,3.4,3.4,76,0.00,,FEW002,0.00,VWS V14.01,2013-07-10 00:50:00,
2013-07-09 20:51:00,72.6,64.7,30.12,SSW,202,2.9,2.9,76,0.00,,FEW002,0.00,VWS V14.01,2013-07-10 00:51:00,
2013-07-09 20:52:00,72.6,64.7,30.12,SSW,202,4.3,4.3,76,0.00,,FEW002,0.00,VWS V14.01,2013-07-10 00:52:00,
2013-07-09 20:53:00,72.6,65.0,30.12,SSW,202,2.5,2.5,77,0.00,,FEW002,0.00,VWS V14.01,2013-07-10 00:53:00,
2013-07-09 20:54:00,72.6,65.0,30.12,SSW,202,2.7,2.7,77,0.00,,FEW002,0.00,VWS V14.01,2013-07-10 00:54:00,
2013-07-09 20:55:00,72.6,65.0,30.12,SSW,202,1.3,1.3,77,0.00,,FEW002,0.00,VWS V14.01,2013-07-10 00:55:00,
2013-07-09 20:56:00,72.5,64.8,30.12,SSW,202,3.1,3.1,77,0.00,,FEW002,0.00,VWS V14.01,2013-07-10 00:56:00,
2013-07-09 20:57:00,72.5,64.8,30.12,SW,225,2.2,2.2,77,0.00,,FEW002,0.00,VWS V14.01,2013-07-10 00:57:00,
2013-07-09 20:58:00,72.5,65.2,30.12,SW,225,2.5,2.5,78,0.00,,FEW002,0.00,VWS V14.01,2013-07-10 00:58:00,
2013-07-09 20:59:00,72.3,65.0,30.12,SW,225,2.5,2.5,78,0.00,,FEW002,0.00,VWS V14.01,2013-07-10 00:59:00,
2013-07-09 21:00:00,72.3,65.4,30.12,SW,225,4.3,4.3,79,0.00,,FEW002,0.00,VWS V14.01,2013-07-10 01:00:00,
2013-07-09 21:01:00,72.3,65.4,30.12,SSW,202,3.6,3.6,79,0.00,,FEW002,0.00,VWS V14.01,2013-07-10 01:01:00,
2013-07-09 21:02:00,72.3,65.4,30.12,SW,225,4.3,4.3,79,0.00,,FEW002,0.00,VWS V14.01,2013-07-10 01:02:00,
2013-07-09 21:03:00,72.3,65.4,30.12,SSW,202,4.3,4.3,79,0.00,,FEW002,0.00,VWS V14.01,2013-07-10 01:03:00,
2013-07-09 21:04:00,72.3,65.4,30.12,SSW,202,3.1,3.1,79,0.00,,FEW002,0.00,VWS V14.01,2013-07-10 01:04:00,
2013-07-09 21:05:00,72.3,65.4,30.12,SSW,202,3.6,3.6,79,0.00,,FEW002,0.00,VWS V14.01,2013-07-10 01:05:00,
2013-07-09 21:06:00,72.3,65.4,30.12,SW,225,2.0,2.0,79,0.00,,FEW002,0.00,VWS V14.01,2013-07-10 01:06:00,
2013-07-09 21:07:00,72.1,65.2,30.12,South,180,1.3,1.3,79,0.00,,FEW002,0.00,VWS V14.01,2013-07-10 01:07:00,
2013-07-09 21:08:00,72.1,65.2,30.12,SSW,202,0.0,0.0,79,0.00,,FEW002,0.00,VWS V14.01,2013-07-10 01:08:00,
2013-07-09 21:09:00,72.1,65.2,30.12,SSW,202,0.0,0.0,79,0.00,,FEW002,0.00,VWS V14.01,2013-07-10 01:09:00,
2013-07-09 21:10:00,72.1,64.9,30.12,WSW,248,5.4,5.4,78,0.00,,FEW002,0.00,VWS V14.01,2013-07-10 01:10:00,
2013-07-09 21:11:00,72.1,64.9,30.12,WSW,248,2.9,2.9,78,0.00,,FEW002,0.00,VWS V14.01,2013-07-10 01:11:00,
2013-07-09 21:12:00,72.1,65.6,30.12,SW,225,2.5,2.5,80,0.00,,FEW002,0.00,VWS V14.01,2013-07-10 01:12:00,
2013-07-09 21:13:00,72.1,65.6,30.12,SW,225,2.0,2.0,80,0.00,,FEW002,0.00,VWS V14.01,2013-07-10 01:13:00,
2013-07-09 21:14:00,72.1,65.6,30.12,SSW,202,1.1,1.1,80,0.00,,FEW002,0.00,VWS V14.01,2013-07-10 01:14:00,
2013-07-09 21:15:00,72.1,65.6,30.12,SSW,202,2.5,2.5,80,0.00,,FEW002,0.00,VWS V14.01,2013-07-10 01:15:00,
2013-07-09 21:16:00,72.1,65.6,30.12,SSW,202,2.5,2.5,80,0.00,,FEW002,0.00,VWS V14.01,2013-07-10 01:16:00,
2013-07-09 21:17:00,71.9,65.4,30.12,SW,225,2.5,2.5,80,0.00,,FEW002,0.00,VWS V14.01,2013-07-10 01:17:00,
2013-07-09 21:18:00,71.9,65.4,30.12,SSW,202,3.1,3.1,80,0.00,,FEW002,0.00,VWS V14.01,2013-07-10 01:18:00,
2013-07-09 21:19:00,71.9,65.8,30.12,South,180,3.1,3.1,81,0.00,,FEW002,0.00,VWS V14.01,2013-07-10 01:19:00,
2013-07-09 21:20:00,71.9,65.8,30.12,SW,225,2.9,2.9,81,0.00,,FEW002,0.00,VWS V14.01,2013-07-10 01:20:00,
2013-07-09 21:21:00,71.9,65.8,30.12,SSW,202,2.2,2.2,81,0.00,,FEW002,0.00,VWS V14.01,2013-07-10 01:21:00,
2013-07-09 21:22:00,71.7,65.6,30.12,SSE,158,2.9,2.9,81,0.00,,FEW002,0.00,VWS V14.01,2013-07-10 01:22:00,
2013-07-09 21:23:00,71.7,65.6,30.12,South,180,1.3,1.3,81,0.00,,FEW002,0.00,VWS V14.01,2013-07-10 01:23:00,
2013-07-09 21:24:00,71.7,65.6,30.12,South,180,2.7,2.7,81,0.00,,FEW002,0.00,VWS V14.01,2013-07-10 01:24:00,
2013-07-09 21:25:00,71.7,66.0,30.12,SSE,158,2.5,2.5,82,0.00,,FEW002,0.00,VWS V14.01,2013-07-10 01:25:00,
2013-07-09 21:26:00,71.6,65.8,30.12,SSE,158,2.5,2.5,82,0.00,,FEW002,0.00,VWS V14.01,2013-07-10 01:26:00,
2013-07-09 21:27:00,71.6,65.8,30.12,SSE,158,2.2,2.2,82,0.00,,FEW002,0.00,VWS V14.01,2013-07-10 01:27:00,
2013-07-09 21:28:00,71.6,65.8,30.12,SSE,158,3.1,3.1,82,0.00,,FEW002,0.00,VWS V14.01,2013-07-10 01:28:00,
2013-07-09 21:29:00,71.6,65.8,30.12,SSE,158,2.0,2.0,82,0.00,,FEW002,0.00,VWS V14.01,2013-07-10 01:29:00,
2013-07-09 21:30:00,71.6,66.1,30.12,SSW,202,2.5,2.5,83,0.00,,FEW002,0.00,VWS V14.01,2013-07-10 01:30:00,
2013-07-09 21:31:00,71.6,65.8,30.12,SSW,202,1.3,1.3,82,0.00,,FEW002,0.00,VWS V14.01,2013-07-10 01:31:00,
2013-07-09 21:32:00,71.6,65.8,30.12,SSW,202,1.6,1.6,82,0.00,,FEW002,0.00,VWS V14.01,2013-07-10 01:32:00,
2013-07-09 21:33:00,71.6,65.8,30.12,South,180,3.4,3.4,82,0.00,,FEW002,0.00,VWS V14.01,2013-07-10 01:33:00,
2013-07-09 21:34:00,71.6,65.8,30.12,South,180,2.2,2.2,82,0.00,,FEW002,0.00,VWS V14.01,2013-07-10 01:34:00,
2013-07-09 21:35:00,71.6,65.8,30.12,SSW,202,1.3,1.3,82,0.00,,FEW002,0.00,VWS V14.01,2013-07-10 01:35:00,
2013-07-09 21:36:00,71.6,66.1,30.12,SSW,202,1.6,1.6,83,0.00,,FEW002,0.00,VWS V14.01,2013-07-10 01:36:00,
2013-07-09 21:37:00,71.6,66.1,30.12,South,180,1.1,1.1,83,0.00,,FEW002,0.00,VWS V14.01,2013-07-10 01:37:00,
2013-07-09 21:38:00,71.4,65.9,30.12,South,180,1.1,1.1,83,0.00,,FEW002,0.00,VWS V14.01,2013-07-10 01:38:00,
2013-07-09 21:39:00,71.4,65.9,30.12,South,180,1.1,1.1,83,0.00,,FEW002,0.00,VWS V14.01,2013-07-10 01:39:00,
2013-07-09 21:40:00,71.4,65.9,30.12,SSW,202,1.1,1.1,83,0.00,,FEW002,0.00,VWS V14.01,2013-07-10 01:40:00,
2013-07-09 21:41:00,71.4,65.9,30.12,SSW,202,1.1,1.1,83,0.00,,FEW002,0.00,VWS V14.01,2013-07-10 01:41:00,
2013-07-09 21:42:00,71.4,65.9,30.12,SE,135,0.9,0.9,83,0.00,,FEW002,0.00,VWS V14.01,2013-07-10 01:42:00,
2013-07-09 21:43:00,71.4,66.3,30.12,SE,135,0.0,0.0,84,0.00,,FEW002,0.00,VWS V14.01,2013-07-10 01:43:00,
2013-07-09 21:44:00,71.4,66.3,30.12,SSE,158,2.0,2.0,84,0.00,,FEW002,0.00,VWS V14.01,2013-07-10 01:44:00,
2013-07-09 21:45:00,71.4,66.3,30.12,SSW,202,1.6,1.6,84,0.00,,FEW002,0.00,VWS V14.01,2013-07-10 01:45:00,
2013-07-09 21:46:00,71.2,66.1,30.12,SSW,202,1.3,1.3,84,0.00,,FEW002,0.00,VWS V14.01,2013-07-10 01:46:00,
2013-07-09 21:47:00,71.2,66.1,30.12,SSW,202,1.3,1.3,84,0.00,,FEW002,0.00,VWS V14.01,2013-07-10 01:47:00,
2013-07-09 21:48:00,71.2,66.1,30.12,SSW,202,1.3,1.3,84,0.00,,FEW002,0.00,VWS V14.01,2013-07-10 01:48:00,
2013-07-09 21:49:00,71.2,66.1,30.12,South,180,2.5,2.5,84,0.00,,FEW002,0.00,VWS V14.01,2013-07-10 01:49:00,
2013-07-09 21:50:00,71.2,66.5,30.12,SSW,202,2.7,2.7,85,0.00,,FEW002,0.00,VWS V14.01,2013-07-10 01:50:00,
2013-07-09 21:51:00,71.2,66.8,30.12,SW,225,2.5,2.5,86,0.00,,FEW002,0.00,VWS V14.01,2013-07-10 01:51:00,
2013-07-09 21:52:00,71.2,66.8,30.12,SSW,202,2.7,2.7,86,0.00,,FEW002,0.00,VWS V14.01,2013-07-10 01:52:00,
2013-07-09 21:53:00,71.2,67.1,30.12,SW,225,2.9,2.9,87,0.00,,FEW002,0.00,VWS V14.01,2013-07-10 01:53:00,
2013-07-09 21:54:00,71.2,67.1,30.12,SW,225,2.7,2.7,87,0.00,,FEW002,0.00,VWS V14.01,2013-07-10 01:54:00,
2013-07-09 21:55:00,71.2,67.1,30.12,SSW,202,2.7,2.7,87,0.00,,FEW002,0.00,VWS V14.01,2013-07-10 01:55:00,
2013-07-09 21:56:00,71.2,67.5,30.12,WSW,248,2.5,2.5,88,0.00,,FEW002,0.00,VWS V14.01,2013-07-10 01:56:00,
2013-07-09 21:57:00,71.0,67.6,30.12,WSW,248,2.0,2.0,89,0.00,,FEW002,0.00,VWS V14.01,2013-07-10 01:57:00,
2013-07-09 21:58:00,71.0,67.6,30.12,SW,225,2.0,2.0,89,0.00,,FEW002,0.00,VWS V14.01,2013-07-10 01:58:00,
2013-07-09 21:59:00,71.0,67.9,30.12,SW,225,3.6,3.6,90,0.00,,FEW002,0.00,VWS V14.01,2013-07-10 01:59:00,
2013-07-09 22:00:00,71.0,67.9,30.12,SSW,202,2.9,2.9,90,0.00,,FEW002,0.00,VWS V14.01,2013-07-10 02:00:00,
2013-07-09 22:01:00,71.0,67.6,30.12,SSW,202,2.0,2.0,89,0.00,,FEW002,0.00,VWS V14.01,2013-07-10 02:01:00,
2013-07-09 22:02:00,71.0,67.6,30.12,SSW,202,1.6,1.6,89,0.00,,FEW002,0.00,VWS V14.01,2013-07-10 02:02:00,
2013-07-09 22:03:00,71.0,67.6,30.12,SSW,202,2.0,2.0,89,0.00,,FEW002,0.00,VWS V14.01,2013-07-10 02:03:00,
2013-07-09 22:04:00,71.0,67.6,30.12,SSW,202,2.0,2.0,89,0.00,,FEW002,0.00,VWS V14.01,2013-07-10 02:04:00,
2013-07-09 22:05:00,70.8,67.4,30.12,SSW,202,2.0,2.0,89,0.00,,FEW002,0.00,VWS V14.01,2013-07-10 02:05:00,
2013-07-09 22:06:00,70.8,67.4,30.12,SSW,202,1.3,1.3,89,0.00,,FEW002,0.00,VWS V14.01,2013-07-10 02:06:00,
2013-07-09 22:07:00,70.8,67.4,30.12,SW,225,2.9,2.9,89,0.00,,FEW002,0.00,VWS V14.01,2013-07-10 02:07:00,
2013-07-09 22:08:00,70.8,67.4,30.12,SSW,202,1.6,1.6,89,0.00,,FEW002,0.00,VWS V14.01,2013-07-10 02:08:00,
2013-07-09 22:09:00,70.8,67.4,30.12,WSW,248,3.4,3.4,89,0.00,,FEW002,0.00,VWS V14.01,2013-07-10 02:09:00,
2013-07-09 22:10:00,70.8,67.8,30.12,SSW,202,2.9,2.9,90,0.00,,FEW002,0.00,VWS V14.01,2013-07-10 02:10:00,
2013-07-09 22:11:00,70.8,68.1,30.12,WSW,248,3.1,3.1,91,0.00,,FEW002,0.00,VWS V14.01,2013-07-10 02:11:00,
2013-07-09 22:12:00,70.8,68.1,30.12,SSW,202,2.5,2.5,91,0.00,,FEW002,0.00,VWS V14.01,2013-07-10 02:12:00,
2013-07-09 22:13:00,70.8,68.1,30.12,SW,225,2.0,2.0,91,0.00,,FEW002,0.00,VWS V14.01,2013-07-10 02:13:00,
2013-07-09 22:14:00,70.8,68.1,30.12,SW,225,1.6,1.6,91,0.00,,FEW002,0.00,VWS V14.01,2013-07-10 02:14:00,
2013-07-09 22:15:00,70.8,68.1,30.12,SSW,202,1.6,1.6,91,0.00,,FEW002,0.00,VWS V14.01,2013-07-10 02:15:00,
2013-07-09 22:16:00,70.8,68.1,30.12,SSW,202,1.3,1.3,91,0.00,,FEW002,0.00,VWS V14.01,2013-07-10 02:16:00,
2013-07-09 22:17:00,70.8,68.1,30.12,SW,225,2.5,2.5,91,0.00,,FEW002,0.00,VWS V14.01,2013-07-10 02:17:00,
2013-07-09 22:18:00,70.7,67.9,30.12,SSW,202,2.7,2.7,91,0.00,,FEW002,0.00,VWS V14.01,2013-07-10 02:18:00,
2013-07-09 22:19:00,70.7,67.9,30.12,SW,225,2.7,2.7,91,0.00,,FEW002,0.00,VWS V14.01,2013-07-10 02:19:00,
2013-07-09 22:20:00,70.7,68.2,30.12,SW,225,3.1,3.1,92,0.00,,FEW002,0.00,VWS V14.01,2013-07-10 02:20:00,
2013-07-09 22:21:00,70.7,68.2,30.12,SSW,202,2.7,2.7,92,0.00,,FEW002,0.00,VWS V14.01,2013-07-10 02:21:00,
2013-07-09 22:22:00,70.7,68.2,30.12,WSW,248,2.5,2.5,92,0.00,,FEW002,0.00,VWS V14.01,2013-07-10 02:22:00,
2013-07-09 22:23:00,70.7,68.5,30.12,West,270,4.0,4.0,93,0.00,,FEW002,0.00,VWS V14.01,2013-07-10 02:23:00,
2013-07-09 22:24:00,70.7,68.5,30.15,SW,225,4.3,4.3,93,0.00,,FEW002,0.00,VWS V14.01,2013-07-10 02:24:00,
2013-07-09 22:25:00,70.8,68.7,30.15,SSW,202,3.4,3.4,93,0.00,,FEW002,0.00,VWS V14.01,2013-07-10 02:25:00,
2013-07-09 22:26:00,70.8,68.7,30.15,WSW,248,2.2,2.2,93,0.00,,FEW002,0.00,VWS V14.01,2013-07-10 02:26:00,
2013-07-09 22:27:00,70.7,68.5,30.15,WSW,248,0.0,0.0,93,0.00,,FEW002,0.00,VWS V14.01,2013-07-10 02:27:00,
2013-07-09 22:28:00,70.7,68.5,30.15,West,270,2.5,2.5,93,0.00,,FEW002,0.00,VWS V14.01,2013-07-10 02:28:00,
2013-07-09 22:29:00,70.7,68.5,30.15,WSW,248,2.5,2.5,93,0.00,,FEW002,0.00,VWS V14.01,2013-07-10 02:29:00,
2013-07-09 22:30:00,70.7,68.5,30.15,SSW,202,0.0,0.0,93,0.00,,FEW002,0.00,VWS V14.01,2013-07-10 02:30:00,
2013-07-09 22:31:00,70.7,68.5,30.15,SW,225,0.9,0.9,93,0.00,,FEW002,0.00,VWS V14.01,2013-07-10 02:31:00,
2013-07-09 22:32:00,70.7,68.5,30.15,SW,225,2.7,2.7,93,0.00,,FEW002,0.00,VWS V14.01,2013-07-10 02:32:00,
2013-07-09 22:33:00,70.7,68.5,30.15,SW,225,1.6,1.6,93,0.00,,FEW002,0.00,VWS V14.01,2013-07-10 02:33:00,
2013-07-09 22:34:00,70.7,68.5,30.15,WSW,248,2.7,2.7,93,0.00,,FEW002,0.00,VWS V14.01,2013-07-10 02:34:00,
2013-07-09 22:35:00,70.7,68.5,30.15,WSW,248,2.0,2.0,93,0.00,,FEW002,0.00,VWS V14.01,2013-07-10 02:35:00,
2013-07-09 22:36:00,70.7,68.5,30.15,SW,225,2.0,2.0,93,0.00,,FEW002,0.00,VWS V14.01,2013-07-10 02:36:00,
2013-07-09 22:37:00,70.7,68.5,30.15,WSW,248,2.2,2.2,93,0.00,,FEW002,0.00,VWS V14.01,2013-07-10 02:37:00,
2013-07-09 22:38:00,70.7,68.5,30.15,SSW,202,1.1,1.1,93,0.00,,FEW002,0.00,VWS V14.01,2013-07-10 02:38:00,
2013-07-09 22:39:00,70.7,68.5,30.15,SW,225,0.0,0.0,93,0.00,,FEW002,0.00,VWS V14.01,2013-07-10 02:39:00,
2013-07-09 22:40:00,70.7,68.5,30.15,WSW,248,0.0,0.0,93,0.00,,FEW002,0.00,VWS V14.01,2013-07-10 02:40:00,
2013-07-09 22:41:00,70.7,68.5,30.15,WSW,248,0.0,0.0,93,0.00,,FEW002,0.00,VWS V14.01,2013-07-10 02:41:00,
2013-07-09 22:42:00,70.7,68.5,30.15,SW,225,2.9,2.9,93,0.00,,FEW002,0.00,VWS V14.01,2013-07-10 02:42:00,
2013-07-09 22:43:00,70.7,68.5,30.15,SSW,202,1.6,1.6,93,0.00,,FEW002,0.00,VWS V14.01,2013-07-10 02:43:00,
2013-07-09 22:44:00,70.7,68.5,30.15,SSW,202,1.6,1.6,93,0.00,,FEW002,0.00,VWS V14.01,2013-07-10 02:44:00,
2013-07-09 22:45:00,70.7,68.5,30.15,SW,225,2.0,2.0,93,0.00,,FEW002,0.00,VWS V14.01,2013-07-10 02:45:00,
2013-07-09 22:46:00,70.7,68.5,30.15,SW,225,1.3,1.3,93,0.00,,FEW002,0.00,VWS V14.01,2013-07-10 02:46:00,
2013-07-09 22:47:00,70.7,68.5,30.15,SW,225,2.0,2.0,93,0.00,,FEW002,0.00,VWS V14.01,2013-07-10 02:47:00,
2013-07-09 22:48:00,70.7,68.8,30.15,WSW,248,2.5,2.5,94,0.00,,FEW002,0.00,VWS V14.01,2013-07-10 02:48:00,
2013-07-09 22:49:00,70.7,68.8,30.15,SW,225,1.6,1.6,94,0.00,,FEW002,0.00,VWS V14.01,2013-07-10 02:49:00,
2013-07-09 22:50:00,70.7,68.8,30.15,SW,225,1.6,1.6,94,0.00,,FEW002,0.00,VWS V14.01,2013-07-10 02:50:00,
2013-07-09 22:51:00,70.7,68.8,30.15,SW,225,2.9,2.9,94,0.00,,FEW002,0.00,VWS V14.01,2013-07-10 02:51:00,
2013-07-09 22:52:00,70.7,68.8,30.15,SW,225,3.1,3.1,94,0.00,,FEW002,0.00,VWS V14.01,2013-07-10 02:52:00,
2013-07-09 22:53:00,70.8,69.0,30.15,SW,225,2.7,2.7,94,0.00,,FEW002,0.00,VWS V14.01,2013-07-10 02:53:00,
2013-07-09 22:54:00,70.7,68.8,30.15,West,270,2.0,2.0,94,0.00,,FEW002,0.00,VWS V14.01,2013-07-10 02:54:00,
2013-07-09 22:55:00,70.7,68.8,30.15,West,270,2.0,2.0,94,0.00,,FEW002,0.00,VWS V14.01,2013-07-10 02:55:00,
2013-07-09 22:56:00,70.7,68.8,30.15,WSW,248,1.1,1.1,94,0.00,,FEW002,0.00,VWS V14.01,2013-07-10 02:56:00,
2013-07-09 22:57:00,70.7,68.8,30.15,West,270,2.0,2.0,94,0.00,,FEW002,0.00,VWS V14.01,2013-07-10 02:57:00,
2013-07-09 22:58:00,70.7,68.8,30.15,WNW,292,2.0,2.0,94,0.00,,FEW002,0.00,VWS V14.01,2013-07-10 02:58:00,
2013-07-09 23:00:00,70.7,68.8,30.15,WSW,248,0.0,0.0,94,0.00,,FEW002,0.00,VWS V14.01,2013-07-10 03:00:00,
2013-07-09 23:01:00,70.7,68.8,30.15,WSW,248,0.0,0.0,94,0.00,,FEW002,0.00,VWS V14.01,2013-07-10 03:01:00,
2013-07-09 23:02:00,70.7,68.8,30.15,WSW,248,1.6,1.6,94,0.00,,FEW002,0.00,VWS V14.01,2013-07-10 03:02:00,
2013-07-09 23:03:00,70.7,68.8,30.15,WSW,248,0.0,0.0,94,0.00,,FEW002,0.00,VWS V14.01,2013-07-10 03:03:00,
2013-07-09 23:04:00,70.7,68.8,30.15,West,270,2.5,2.5,94,0.00,,FEW002,0.00,VWS V14.01,2013-07-10 03:04:00,
2013-07-09 23:05:00,70.7,68.8,30.15,West,270,1.1,1.1,94,0.00,,FEW002,0.00,VWS V14.01,2013-07-10 03:05:00,
2013-07-09 23:06:00,70.7,68.8,30.15,SSW,202,2.0,2.0,94,0.00,,FEW002,0.00,VWS V14.01,2013-07-10 03:06:00,
2013-07-09 23:07:00,70.7,68.8,30.15,SSW,202,2.5,2.5,94,0.00,,FEW002,0.00,VWS V14.01,2013-07-10 03:07:00,
2013-07-09 23:08:00,70.7,68.8,30.15,SW,225,2.5,2.5,94,0.00,,FEW002,0.00,VWS V14.01,2013-07-10 03:08:00,
2013-07-09 23:09:00,70.7,68.8,30.15,SW,225,2.7,2.7,94,0.00,,FEW002,0.00,VWS V14.01,2013-07-10 03:09:00,
2013-07-09 23:10:00,70.7,68.8,30.15,SSW,202,1.3,1.3,94,0.00,,FEW002,0.00,VWS V14.01,2013-07-10 03:10:00,
2013-07-09 23:11:00,70.7,68.8,30.15,South,180,2.0,2.0,94,0.00,,FEW002,0.00,VWS V14.01,2013-07-10 03:11:00,
2013-07-09 23:12:00,70.7,68.8,30.15,SSE,158,1.6,1.6,94,0.00,,FEW002,0.00,VWS V14.01,2013-07-10 03:12:00,
2013-07-09 23:13:00,70.7,68.8,30.15,SSE,158,0.0,0.0,94,0.00,,FEW002,0.00,VWS V14.01,2013-07-10 03:13:00,
2013-07-09 23:15:00,70.5,68.7,30.15,South,180,0.0,0.0,94,0.00,,FEW002,0.00,VWS V14.01,2013-07-10 03:15:00,
2013-07-09 23:16:00,70.5,68.7,30.15,SW,225,0.0,0.0,94,0.00,,FEW002,0.00,VWS V14.01,2013-07-10 03:16:00,
2013-07-09 23:17:00,70.5,68.7,30.15,WSW,248,0.0,0.0,94,0.00,,FEW002,0.00,VWS V14.01,2013-07-10 03:17:00,
2013-07-09 23:18:00,70.5,68.7,30.15,WSW,248,0.0,0.0,94,0.00,,FEW002,0.00,VWS V14.01,2013-07-10 03:18:00,
2013-07-09 23:19:00,70.5,68.7,30.15,WSW,248,0.0,0.0,94,0.00,,FEW002,0.00,VWS V14.01,2013-07-10 03:19:00,
2013-07-09 23:20:00,70.5,68.7,30.15,WSW,248,0.0,0.0,94,0.00,,FEW002,0.00,VWS V14.01,2013-07-10 03:20:00,
2013-07-09 23:21:00,70.5,68.7,30.15,SW,225,0.0,0.0,94,0.00,,FEW002,0.00,VWS V14.01,2013-07-10 03:21:00,
2013-07-09 23:22:00,70.5,68.4,30.15,SW,225,0.0,0.0,93,0.00,,FEW002,0.00,VWS V14.01,2013-07-10 03:22:00,
2013-07-09 23:23:00,70.5,68.4,30.15,SW,225,0.0,0.0,93,0.00,,FEW002,0.00,VWS V14.01,2013-07-10 03:23:00,
2013-07-09 23:25:00,70.3,68.2,30.15,SW,225,0.0,0.0,93,0.00,,FEW002,0.00,VWS V14.01,2013-07-10 03:25:00,
2013-07-09 23:26:00,70.3,68.2,30.15,SW,225,1.3,1.3,93,0.00,,FEW002,0.00,VWS V14.01,2013-07-10 03:26:00,
2013-07-09 23:27:00,70.5,68.7,30.15,WSW,248,1.3,1.3,94,0.00,,FEW002,0.00,VWS V14.01,2013-07-10 03:27:00,
2013-07-09 23:28:00,70.3,68.5,30.15,SW,225,1.3,1.3,94,0.00,,FEW002,0.00,VWS V14.01,2013-07-10 03:28:00,
2013-07-09 23:29:00,70.3,68.5,30.15,SW,225,0.0,0.0,94,0.00,,FEW002,0.00,VWS V14.01,2013-07-10 03:29:00,
2013-07-09 23:30:00,70.5,68.7,30.15,SW,225,0.0,0.0,94,0.00,,FEW002,0.00,VWS V14.01,2013-07-10 03:30:00,
2013-07-09 23:31:00,70.5,68.7,30.15,SSE,158,1.3,1.3,94,0.00,,FEW002,0.00,VWS V14.01,2013-07-10 03:31:00,
2013-07-09 23:32:00,70.3,68.5,30.15,SE,135,1.6,1.6,94,0.00,,FEW002,0.00,VWS V14.01,2013-07-10 03:32:00,
2013-07-09 23:33:00,70.3,68.5,30.15,SE,135,2.5,2.5,94,0.00,,FEW002,0.00,VWS V14.01,2013-07-10 03:33:00,
2013-07-09 23:34:00,70.3,68.5,30.15,SE,135,2.0,2.0,94,0.00,,FEW002,0.00,VWS V14.01,2013-07-10 03:34:00,
2013-07-09 23:35:00,70.1,68.3,30.15,SE,135,2.5,2.5,94,0.00,,FEW002,0.00,VWS V14.01,2013-07-10 03:35:00,
2013-07-09 23:36:00,70.1,68.3,30.15,SE,135,2.0,2.0,94,0.00,,FEW002,0.00,VWS V14.01,2013-07-10 03:36:00,
2013-07-09 23:37:00,70.1,68.6,30.15,SSE,158,1.6,1.6,95,0.00,,FEW002,0.00,VWS V14.01,2013-07-10 03:37:00,
2013-07-09 23:38:00,70.3,68.8,30.15,SSE,158,2.5,2.5,95,0.00,,FEW002,0.00,VWS V14.01,2013-07-10 03:38:00,
2013-07-09 23:39:00,70.3,68.8,30.15,SE,135,1.3,1.3,95,0.00,,FEW002,0.00,VWS V14.01,2013-07-10 03:39:00,
2013-07-09 23:40:00,70.3,68.8,30.15,SSE,158,2.7,2.7,95,0.00,,FEW002,0.00,VWS V14.01,2013-07-10 03:40:00,
2013-07-09 23:41:00,70.3,68.8,30.15,South,180,1.3,1.3,95,0.00,,FEW002,0.00,VWS V14.01,2013-07-10 03:41:00,
2013-07-09 23:42:00,70.1,68.6,30.15,SSE,158,0.0,0.0,95,0.00,,FEW002,0.00,VWS V14.01,2013-07-10 03:42:00,
2013-07-09 23:43:00,70.3,68.8,30.15,South,180,0.9,0.9,95,0.00,,FEW002,0.00,VWS V14.01,2013-07-10 03:43:00,
2013-07-09 23:44:00,70.1,68.6,30.15,WSW,248,0.0,0.0,95,0.00,,FEW002,0.00,VWS V14.01,2013-07-10 03:44:00,
2013-07-09 23:45:00,70.1,68.6,30.15,SSW,202,0.0,0.0,95,0.00,,FEW002,0.00,VWS V14.01,2013-07-10 03:45:00,
2013-07-09 23:46:00,70.1,68.6,30.15,SW,225,0.0,0.0,95,0.00,,FEW002,0.00,VWS V14.01,2013-07-10 03:46:00,
2013-07-09 23:47:00,70.1,68.6,30.15,WSW,248,0.0,0.0,95,0.00,,FEW002,0.00,VWS V14.01,2013-07-10 03:47:00,
2013-07-09 23:48:00,70.1,68.6,30.15,WSW,248,0.0,0.0,95,0.00,,FEW002,0.00,VWS V14.01,2013-07-10 03:48:00,
2013-07-09 23:49:00,70.1,68.6,30.15,WSW,248,0.0,0.0,95,0.00,,FEW002,0.00,VWS V14.01,2013-07-10 03:49:00,
2013-07-09 23:50:00,70.1,68.6,30.15,WSW,248,0.0,0.0,95,0.00,,FEW002,0.00,VWS V14.01,2013-07-10 03:50:00,
2013-07-09 23:51:00,70.1,68.6,30.15,WSW,248,0.0,0.0,95,0.00,,FEW002,0.00,VWS V14.01,2013-07-10 03:51:00,
2013-07-09 23:52:00,70.1,68.6,30.15,SW,225,1.6,1.6,95,0.00,,FEW002,0.00,VWS V14.01,2013-07-10 03:52:00,
2013-07-09 23:53:00,70.1,68.6,30.15,WSW,248,2.0,2.0,95,0.00,,FEW002,0.00,VWS V14.01,2013-07-10 03:53:00,
2013-07-09 23:54:00,70.3,68.8,30.15,WSW,248,2.5,2.5,95,0.00,,FEW002,0.00,VWS V14.01,2013-07-10 03:54:00,
2013-07-09 23:55:00,70.3,68.8,30.15,WSW,248,2.0,2.0,95,0.00,,FEW002,0.00,VWS V14.01,2013-07-10 03:55:00,
2013-07-09 23:56:00,70.1,68.6,30.15,West,270,2.5,2.5,95,0.00,,FEW002,0.00,VWS V14.01,2013-07-10 03:56:00,
2013-07-09 23:57:00,70.3,69.1,30.15,WNW,292,2.0,2.0,96,0.00,,FEW002,0.00,VWS V14.01,2013-07-10 03:57:00,
2013-07-09 23:58:00,70.3,69.1,30.15,West,270,2.0,2.0,96,0.00,,FEW002,0.00,VWS V14.01,2013-07-10 03:58:00,
2013-07-09 23:59:00,70.1,68.9,30.15,West,270,0.9,0.9,96,0.00,,FEW002,0.00,VWS V14.01,2013-07-10 03:59:00,